<?xml version="1.0" encoding="UTF-8" standalone="no" ?>
<gpx xmlns="http://www.topografix.com/GPX/1/1" xmlns:xsi="http://www.w3.org/2001/XMLSchema-instance" xsi:schemaLocation="http://www.topografix.com/GPX/1/1 http://www.topografix.com/GPX/1/1/gpx.xsd" version="1.1" creator="VisuGPX - https://www.visugpx.com">
  <metadata>
    <name>Rabou - Tour des gorges du Petit Buech</name>
    <desc><![CDATA[La randonnée présentée fait le tour des gorges du Petit Buech.
Départ de Rabou -, puis sentier des Bans, montée à la chapelle Ste Roseline du vallon de la Crotte, retour par la rive droite .
Randonnée réservée à randonneurs confirmés car nombreux passages délicats .

 [url=http://bd-rando.blogspot.fr/2016/10/rabou-le-tour-des-gorges-du-petit-buech.html]voir rando[/url] ]]></desc>
  </metadata>
  <trk>
    <name><![CDATA[RABOU TOUR GORGES PT BUECH]]></name>
    <trkseg>
      <trkpt lat="44.59149" lon="6.00536">
        <ele>1155.64</ele>
        <time>2016-10-10T10:22:59Z</time>
      </trkpt>
      <trkpt lat="44.59148" lon="6.00537">
        <ele>1155.16</ele>
        <time>2016-10-10T10:23:19Z</time>
      </trkpt>
      <trkpt lat="44.59148" lon="6.00537">
        <ele>1154.68</ele>
        <time>2016-10-10T10:23:32Z</time>
      </trkpt>
      <trkpt lat="44.59149" lon="6.00538">
        <ele>1155.16</ele>
        <time>2016-10-10T10:23:55Z</time>
      </trkpt>
      <trkpt lat="44.59146" lon="6.00541">
        <ele>1155.16</ele>
        <time>2016-10-10T10:24:07Z</time>
      </trkpt>
      <trkpt lat="44.59146" lon="6.00546">
        <ele>1155.16</ele>
        <time>2016-10-10T10:24:28Z</time>
      </trkpt>
      <trkpt lat="44.59149" lon="6.00554">
        <ele>1156.12</ele>
        <time>2016-10-10T10:24:34Z</time>
      </trkpt>
      <trkpt lat="44.5915" lon="6.00557">
        <ele>1156.6</ele>
        <time>2016-10-10T10:24:38Z</time>
      </trkpt>
      <trkpt lat="44.59154" lon="6.00574">
        <ele>1158.53</ele>
        <time>2016-10-10T10:24:51Z</time>
      </trkpt>
      <trkpt lat="44.59154" lon="6.00592">
        <ele>1159.97</ele>
        <time>2016-10-10T10:25:05Z</time>
      </trkpt>
      <trkpt lat="44.59161" lon="6.006">
        <ele>1162.37</ele>
        <time>2016-10-10T10:25:17Z</time>
      </trkpt>
      <trkpt lat="44.5918" lon="6.00589">
        <ele>1163.81</ele>
        <time>2016-10-10T10:25:31Z</time>
      </trkpt>
      <trkpt lat="44.59188" lon="6.00576">
        <ele>1165.26</ele>
        <time>2016-10-10T10:25:45Z</time>
      </trkpt>
      <trkpt lat="44.59194" lon="6.00577">
        <ele>1165.74</ele>
        <time>2016-10-10T10:25:58Z</time>
      </trkpt>
      <trkpt lat="44.59205" lon="6.00577">
        <ele>1167.66</ele>
        <time>2016-10-10T10:26:10Z</time>
      </trkpt>
      <trkpt lat="44.59215" lon="6.00578">
        <ele>1170.06</ele>
        <time>2016-10-10T10:26:23Z</time>
      </trkpt>
      <trkpt lat="44.59228" lon="6.0058">
        <ele>1171.02</ele>
        <time>2016-10-10T10:26:36Z</time>
      </trkpt>
      <trkpt lat="44.59234" lon="6.00585">
        <ele>1172.47</ele>
        <time>2016-10-10T10:26:43Z</time>
      </trkpt>
      <trkpt lat="44.59244" lon="6.00594">
        <ele>1173.91</ele>
        <time>2016-10-10T10:26:56Z</time>
      </trkpt>
      <trkpt lat="44.59248" lon="6.00601">
        <ele>1174.39</ele>
        <time>2016-10-10T10:27:03Z</time>
      </trkpt>
      <trkpt lat="44.59257" lon="6.00616">
        <ele>1175.83</ele>
        <time>2016-10-10T10:27:17Z</time>
      </trkpt>
      <trkpt lat="44.59268" lon="6.00625">
        <ele>1177.27</ele>
        <time>2016-10-10T10:27:31Z</time>
      </trkpt>
      <trkpt lat="44.59273" lon="6.00629">
        <ele>1176.79</ele>
        <time>2016-10-10T10:27:37Z</time>
      </trkpt>
      <trkpt lat="44.5928" lon="6.00634">
        <ele>1177.27</ele>
        <time>2016-10-10T10:27:52Z</time>
      </trkpt>
      <trkpt lat="44.59281" lon="6.00636">
        <ele>1177.27</ele>
        <time>2016-10-10T10:27:53Z</time>
      </trkpt>
      <trkpt lat="44.59288" lon="6.00642">
        <ele>1177.27</ele>
        <time>2016-10-10T10:28:01Z</time>
      </trkpt>
      <trkpt lat="44.59293" lon="6.00643">
        <ele>1177.75</ele>
        <time>2016-10-10T10:28:06Z</time>
      </trkpt>
      <trkpt lat="44.59301" lon="6.00647">
        <ele>1177.75</ele>
        <time>2016-10-10T10:28:14Z</time>
      </trkpt>
      <trkpt lat="44.59305" lon="6.00648">
        <ele>1177.27</ele>
        <time>2016-10-10T10:28:18Z</time>
      </trkpt>
      <trkpt lat="44.59322" lon="6.00652">
        <ele>1177.75</ele>
        <time>2016-10-10T10:28:33Z</time>
      </trkpt>
      <trkpt lat="44.59336" lon="6.00653">
        <ele>1178.23</ele>
        <time>2016-10-10T10:28:46Z</time>
      </trkpt>
      <trkpt lat="44.59337" lon="6.00653">
        <ele>1178.23</ele>
        <time>2016-10-10T10:28:47Z</time>
      </trkpt>
      <trkpt lat="44.59339" lon="6.00653">
        <ele>1178.71</ele>
        <time>2016-10-10T10:28:50Z</time>
      </trkpt>
      <trkpt lat="44.5934" lon="6.00654">
        <ele>1178.23</ele>
        <time>2016-10-10T10:28:51Z</time>
      </trkpt>
      <trkpt lat="44.59347" lon="6.00657">
        <ele>1178.71</ele>
        <time>2016-10-10T10:29:04Z</time>
      </trkpt>
      <trkpt lat="44.5935" lon="6.00656">
        <ele>1178.71</ele>
        <time>2016-10-10T10:29:07Z</time>
      </trkpt>
      <trkpt lat="44.59351" lon="6.00656">
        <ele>1178.23</ele>
        <time>2016-10-10T10:29:08Z</time>
      </trkpt>
      <trkpt lat="44.59354" lon="6.00656">
        <ele>1178.23</ele>
        <time>2016-10-10T10:29:10Z</time>
      </trkpt>
      <trkpt lat="44.59368" lon="6.0066">
        <ele>1178.71</ele>
        <time>2016-10-10T10:29:25Z</time>
      </trkpt>
      <trkpt lat="44.59382" lon="6.0066">
        <ele>1179.19</ele>
        <time>2016-10-10T10:29:38Z</time>
      </trkpt>
      <trkpt lat="44.59385" lon="6.00662">
        <ele>1179.19</ele>
        <time>2016-10-10T10:29:41Z</time>
      </trkpt>
      <trkpt lat="44.594" lon="6.00667">
        <ele>1179.67</ele>
        <time>2016-10-10T10:29:54Z</time>
      </trkpt>
      <trkpt lat="44.59406" lon="6.00667">
        <ele>1179.67</ele>
        <time>2016-10-10T10:29:59Z</time>
      </trkpt>
      <trkpt lat="44.59416" lon="6.00672">
        <ele>1179.67</ele>
        <time>2016-10-10T10:30:10Z</time>
      </trkpt>
      <trkpt lat="44.59423" lon="6.00679">
        <ele>1179.67</ele>
        <time>2016-10-10T10:30:23Z</time>
      </trkpt>
      <trkpt lat="44.59429" lon="6.00679">
        <ele>1180.16</ele>
        <time>2016-10-10T10:30:31Z</time>
      </trkpt>
      <trkpt lat="44.59436" lon="6.00681">
        <ele>1180.64</ele>
        <time>2016-10-10T10:30:38Z</time>
      </trkpt>
      <trkpt lat="44.59448" lon="6.00684">
        <ele>1180.64</ele>
        <time>2016-10-10T10:30:50Z</time>
      </trkpt>
      <trkpt lat="44.59463" lon="6.00687">
        <ele>1180.64</ele>
        <time>2016-10-10T10:31:05Z</time>
      </trkpt>
      <trkpt lat="44.5947" lon="6.00683">
        <ele>1180.16</ele>
        <time>2016-10-10T10:31:16Z</time>
      </trkpt>
      <trkpt lat="44.59472" lon="6.00685">
        <ele>1179.67</ele>
        <time>2016-10-10T10:31:19Z</time>
      </trkpt>
      <trkpt lat="44.59489" lon="6.00694">
        <ele>1179.67</ele>
        <time>2016-10-10T10:31:35Z</time>
      </trkpt>
      <trkpt lat="44.59494" lon="6.00697">
        <ele>1179.19</ele>
        <time>2016-10-10T10:31:41Z</time>
      </trkpt>
      <trkpt lat="44.59507" lon="6.00705">
        <ele>1179.67</ele>
        <time>2016-10-10T10:31:55Z</time>
      </trkpt>
      <trkpt lat="44.59522" lon="6.00714">
        <ele>1179.67</ele>
        <time>2016-10-10T10:32:09Z</time>
      </trkpt>
      <trkpt lat="44.59526" lon="6.00716">
        <ele>1180.16</ele>
        <time>2016-10-10T10:32:13Z</time>
      </trkpt>
      <trkpt lat="44.5953" lon="6.00718">
        <ele>1180.64</ele>
        <time>2016-10-10T10:32:27Z</time>
      </trkpt>
      <trkpt lat="44.5953" lon="6.00719">
        <ele>1180.16</ele>
        <time>2016-10-10T10:32:44Z</time>
      </trkpt>
      <trkpt lat="44.5953" lon="6.00719">
        <ele>1180.64</ele>
        <time>2016-10-10T10:33:15Z</time>
      </trkpt>
      <trkpt lat="44.5953" lon="6.0072">
        <ele>1181.12</ele>
        <time>2016-10-10T10:33:39Z</time>
      </trkpt>
      <trkpt lat="44.59531" lon="6.00721">
        <ele>1181.6</ele>
        <time>2016-10-10T10:33:56Z</time>
      </trkpt>
      <trkpt lat="44.59531" lon="6.0072">
        <ele>1181.12</ele>
        <time>2016-10-10T10:34:21Z</time>
      </trkpt>
      <trkpt lat="44.59541" lon="6.00726">
        <ele>1181.6</ele>
        <time>2016-10-10T10:34:33Z</time>
      </trkpt>
      <trkpt lat="44.59542" lon="6.00727">
        <ele>1181.6</ele>
        <time>2016-10-10T10:34:34Z</time>
      </trkpt>
      <trkpt lat="44.59554" lon="6.00733">
        <ele>1182.56</ele>
        <time>2016-10-10T10:34:48Z</time>
      </trkpt>
      <trkpt lat="44.59567" lon="6.00738">
        <ele>1183.04</ele>
        <time>2016-10-10T10:34:59Z</time>
      </trkpt>
      <trkpt lat="44.59583" lon="6.00742">
        <ele>1184</ele>
        <time>2016-10-10T10:35:14Z</time>
      </trkpt>
      <trkpt lat="44.59596" lon="6.00744">
        <ele>1185.92</ele>
        <time>2016-10-10T10:35:29Z</time>
      </trkpt>
      <trkpt lat="44.59611" lon="6.00744">
        <ele>1187.37</ele>
        <time>2016-10-10T10:35:43Z</time>
      </trkpt>
      <trkpt lat="44.59622" lon="6.00744">
        <ele>1188.81</ele>
        <time>2016-10-10T10:35:56Z</time>
      </trkpt>
      <trkpt lat="44.59635" lon="6.00745">
        <ele>1190.25</ele>
        <time>2016-10-10T10:36:10Z</time>
      </trkpt>
      <trkpt lat="44.5964" lon="6.00742">
        <ele>1190.73</ele>
        <time>2016-10-10T10:36:21Z</time>
      </trkpt>
      <trkpt lat="44.59641" lon="6.00738">
        <ele>1191.21</ele>
        <time>2016-10-10T10:36:33Z</time>
      </trkpt>
      <trkpt lat="44.59642" lon="6.00735">
        <ele>1190.25</ele>
        <time>2016-10-10T10:36:35Z</time>
      </trkpt>
      <trkpt lat="44.59648" lon="6.00726">
        <ele>1190.73</ele>
        <time>2016-10-10T10:36:42Z</time>
      </trkpt>
      <trkpt lat="44.5966" lon="6.0071">
        <ele>1190.25</ele>
        <time>2016-10-10T10:36:57Z</time>
      </trkpt>
      <trkpt lat="44.59672" lon="6.00694">
        <ele>1189.77</ele>
        <time>2016-10-10T10:37:11Z</time>
      </trkpt>
      <trkpt lat="44.59677" lon="6.00691">
        <ele>1189.77</ele>
        <time>2016-10-10T10:37:16Z</time>
      </trkpt>
      <trkpt lat="44.59681" lon="6.00687">
        <ele>1190.25</ele>
        <time>2016-10-10T10:37:25Z</time>
      </trkpt>
      <trkpt lat="44.59698" lon="6.00677">
        <ele>1190.25</ele>
        <time>2016-10-10T10:37:41Z</time>
      </trkpt>
      <trkpt lat="44.59707" lon="6.00669">
        <ele>1189.77</ele>
        <time>2016-10-10T10:37:51Z</time>
      </trkpt>
      <trkpt lat="44.59708" lon="6.00667">
        <ele>1190.25</ele>
        <time>2016-10-10T10:37:53Z</time>
      </trkpt>
      <trkpt lat="44.59724" lon="6.00655">
        <ele>1188.33</ele>
        <time>2016-10-10T10:38:09Z</time>
      </trkpt>
      <trkpt lat="44.59733" lon="6.00646">
        <ele>1185.92</ele>
        <time>2016-10-10T10:38:26Z</time>
      </trkpt>
      <trkpt lat="44.59744" lon="6.00637">
        <ele>1184.48</ele>
        <time>2016-10-10T10:38:42Z</time>
      </trkpt>
      <trkpt lat="44.59761" lon="6.00629">
        <ele>1183.04</ele>
        <time>2016-10-10T10:38:59Z</time>
      </trkpt>
      <trkpt lat="44.59778" lon="6.00625">
        <ele>1182.56</ele>
        <time>2016-10-10T10:39:15Z</time>
      </trkpt>
      <trkpt lat="44.59786" lon="6.00612">
        <ele>1181.12</ele>
        <time>2016-10-10T10:39:30Z</time>
      </trkpt>
      <trkpt lat="44.59785" lon="6.006">
        <ele>1180.64</ele>
        <time>2016-10-10T10:39:38Z</time>
      </trkpt>
      <trkpt lat="44.59786" lon="6.00589">
        <ele>1180.16</ele>
        <time>2016-10-10T10:39:44Z</time>
      </trkpt>
      <trkpt lat="44.59786" lon="6.00585">
        <ele>1180.16</ele>
        <time>2016-10-10T10:39:47Z</time>
      </trkpt>
      <trkpt lat="44.59788" lon="6.00573">
        <ele>1178.71</ele>
        <time>2016-10-10T10:39:58Z</time>
      </trkpt>
      <trkpt lat="44.59791" lon="6.00564">
        <ele>1179.19</ele>
        <time>2016-10-10T10:40:05Z</time>
      </trkpt>
      <trkpt lat="44.59796" lon="6.00554">
        <ele>1179.19</ele>
        <time>2016-10-10T10:40:13Z</time>
      </trkpt>
      <trkpt lat="44.59811" lon="6.00543">
        <ele>1182.56</ele>
        <time>2016-10-10T10:40:29Z</time>
      </trkpt>
      <trkpt lat="44.59821" lon="6.00538">
        <ele>1184.48</ele>
        <time>2016-10-10T10:40:44Z</time>
      </trkpt>
      <trkpt lat="44.59829" lon="6.00532">
        <ele>1184.96</ele>
        <time>2016-10-10T10:40:59Z</time>
      </trkpt>
      <trkpt lat="44.5983" lon="6.00532">
        <ele>1184.48</ele>
        <time>2016-10-10T10:41:00Z</time>
      </trkpt>
      <trkpt lat="44.59842" lon="6.00523">
        <ele>1186.88</ele>
        <time>2016-10-10T10:41:15Z</time>
      </trkpt>
      <trkpt lat="44.59854" lon="6.00511">
        <ele>1187.85</ele>
        <time>2016-10-10T10:41:30Z</time>
      </trkpt>
      <trkpt lat="44.59868" lon="6.00504">
        <ele>1187.85</ele>
        <time>2016-10-10T10:41:46Z</time>
      </trkpt>
      <trkpt lat="44.59886" lon="6.00499">
        <ele>1186.4</ele>
        <time>2016-10-10T10:42:03Z</time>
      </trkpt>
      <trkpt lat="44.59897" lon="6.00498">
        <ele>1185.44</ele>
        <time>2016-10-10T10:42:13Z</time>
      </trkpt>
      <trkpt lat="44.59909" lon="6.00502">
        <ele>1186.4</ele>
        <time>2016-10-10T10:42:26Z</time>
      </trkpt>
      <trkpt lat="44.5991" lon="6.00502">
        <ele>1186.4</ele>
        <time>2016-10-10T10:42:28Z</time>
      </trkpt>
      <trkpt lat="44.59923" lon="6.00509">
        <ele>1188.33</ele>
        <time>2016-10-10T10:42:40Z</time>
      </trkpt>
      <trkpt lat="44.59929" lon="6.00517">
        <ele>1190.73</ele>
        <time>2016-10-10T10:42:54Z</time>
      </trkpt>
      <trkpt lat="44.59941" lon="6.00513">
        <ele>1190.73</ele>
        <time>2016-10-10T10:43:07Z</time>
      </trkpt>
      <trkpt lat="44.59949" lon="6.00509">
        <ele>1191.69</ele>
        <time>2016-10-10T10:43:16Z</time>
      </trkpt>
      <trkpt lat="44.59954" lon="6.00497">
        <ele>1192.65</ele>
        <time>2016-10-10T10:43:27Z</time>
      </trkpt>
      <trkpt lat="44.59956" lon="6.00478">
        <ele>1193.61</ele>
        <time>2016-10-10T10:43:41Z</time>
      </trkpt>
      <trkpt lat="44.59958" lon="6.0047">
        <ele>1194.09</ele>
        <time>2016-10-10T10:43:47Z</time>
      </trkpt>
      <trkpt lat="44.59966" lon="6.00457">
        <ele>1195.54</ele>
        <time>2016-10-10T10:43:58Z</time>
      </trkpt>
      <trkpt lat="44.59971" lon="6.0045">
        <ele>1198.42</ele>
        <time>2016-10-10T10:44:10Z</time>
      </trkpt>
      <trkpt lat="44.59975" lon="6.00437">
        <ele>1199.86</ele>
        <time>2016-10-10T10:44:23Z</time>
      </trkpt>
      <trkpt lat="44.59976" lon="6.00436">
        <ele>1199.86</ele>
        <time>2016-10-10T10:44:24Z</time>
      </trkpt>
      <trkpt lat="44.59981" lon="6.00424">
        <ele>1201.79</ele>
        <time>2016-10-10T10:44:38Z</time>
      </trkpt>
      <trkpt lat="44.59982" lon="6.00422">
        <ele>1202.27</ele>
        <time>2016-10-10T10:44:40Z</time>
      </trkpt>
      <trkpt lat="44.5999" lon="6.0041">
        <ele>1204.19</ele>
        <time>2016-10-10T10:44:54Z</time>
      </trkpt>
      <trkpt lat="44.6" lon="6.00398">
        <ele>1206.11</ele>
        <time>2016-10-10T10:45:08Z</time>
      </trkpt>
      <trkpt lat="44.60009" lon="6.00392">
        <ele>1207.55</ele>
        <time>2016-10-10T10:45:20Z</time>
      </trkpt>
      <trkpt lat="44.60014" lon="6.00395">
        <ele>1208.51</ele>
        <time>2016-10-10T10:45:33Z</time>
      </trkpt>
      <trkpt lat="44.6002" lon="6.00394">
        <ele>1210.44</ele>
        <time>2016-10-10T10:45:44Z</time>
      </trkpt>
      <trkpt lat="44.60027" lon="6.00395">
        <ele>1212.36</ele>
        <time>2016-10-10T10:45:55Z</time>
      </trkpt>
      <trkpt lat="44.60038" lon="6.00394">
        <ele>1214.76</ele>
        <time>2016-10-10T10:46:08Z</time>
      </trkpt>
      <trkpt lat="44.6005" lon="6.00397">
        <ele>1216.21</ele>
        <time>2016-10-10T10:46:21Z</time>
      </trkpt>
      <trkpt lat="44.60055" lon="6.00393">
        <ele>1217.17</ele>
        <time>2016-10-10T10:46:33Z</time>
      </trkpt>
      <trkpt lat="44.60052" lon="6.00383">
        <ele>1216.21</ele>
        <time>2016-10-10T10:46:46Z</time>
      </trkpt>
      <trkpt lat="44.60051" lon="6.00375">
        <ele>1216.69</ele>
        <time>2016-10-10T10:47:02Z</time>
      </trkpt>
      <trkpt lat="44.60051" lon="6.00367">
        <ele>1217.17</ele>
        <time>2016-10-10T10:47:08Z</time>
      </trkpt>
      <trkpt lat="44.60056" lon="6.00356">
        <ele>1217.65</ele>
        <time>2016-10-10T10:47:17Z</time>
      </trkpt>
      <trkpt lat="44.60066" lon="6.00343">
        <ele>1218.61</ele>
        <time>2016-10-10T10:47:32Z</time>
      </trkpt>
      <trkpt lat="44.60073" lon="6.00325">
        <ele>1219.57</ele>
        <time>2016-10-10T10:47:48Z</time>
      </trkpt>
      <trkpt lat="44.60077" lon="6.0031">
        <ele>1221.97</ele>
        <time>2016-10-10T10:48:02Z</time>
      </trkpt>
      <trkpt lat="44.60079" lon="6.00299">
        <ele>1223.9</ele>
        <time>2016-10-10T10:48:13Z</time>
      </trkpt>
      <trkpt lat="44.60085" lon="6.00286">
        <ele>1224.86</ele>
        <time>2016-10-10T10:48:26Z</time>
      </trkpt>
      <trkpt lat="44.60088" lon="6.00277">
        <ele>1226.3</ele>
        <time>2016-10-10T10:48:39Z</time>
      </trkpt>
      <trkpt lat="44.60088" lon="6.00269">
        <ele>1226.78</ele>
        <time>2016-10-10T10:48:45Z</time>
      </trkpt>
      <trkpt lat="44.60094" lon="6.00249">
        <ele>1227.74</ele>
        <time>2016-10-10T10:49:00Z</time>
      </trkpt>
      <trkpt lat="44.60099" lon="6.00236">
        <ele>1229.18</ele>
        <time>2016-10-10T10:49:12Z</time>
      </trkpt>
      <trkpt lat="44.601" lon="6.00232">
        <ele>1229.18</ele>
        <time>2016-10-10T10:49:14Z</time>
      </trkpt>
      <trkpt lat="44.6011" lon="6.00217">
        <ele>1229.66</ele>
        <time>2016-10-10T10:49:30Z</time>
      </trkpt>
      <trkpt lat="44.60118" lon="6.00205">
        <ele>1232.55</ele>
        <time>2016-10-10T10:49:44Z</time>
      </trkpt>
      <trkpt lat="44.60126" lon="6.00194">
        <ele>1233.99</ele>
        <time>2016-10-10T10:49:58Z</time>
      </trkpt>
      <trkpt lat="44.60135" lon="6.00186">
        <ele>1235.43</ele>
        <time>2016-10-10T10:50:10Z</time>
      </trkpt>
      <trkpt lat="44.60144" lon="6.00178">
        <ele>1237.83</ele>
        <time>2016-10-10T10:50:24Z</time>
      </trkpt>
      <trkpt lat="44.60152" lon="6.00174">
        <ele>1240.24</ele>
        <time>2016-10-10T10:50:38Z</time>
      </trkpt>
      <trkpt lat="44.60163" lon="6.00167">
        <ele>1241.68</ele>
        <time>2016-10-10T10:50:53Z</time>
      </trkpt>
      <trkpt lat="44.60172" lon="6.00157">
        <ele>1242.64</ele>
        <time>2016-10-10T10:51:08Z</time>
      </trkpt>
      <trkpt lat="44.60179" lon="6.00151">
        <ele>1244.08</ele>
        <time>2016-10-10T10:51:21Z</time>
      </trkpt>
      <trkpt lat="44.60191" lon="6.00144">
        <ele>1245.04</ele>
        <time>2016-10-10T10:51:36Z</time>
      </trkpt>
      <trkpt lat="44.60201" lon="6.00129">
        <ele>1245.53</ele>
        <time>2016-10-10T10:51:52Z</time>
      </trkpt>
      <trkpt lat="44.6022" lon="6.00116">
        <ele>1246.97</ele>
        <time>2016-10-10T10:52:13Z</time>
      </trkpt>
      <trkpt lat="44.60238" lon="6.00112">
        <ele>1246.49</ele>
        <time>2016-10-10T10:52:30Z</time>
      </trkpt>
      <trkpt lat="44.60254" lon="6.00106">
        <ele>1246.97</ele>
        <time>2016-10-10T10:52:47Z</time>
      </trkpt>
      <trkpt lat="44.60267" lon="6.00096">
        <ele>1247.93</ele>
        <time>2016-10-10T10:53:03Z</time>
      </trkpt>
      <trkpt lat="44.60281" lon="6.00083">
        <ele>1249.85</ele>
        <time>2016-10-10T10:53:20Z</time>
      </trkpt>
      <trkpt lat="44.60289" lon="6.0007">
        <ele>1250.33</ele>
        <time>2016-10-10T10:53:35Z</time>
      </trkpt>
      <trkpt lat="44.60293" lon="6.00064">
        <ele>1251.29</ele>
        <time>2016-10-10T10:53:51Z</time>
      </trkpt>
      <trkpt lat="44.60304" lon="6.00058">
        <ele>1254.18</ele>
        <time>2016-10-10T10:54:06Z</time>
      </trkpt>
      <trkpt lat="44.60316" lon="6.00048">
        <ele>1256.1</ele>
        <time>2016-10-10T10:54:22Z</time>
      </trkpt>
      <trkpt lat="44.60319" lon="6.00046">
        <ele>1257.06</ele>
        <time>2016-10-10T10:54:26Z</time>
      </trkpt>
      <trkpt lat="44.60322" lon="6.00043">
        <ele>1256.58</ele>
        <time>2016-10-10T10:54:30Z</time>
      </trkpt>
      <trkpt lat="44.60324" lon="6.0004">
        <ele>1256.58</ele>
        <time>2016-10-10T10:54:33Z</time>
      </trkpt>
      <trkpt lat="44.60327" lon="6.0004">
        <ele>1257.06</ele>
        <time>2016-10-10T10:54:36Z</time>
      </trkpt>
      <trkpt lat="44.6033" lon="6.00038">
        <ele>1257.54</ele>
        <time>2016-10-10T10:54:39Z</time>
      </trkpt>
      <trkpt lat="44.60338" lon="6.00036">
        <ele>1258.98</ele>
        <time>2016-10-10T10:54:48Z</time>
      </trkpt>
      <trkpt lat="44.60339" lon="6.00035">
        <ele>1258.98</ele>
        <time>2016-10-10T10:54:50Z</time>
      </trkpt>
      <trkpt lat="44.60342" lon="6.00033">
        <ele>1259.46</ele>
        <time>2016-10-10T10:54:53Z</time>
      </trkpt>
      <trkpt lat="44.60356" lon="6.00034">
        <ele>1261.39</ele>
        <time>2016-10-10T10:55:08Z</time>
      </trkpt>
      <trkpt lat="44.60369" lon="6.00032">
        <ele>1262.35</ele>
        <time>2016-10-10T10:55:24Z</time>
      </trkpt>
      <trkpt lat="44.60378" lon="6.00039">
        <ele>1262.83</ele>
        <time>2016-10-10T10:55:42Z</time>
      </trkpt>
      <trkpt lat="44.60387" lon="6.00042">
        <ele>1264.27</ele>
        <time>2016-10-10T10:55:59Z</time>
      </trkpt>
      <trkpt lat="44.60407" lon="6.00044">
        <ele>1265.71</ele>
        <time>2016-10-10T10:56:12Z</time>
      </trkpt>
      <trkpt lat="44.60419" lon="6.00051">
        <ele>1267.16</ele>
        <time>2016-10-10T10:56:25Z</time>
      </trkpt>
      <trkpt lat="44.60426" lon="6.00045">
        <ele>1268.6</ele>
        <time>2016-10-10T10:56:38Z</time>
      </trkpt>
      <trkpt lat="44.60427" lon="6.00031">
        <ele>1270.04</ele>
        <time>2016-10-10T10:56:52Z</time>
      </trkpt>
      <trkpt lat="44.60432" lon="6.00019">
        <ele>1271.96</ele>
        <time>2016-10-10T10:57:05Z</time>
      </trkpt>
      <trkpt lat="44.60431" lon="6.00003">
        <ele>1273.4</ele>
        <time>2016-10-10T10:57:19Z</time>
      </trkpt>
      <trkpt lat="44.60434" lon="5.99988">
        <ele>1275.33</ele>
        <time>2016-10-10T10:57:33Z</time>
      </trkpt>
      <trkpt lat="44.60437" lon="5.99974">
        <ele>1277.25</ele>
        <time>2016-10-10T10:57:45Z</time>
      </trkpt>
      <trkpt lat="44.60441" lon="5.99962">
        <ele>1279.17</ele>
        <time>2016-10-10T10:57:59Z</time>
      </trkpt>
      <trkpt lat="44.60442" lon="5.99957">
        <ele>1280.13</ele>
        <time>2016-10-10T10:58:11Z</time>
      </trkpt>
      <trkpt lat="44.60442" lon="5.99957">
        <ele>1280.13</ele>
        <time>2016-10-10T10:58:26Z</time>
      </trkpt>
      <trkpt lat="44.60446" lon="5.99945">
        <ele>1282.06</ele>
        <time>2016-10-10T10:58:38Z</time>
      </trkpt>
      <trkpt lat="44.60453" lon="5.99937">
        <ele>1283.02</ele>
        <time>2016-10-10T10:58:49Z</time>
      </trkpt>
      <trkpt lat="44.60458" lon="5.99933">
        <ele>1283.5</ele>
        <time>2016-10-10T10:58:54Z</time>
      </trkpt>
      <trkpt lat="44.60456" lon="5.99917">
        <ele>1283.5</ele>
        <time>2016-10-10T10:59:09Z</time>
      </trkpt>
      <trkpt lat="44.60451" lon="5.99909">
        <ele>1282.54</ele>
        <time>2016-10-10T10:59:21Z</time>
      </trkpt>
      <trkpt lat="44.60447" lon="5.99901">
        <ele>1282.06</ele>
        <time>2016-10-10T10:59:39Z</time>
      </trkpt>
      <trkpt lat="44.60449" lon="5.99887">
        <ele>1281.09</ele>
        <time>2016-10-10T10:59:54Z</time>
      </trkpt>
      <trkpt lat="44.60454" lon="5.99876">
        <ele>1280.61</ele>
        <time>2016-10-10T11:00:07Z</time>
      </trkpt>
      <trkpt lat="44.60459" lon="5.99872">
        <ele>1278.69</ele>
        <time>2016-10-10T11:00:23Z</time>
      </trkpt>
      <trkpt lat="44.60462" lon="5.99866">
        <ele>1276.77</ele>
        <time>2016-10-10T11:00:38Z</time>
      </trkpt>
      <trkpt lat="44.60469" lon="5.99858">
        <ele>1274.85</ele>
        <time>2016-10-10T11:00:53Z</time>
      </trkpt>
      <trkpt lat="44.60477" lon="5.99851">
        <ele>1273.4</ele>
        <time>2016-10-10T11:01:05Z</time>
      </trkpt>
      <trkpt lat="44.60486" lon="5.99844">
        <ele>1271.96</ele>
        <time>2016-10-10T11:01:20Z</time>
      </trkpt>
      <trkpt lat="44.60495" lon="5.99835">
        <ele>1271.96</ele>
        <time>2016-10-10T11:01:35Z</time>
      </trkpt>
      <trkpt lat="44.60496" lon="5.99835">
        <ele>1271.48</ele>
        <time>2016-10-10T11:01:36Z</time>
      </trkpt>
      <trkpt lat="44.605" lon="5.9983">
        <ele>1271.96</ele>
        <time>2016-10-10T11:01:41Z</time>
      </trkpt>
      <trkpt lat="44.60511" lon="5.99821">
        <ele>1271.48</ele>
        <time>2016-10-10T11:01:56Z</time>
      </trkpt>
      <trkpt lat="44.60518" lon="5.99813">
        <ele>1271.96</ele>
        <time>2016-10-10T11:02:08Z</time>
      </trkpt>
      <trkpt lat="44.60524" lon="5.99805">
        <ele>1271.48</ele>
        <time>2016-10-10T11:02:22Z</time>
      </trkpt>
      <trkpt lat="44.60535" lon="5.99793">
        <ele>1271.48</ele>
        <time>2016-10-10T11:02:37Z</time>
      </trkpt>
      <trkpt lat="44.60533" lon="5.99787">
        <ele>1270.52</ele>
        <time>2016-10-10T11:02:49Z</time>
      </trkpt>
      <trkpt lat="44.6053" lon="5.99785">
        <ele>1270.52</ele>
        <time>2016-10-10T11:02:54Z</time>
      </trkpt>
      <trkpt lat="44.60528" lon="5.99783">
        <ele>1270.04</ele>
        <time>2016-10-10T11:02:56Z</time>
      </trkpt>
      <trkpt lat="44.6052" lon="5.99773">
        <ele>1269.08</ele>
        <time>2016-10-10T11:03:07Z</time>
      </trkpt>
      <trkpt lat="44.60518" lon="5.99755">
        <ele>1270.52</ele>
        <time>2016-10-10T11:03:22Z</time>
      </trkpt>
      <trkpt lat="44.60518" lon="5.9975">
        <ele>1270.52</ele>
        <time>2016-10-10T11:03:42Z</time>
      </trkpt>
      <trkpt lat="44.60515" lon="5.99736">
        <ele>1269.56</ele>
        <time>2016-10-10T11:03:55Z</time>
      </trkpt>
      <trkpt lat="44.60515" lon="5.99724">
        <ele>1270.52</ele>
        <time>2016-10-10T11:04:08Z</time>
      </trkpt>
      <trkpt lat="44.60518" lon="5.99709">
        <ele>1272.44</ele>
        <time>2016-10-10T11:04:22Z</time>
      </trkpt>
      <trkpt lat="44.60521" lon="5.99695">
        <ele>1273.4</ele>
        <time>2016-10-10T11:04:37Z</time>
      </trkpt>
      <trkpt lat="44.60522" lon="5.99691">
        <ele>1272.92</ele>
        <time>2016-10-10T11:04:52Z</time>
      </trkpt>
      <trkpt lat="44.60529" lon="5.99681">
        <ele>1271.48</ele>
        <time>2016-10-10T11:05:05Z</time>
      </trkpt>
      <trkpt lat="44.6053" lon="5.9968">
        <ele>1271.48</ele>
        <time>2016-10-10T11:05:07Z</time>
      </trkpt>
      <trkpt lat="44.6054" lon="5.99666">
        <ele>1272.44</ele>
        <time>2016-10-10T11:05:22Z</time>
      </trkpt>
      <trkpt lat="44.6054" lon="5.99666">
        <ele>1272.92</ele>
        <time>2016-10-10T11:05:23Z</time>
      </trkpt>
      <trkpt lat="44.60546" lon="5.99661">
        <ele>1274.85</ele>
        <time>2016-10-10T11:05:38Z</time>
      </trkpt>
      <trkpt lat="44.60549" lon="5.99652">
        <ele>1275.81</ele>
        <time>2016-10-10T11:05:45Z</time>
      </trkpt>
      <trkpt lat="44.60556" lon="5.99645">
        <ele>1277.73</ele>
        <time>2016-10-10T11:05:57Z</time>
      </trkpt>
      <trkpt lat="44.60565" lon="5.99634">
        <ele>1280.13</ele>
        <time>2016-10-10T11:06:12Z</time>
      </trkpt>
      <trkpt lat="44.60567" lon="5.99632">
        <ele>1280.61</ele>
        <time>2016-10-10T11:06:17Z</time>
      </trkpt>
      <trkpt lat="44.6057" lon="5.99628">
        <ele>1281.09</ele>
        <time>2016-10-10T11:06:22Z</time>
      </trkpt>
      <trkpt lat="44.60572" lon="5.99625">
        <ele>1281.57</ele>
        <time>2016-10-10T11:06:26Z</time>
      </trkpt>
      <trkpt lat="44.6058" lon="5.99617">
        <ele>1283.5</ele>
        <time>2016-10-10T11:06:41Z</time>
      </trkpt>
      <trkpt lat="44.60583" lon="5.99604">
        <ele>1285.42</ele>
        <time>2016-10-10T11:06:55Z</time>
      </trkpt>
      <trkpt lat="44.60584" lon="5.996">
        <ele>1286.86</ele>
        <time>2016-10-10T11:06:59Z</time>
      </trkpt>
      <trkpt lat="44.60588" lon="5.99591">
        <ele>1287.82</ele>
        <time>2016-10-10T11:07:10Z</time>
      </trkpt>
      <trkpt lat="44.60591" lon="5.99588">
        <ele>1289.27</ele>
        <time>2016-10-10T11:07:14Z</time>
      </trkpt>
      <trkpt lat="44.60602" lon="5.9959">
        <ele>1291.67</ele>
        <time>2016-10-10T11:07:28Z</time>
      </trkpt>
      <trkpt lat="44.60609" lon="5.99589">
        <ele>1293.59</ele>
        <time>2016-10-10T11:07:40Z</time>
      </trkpt>
      <trkpt lat="44.60614" lon="5.99588">
        <ele>1295.03</ele>
        <time>2016-10-10T11:07:52Z</time>
      </trkpt>
      <trkpt lat="44.60619" lon="5.99584">
        <ele>1295.51</ele>
        <time>2016-10-10T11:08:08Z</time>
      </trkpt>
      <trkpt lat="44.6062" lon="5.99583">
        <ele>1295.51</ele>
        <time>2016-10-10T11:08:30Z</time>
      </trkpt>
      <trkpt lat="44.60622" lon="5.99584">
        <ele>1294.55</ele>
        <time>2016-10-10T11:08:42Z</time>
      </trkpt>
      <trkpt lat="44.6062" lon="5.99584">
        <ele>1294.07</ele>
        <time>2016-10-10T11:08:56Z</time>
      </trkpt>
      <trkpt lat="44.60622" lon="5.99583">
        <ele>1293.11</ele>
        <time>2016-10-10T11:09:17Z</time>
      </trkpt>
      <trkpt lat="44.60622" lon="5.99586">
        <ele>1292.63</ele>
        <time>2016-10-10T11:09:22Z</time>
      </trkpt>
      <trkpt lat="44.60629" lon="5.99596">
        <ele>1292.15</ele>
        <time>2016-10-10T11:09:34Z</time>
      </trkpt>
      <trkpt lat="44.60636" lon="5.99598">
        <ele>1292.15</ele>
        <time>2016-10-10T11:09:52Z</time>
      </trkpt>
      <trkpt lat="44.60639" lon="5.99592">
        <ele>1292.15</ele>
        <time>2016-10-10T11:09:56Z</time>
      </trkpt>
      <trkpt lat="44.60647" lon="5.99586">
        <ele>1293.11</ele>
        <time>2016-10-10T11:10:11Z</time>
      </trkpt>
      <trkpt lat="44.60652" lon="5.99589">
        <ele>1292.63</ele>
        <time>2016-10-10T11:10:34Z</time>
      </trkpt>
      <trkpt lat="44.60658" lon="5.99594">
        <ele>1292.63</ele>
        <time>2016-10-10T11:10:48Z</time>
      </trkpt>
      <trkpt lat="44.60661" lon="5.99598">
        <ele>1292.63</ele>
        <time>2016-10-10T11:11:00Z</time>
      </trkpt>
      <trkpt lat="44.60666" lon="5.99598">
        <ele>1292.63</ele>
        <time>2016-10-10T11:11:12Z</time>
      </trkpt>
      <trkpt lat="44.60669" lon="5.99593">
        <ele>1292.15</ele>
        <time>2016-10-10T11:11:27Z</time>
      </trkpt>
      <trkpt lat="44.60666" lon="5.99594">
        <ele>1292.63</ele>
        <time>2016-10-10T11:11:36Z</time>
      </trkpt>
      <trkpt lat="44.60669" lon="5.99599">
        <ele>1292.63</ele>
        <time>2016-10-10T11:11:38Z</time>
      </trkpt>
      <trkpt lat="44.6067" lon="5.996">
        <ele>1293.11</ele>
        <time>2016-10-10T11:12:33Z</time>
      </trkpt>
      <trkpt lat="44.60671" lon="5.99604">
        <ele>1292.63</ele>
        <time>2016-10-10T11:12:36Z</time>
      </trkpt>
      <trkpt lat="44.60672" lon="5.99605">
        <ele>1292.15</ele>
        <time>2016-10-10T11:12:53Z</time>
      </trkpt>
      <trkpt lat="44.60677" lon="5.996">
        <ele>1291.67</ele>
        <time>2016-10-10T11:13:08Z</time>
      </trkpt>
      <trkpt lat="44.60682" lon="5.99592">
        <ele>1281.57</ele>
        <time>2016-10-10T11:15:45Z</time>
      </trkpt>
      <trkpt lat="44.6068" lon="5.99589">
        <ele>1280.61</ele>
        <time>2016-10-10T11:16:00Z</time>
      </trkpt>
      <trkpt lat="44.60682" lon="5.99585">
        <ele>1278.69</ele>
        <time>2016-10-10T11:16:14Z</time>
      </trkpt>
      <trkpt lat="44.60685" lon="5.99581">
        <ele>1276.77</ele>
        <time>2016-10-10T11:16:27Z</time>
      </trkpt>
      <trkpt lat="44.60687" lon="5.99576">
        <ele>1276.29</ele>
        <time>2016-10-10T11:16:41Z</time>
      </trkpt>
      <trkpt lat="44.60692" lon="5.99567">
        <ele>1275.33</ele>
        <time>2016-10-10T11:16:54Z</time>
      </trkpt>
      <trkpt lat="44.60698" lon="5.99557">
        <ele>1273.4</ele>
        <time>2016-10-10T11:17:10Z</time>
      </trkpt>
      <trkpt lat="44.60705" lon="5.99549">
        <ele>1272.44</ele>
        <time>2016-10-10T11:17:22Z</time>
      </trkpt>
      <trkpt lat="44.6071" lon="5.99547">
        <ele>1271.48</ele>
        <time>2016-10-10T11:17:34Z</time>
      </trkpt>
      <trkpt lat="44.60709" lon="5.99548">
        <ele>1269.56</ele>
        <time>2016-10-10T11:17:46Z</time>
      </trkpt>
      <trkpt lat="44.60704" lon="5.9955">
        <ele>1268.6</ele>
        <time>2016-10-10T11:17:59Z</time>
      </trkpt>
      <trkpt lat="44.60698" lon="5.99553">
        <ele>1267.64</ele>
        <time>2016-10-10T11:18:16Z</time>
      </trkpt>
      <trkpt lat="44.60685" lon="5.99558">
        <ele>1265.23</ele>
        <time>2016-10-10T11:18:30Z</time>
      </trkpt>
      <trkpt lat="44.60682" lon="5.99559">
        <ele>1264.75</ele>
        <time>2016-10-10T11:18:44Z</time>
      </trkpt>
      <trkpt lat="44.60683" lon="5.99559">
        <ele>1261.87</ele>
        <time>2016-10-10T11:18:59Z</time>
      </trkpt>
      <trkpt lat="44.60687" lon="5.99557">
        <ele>1260.91</ele>
        <time>2016-10-10T11:19:12Z</time>
      </trkpt>
      <trkpt lat="44.60699" lon="5.99549">
        <ele>1259.46</ele>
        <time>2016-10-10T11:19:26Z</time>
      </trkpt>
      <trkpt lat="44.60713" lon="5.99532">
        <ele>1258.5</ele>
        <time>2016-10-10T11:19:43Z</time>
      </trkpt>
      <trkpt lat="44.60722" lon="5.99524">
        <ele>1258.02</ele>
        <time>2016-10-10T11:19:58Z</time>
      </trkpt>
      <trkpt lat="44.60725" lon="5.9952">
        <ele>1256.58</ele>
        <time>2016-10-10T11:20:04Z</time>
      </trkpt>
      <trkpt lat="44.60733" lon="5.9951">
        <ele>1256.1</ele>
        <time>2016-10-10T11:20:20Z</time>
      </trkpt>
      <trkpt lat="44.60739" lon="5.99507">
        <ele>1256.1</ele>
        <time>2016-10-10T11:20:37Z</time>
      </trkpt>
      <trkpt lat="44.60745" lon="5.99496">
        <ele>1254.18</ele>
        <time>2016-10-10T11:20:50Z</time>
      </trkpt>
      <trkpt lat="44.60753" lon="5.99484">
        <ele>1253.22</ele>
        <time>2016-10-10T11:21:06Z</time>
      </trkpt>
      <trkpt lat="44.60758" lon="5.99477">
        <ele>1251.29</ele>
        <time>2016-10-10T11:21:16Z</time>
      </trkpt>
      <trkpt lat="44.60771" lon="5.99457">
        <ele>1250.33</ele>
        <time>2016-10-10T11:21:33Z</time>
      </trkpt>
      <trkpt lat="44.6078" lon="5.99447">
        <ele>1251.77</ele>
        <time>2016-10-10T11:21:46Z</time>
      </trkpt>
      <trkpt lat="44.60788" lon="5.99435">
        <ele>1252.25</ele>
        <time>2016-10-10T11:21:57Z</time>
      </trkpt>
      <trkpt lat="44.6079" lon="5.99431">
        <ele>1252.25</ele>
        <time>2016-10-10T11:22:01Z</time>
      </trkpt>
      <trkpt lat="44.60798" lon="5.9942">
        <ele>1252.74</ele>
        <time>2016-10-10T11:22:11Z</time>
      </trkpt>
      <trkpt lat="44.60804" lon="5.99409">
        <ele>1251.77</ele>
        <time>2016-10-10T11:22:24Z</time>
      </trkpt>
      <trkpt lat="44.60814" lon="5.99397">
        <ele>1249.85</ele>
        <time>2016-10-10T11:22:39Z</time>
      </trkpt>
      <trkpt lat="44.60817" lon="5.99393">
        <ele>1248.89</ele>
        <time>2016-10-10T11:22:57Z</time>
      </trkpt>
      <trkpt lat="44.60824" lon="5.99382">
        <ele>1247.93</ele>
        <time>2016-10-10T11:23:11Z</time>
      </trkpt>
      <trkpt lat="44.6084" lon="5.99364">
        <ele>1246.97</ele>
        <time>2016-10-10T11:23:29Z</time>
      </trkpt>
      <trkpt lat="44.60856" lon="5.99362">
        <ele>1247.93</ele>
        <time>2016-10-10T11:23:45Z</time>
      </trkpt>
      <trkpt lat="44.60859" lon="5.9936">
        <ele>1247.45</ele>
        <time>2016-10-10T11:23:49Z</time>
      </trkpt>
      <trkpt lat="44.60862" lon="5.99355">
        <ele>1246.97</ele>
        <time>2016-10-10T11:23:54Z</time>
      </trkpt>
      <trkpt lat="44.60868" lon="5.9934">
        <ele>1245.53</ele>
        <time>2016-10-10T11:24:06Z</time>
      </trkpt>
      <trkpt lat="44.6087" lon="5.99337">
        <ele>1246.01</ele>
        <time>2016-10-10T11:24:09Z</time>
      </trkpt>
      <trkpt lat="44.60874" lon="5.99331">
        <ele>1244.56</ele>
        <time>2016-10-10T11:24:17Z</time>
      </trkpt>
      <trkpt lat="44.60876" lon="5.99327">
        <ele>1244.08</ele>
        <time>2016-10-10T11:24:22Z</time>
      </trkpt>
      <trkpt lat="44.6088" lon="5.99317">
        <ele>1243.12</ele>
        <time>2016-10-10T11:24:31Z</time>
      </trkpt>
      <trkpt lat="44.60886" lon="5.99302">
        <ele>1240.72</ele>
        <time>2016-10-10T11:24:48Z</time>
      </trkpt>
      <trkpt lat="44.60889" lon="5.99289">
        <ele>1240.24</ele>
        <time>2016-10-10T11:24:58Z</time>
      </trkpt>
      <trkpt lat="44.60901" lon="5.99272">
        <ele>1240.72</ele>
        <time>2016-10-10T11:25:14Z</time>
      </trkpt>
      <trkpt lat="44.60913" lon="5.99261">
        <ele>1240.72</ele>
        <time>2016-10-10T11:25:28Z</time>
      </trkpt>
      <trkpt lat="44.60916" lon="5.99257">
        <ele>1241.2</ele>
        <time>2016-10-10T11:25:32Z</time>
      </trkpt>
      <trkpt lat="44.60927" lon="5.99238">
        <ele>1240.24</ele>
        <time>2016-10-10T11:25:48Z</time>
      </trkpt>
      <trkpt lat="44.60933" lon="5.99225">
        <ele>1237.83</ele>
        <time>2016-10-10T11:26:02Z</time>
      </trkpt>
      <trkpt lat="44.60936" lon="5.99219">
        <ele>1236.87</ele>
        <time>2016-10-10T11:26:09Z</time>
      </trkpt>
      <trkpt lat="44.60937" lon="5.99217">
        <ele>1236.87</ele>
        <time>2016-10-10T11:26:11Z</time>
      </trkpt>
      <trkpt lat="44.6094" lon="5.99213">
        <ele>1236.39</ele>
        <time>2016-10-10T11:26:15Z</time>
      </trkpt>
      <trkpt lat="44.60949" lon="5.99195">
        <ele>1234.47</ele>
        <time>2016-10-10T11:26:30Z</time>
      </trkpt>
      <trkpt lat="44.60958" lon="5.99183">
        <ele>1232.07</ele>
        <time>2016-10-10T11:26:43Z</time>
      </trkpt>
      <trkpt lat="44.60962" lon="5.99175">
        <ele>1232.07</ele>
        <time>2016-10-10T11:26:50Z</time>
      </trkpt>
      <trkpt lat="44.60965" lon="5.99172">
        <ele>1232.07</ele>
        <time>2016-10-10T11:26:53Z</time>
      </trkpt>
      <trkpt lat="44.60972" lon="5.99158">
        <ele>1232.55</ele>
        <time>2016-10-10T11:27:04Z</time>
      </trkpt>
      <trkpt lat="44.60976" lon="5.99146">
        <ele>1233.03</ele>
        <time>2016-10-10T11:27:13Z</time>
      </trkpt>
      <trkpt lat="44.60979" lon="5.99135">
        <ele>1232.07</ele>
        <time>2016-10-10T11:27:27Z</time>
      </trkpt>
      <trkpt lat="44.60978" lon="5.99134">
        <ele>1232.07</ele>
        <time>2016-10-10T11:27:32Z</time>
      </trkpt>
      <trkpt lat="44.60983" lon="5.99115">
        <ele>1228.7</ele>
        <time>2016-10-10T11:27:47Z</time>
      </trkpt>
      <trkpt lat="44.60989" lon="5.99094">
        <ele>1225.82</ele>
        <time>2016-10-10T11:28:05Z</time>
      </trkpt>
      <trkpt lat="44.60996" lon="5.99076">
        <ele>1223.42</ele>
        <time>2016-10-10T11:28:21Z</time>
      </trkpt>
      <trkpt lat="44.60999" lon="5.99073">
        <ele>1222.45</ele>
        <time>2016-10-10T11:28:34Z</time>
      </trkpt>
      <trkpt lat="44.6101" lon="5.99058">
        <ele>1221.01</ele>
        <time>2016-10-10T11:28:50Z</time>
      </trkpt>
      <trkpt lat="44.61019" lon="5.99043">
        <ele>1219.09</ele>
        <time>2016-10-10T11:29:04Z</time>
      </trkpt>
      <trkpt lat="44.61032" lon="5.99036">
        <ele>1217.17</ele>
        <time>2016-10-10T11:29:17Z</time>
      </trkpt>
      <trkpt lat="44.61045" lon="5.9903">
        <ele>1216.69</ele>
        <time>2016-10-10T11:29:29Z</time>
      </trkpt>
      <trkpt lat="44.61048" lon="5.99029">
        <ele>1216.21</ele>
        <time>2016-10-10T11:29:32Z</time>
      </trkpt>
      <trkpt lat="44.61053" lon="5.99026">
        <ele>1216.21</ele>
        <time>2016-10-10T11:29:38Z</time>
      </trkpt>
      <trkpt lat="44.61058" lon="5.99022">
        <ele>1215.72</ele>
        <time>2016-10-10T11:29:44Z</time>
      </trkpt>
      <trkpt lat="44.6107" lon="5.99006">
        <ele>1215.24</ele>
        <time>2016-10-10T11:29:59Z</time>
      </trkpt>
      <trkpt lat="44.61073" lon="5.99002">
        <ele>1216.21</ele>
        <time>2016-10-10T11:30:18Z</time>
      </trkpt>
      <trkpt lat="44.61082" lon="5.99001">
        <ele>1218.13</ele>
        <time>2016-10-10T11:30:31Z</time>
      </trkpt>
      <trkpt lat="44.61086" lon="5.98997">
        <ele>1218.61</ele>
        <time>2016-10-10T11:30:46Z</time>
      </trkpt>
      <trkpt lat="44.61089" lon="5.98988">
        <ele>1217.17</ele>
        <time>2016-10-10T11:31:00Z</time>
      </trkpt>
      <trkpt lat="44.61092" lon="5.98978">
        <ele>1215.72</ele>
        <time>2016-10-10T11:31:15Z</time>
      </trkpt>
      <trkpt lat="44.61092" lon="5.98965">
        <ele>1213.8</ele>
        <time>2016-10-10T11:31:30Z</time>
      </trkpt>
      <trkpt lat="44.61094" lon="5.98961">
        <ele>1212.36</ele>
        <time>2016-10-10T11:31:43Z</time>
      </trkpt>
      <trkpt lat="44.61096" lon="5.98956">
        <ele>1212.36</ele>
        <time>2016-10-10T11:31:54Z</time>
      </trkpt>
      <trkpt lat="44.61098" lon="5.98943">
        <ele>1210.92</ele>
        <time>2016-10-10T11:32:08Z</time>
      </trkpt>
      <trkpt lat="44.61098" lon="5.9894">
        <ele>1209</ele>
        <time>2016-10-10T11:32:24Z</time>
      </trkpt>
      <trkpt lat="44.61099" lon="5.98928">
        <ele>1206.59</ele>
        <time>2016-10-10T11:32:42Z</time>
      </trkpt>
      <trkpt lat="44.61099" lon="5.98916">
        <ele>1204.67</ele>
        <time>2016-10-10T11:32:57Z</time>
      </trkpt>
      <trkpt lat="44.611" lon="5.98912">
        <ele>1203.71</ele>
        <time>2016-10-10T11:33:11Z</time>
      </trkpt>
      <trkpt lat="44.61103" lon="5.98902">
        <ele>1204.19</ele>
        <time>2016-10-10T11:33:24Z</time>
      </trkpt>
      <trkpt lat="44.61104" lon="5.98898">
        <ele>1202.27</ele>
        <time>2016-10-10T11:33:37Z</time>
      </trkpt>
      <trkpt lat="44.61105" lon="5.98886">
        <ele>1199.86</ele>
        <time>2016-10-10T11:33:48Z</time>
      </trkpt>
      <trkpt lat="44.61107" lon="5.98868">
        <ele>1196.98</ele>
        <time>2016-10-10T11:34:02Z</time>
      </trkpt>
      <trkpt lat="44.61108" lon="5.98852">
        <ele>1194.09</ele>
        <time>2016-10-10T11:34:16Z</time>
      </trkpt>
      <trkpt lat="44.61111" lon="5.98834">
        <ele>1191.21</ele>
        <time>2016-10-10T11:34:32Z</time>
      </trkpt>
      <trkpt lat="44.61111" lon="5.98825">
        <ele>1188.81</ele>
        <time>2016-10-10T11:34:46Z</time>
      </trkpt>
      <trkpt lat="44.61116" lon="5.98805">
        <ele>1187.37</ele>
        <time>2016-10-10T11:35:01Z</time>
      </trkpt>
      <trkpt lat="44.61123" lon="5.98794">
        <ele>1186.88</ele>
        <time>2016-10-10T11:35:15Z</time>
      </trkpt>
      <trkpt lat="44.61131" lon="5.98793">
        <ele>1185.44</ele>
        <time>2016-10-10T11:35:29Z</time>
      </trkpt>
      <trkpt lat="44.61132" lon="5.98794">
        <ele>1185.44</ele>
        <time>2016-10-10T11:35:41Z</time>
      </trkpt>
      <trkpt lat="44.61142" lon="5.98793">
        <ele>1184</ele>
        <time>2016-10-10T11:35:51Z</time>
      </trkpt>
      <trkpt lat="44.61151" lon="5.9879">
        <ele>1182.08</ele>
        <time>2016-10-10T11:36:05Z</time>
      </trkpt>
      <trkpt lat="44.61152" lon="5.9879">
        <ele>1181.6</ele>
        <time>2016-10-10T11:36:06Z</time>
      </trkpt>
      <trkpt lat="44.61162" lon="5.98783">
        <ele>1179.19</ele>
        <time>2016-10-10T11:36:20Z</time>
      </trkpt>
      <trkpt lat="44.61168" lon="5.98778">
        <ele>1178.23</ele>
        <time>2016-10-10T11:36:28Z</time>
      </trkpt>
      <trkpt lat="44.61175" lon="5.98772">
        <ele>1176.31</ele>
        <time>2016-10-10T11:36:40Z</time>
      </trkpt>
      <trkpt lat="44.61179" lon="5.98772">
        <ele>1174.87</ele>
        <time>2016-10-10T11:36:55Z</time>
      </trkpt>
      <trkpt lat="44.6118" lon="5.98772">
        <ele>1173.43</ele>
        <time>2016-10-10T11:37:03Z</time>
      </trkpt>
      <trkpt lat="44.61191" lon="5.98771">
        <ele>1171.5</ele>
        <time>2016-10-10T11:37:16Z</time>
      </trkpt>
      <trkpt lat="44.61195" lon="5.9877">
        <ele>1171.5</ele>
        <time>2016-10-10T11:37:20Z</time>
      </trkpt>
      <trkpt lat="44.61202" lon="5.9877">
        <ele>1170.54</ele>
        <time>2016-10-10T11:37:34Z</time>
      </trkpt>
      <trkpt lat="44.61207" lon="5.98774">
        <ele>1169.58</ele>
        <time>2016-10-10T11:37:51Z</time>
      </trkpt>
      <trkpt lat="44.6122" lon="5.98779">
        <ele>1168.62</ele>
        <time>2016-10-10T11:38:05Z</time>
      </trkpt>
      <trkpt lat="44.61221" lon="5.98777">
        <ele>1170.54</ele>
        <time>2016-10-10T11:38:16Z</time>
      </trkpt>
      <trkpt lat="44.61229" lon="5.98774">
        <ele>1171.98</ele>
        <time>2016-10-10T11:38:28Z</time>
      </trkpt>
      <trkpt lat="44.61234" lon="5.98767">
        <ele>1173.43</ele>
        <time>2016-10-10T11:38:39Z</time>
      </trkpt>
      <trkpt lat="44.61242" lon="5.98766">
        <ele>1173.91</ele>
        <time>2016-10-10T11:38:51Z</time>
      </trkpt>
      <trkpt lat="44.61251" lon="5.9877">
        <ele>1175.35</ele>
        <time>2016-10-10T11:39:05Z</time>
      </trkpt>
      <trkpt lat="44.61253" lon="5.98771">
        <ele>1177.27</ele>
        <time>2016-10-10T11:39:17Z</time>
      </trkpt>
      <trkpt lat="44.61258" lon="5.98776">
        <ele>1179.19</ele>
        <time>2016-10-10T11:39:30Z</time>
      </trkpt>
      <trkpt lat="44.61265" lon="5.98781">
        <ele>1181.6</ele>
        <time>2016-10-10T11:39:43Z</time>
      </trkpt>
      <trkpt lat="44.61269" lon="5.98781">
        <ele>1183.04</ele>
        <time>2016-10-10T11:39:55Z</time>
      </trkpt>
      <trkpt lat="44.61269" lon="5.9878">
        <ele>1184.48</ele>
        <time>2016-10-10T11:40:12Z</time>
      </trkpt>
      <trkpt lat="44.61273" lon="5.98774">
        <ele>1184</ele>
        <time>2016-10-10T11:40:32Z</time>
      </trkpt>
      <trkpt lat="44.61288" lon="5.98779">
        <ele>1185.44</ele>
        <time>2016-10-10T11:40:51Z</time>
      </trkpt>
      <trkpt lat="44.61299" lon="5.98794">
        <ele>1187.85</ele>
        <time>2016-10-10T11:41:07Z</time>
      </trkpt>
      <trkpt lat="44.61309" lon="5.98806">
        <ele>1189.77</ele>
        <time>2016-10-10T11:41:26Z</time>
      </trkpt>
      <trkpt lat="44.61325" lon="5.9881">
        <ele>1187.37</ele>
        <time>2016-10-10T11:41:46Z</time>
      </trkpt>
      <trkpt lat="44.61341" lon="5.98806">
        <ele>1184</ele>
        <time>2016-10-10T11:42:05Z</time>
      </trkpt>
      <trkpt lat="44.61355" lon="5.98806">
        <ele>1181.6</ele>
        <time>2016-10-10T11:42:22Z</time>
      </trkpt>
      <trkpt lat="44.61369" lon="5.9881">
        <ele>1179.19</ele>
        <time>2016-10-10T11:42:38Z</time>
      </trkpt>
      <trkpt lat="44.61378" lon="5.98811">
        <ele>1177.27</ele>
        <time>2016-10-10T11:42:52Z</time>
      </trkpt>
      <trkpt lat="44.61389" lon="5.98807">
        <ele>1173.91</ele>
        <time>2016-10-10T11:43:05Z</time>
      </trkpt>
      <trkpt lat="44.61402" lon="5.988">
        <ele>1171.98</ele>
        <time>2016-10-10T11:43:21Z</time>
      </trkpt>
      <trkpt lat="44.61411" lon="5.98798">
        <ele>1169.1</ele>
        <time>2016-10-10T11:43:32Z</time>
      </trkpt>
      <trkpt lat="44.61417" lon="5.98797">
        <ele>1167.66</ele>
        <time>2016-10-10T11:43:49Z</time>
      </trkpt>
      <trkpt lat="44.61422" lon="5.98792">
        <ele>1165.74</ele>
        <time>2016-10-10T11:44:03Z</time>
      </trkpt>
      <trkpt lat="44.61426" lon="5.98785">
        <ele>1163.81</ele>
        <time>2016-10-10T11:44:17Z</time>
      </trkpt>
      <trkpt lat="44.6143" lon="5.98783">
        <ele>1163.33</ele>
        <time>2016-10-10T11:44:32Z</time>
      </trkpt>
      <trkpt lat="44.61432" lon="5.98783">
        <ele>1163.33</ele>
        <time>2016-10-10T11:44:46Z</time>
      </trkpt>
      <trkpt lat="44.61433" lon="5.98777">
        <ele>1161.41</ele>
        <time>2016-10-10T11:45:01Z</time>
      </trkpt>
      <trkpt lat="44.61432" lon="5.98769">
        <ele>1158.53</ele>
        <time>2016-10-10T11:45:14Z</time>
      </trkpt>
      <trkpt lat="44.6143" lon="5.98759">
        <ele>1157.08</ele>
        <time>2016-10-10T11:45:26Z</time>
      </trkpt>
      <trkpt lat="44.61427" lon="5.98755">
        <ele>1155.64</ele>
        <time>2016-10-10T11:45:40Z</time>
      </trkpt>
      <trkpt lat="44.61421" lon="5.98748">
        <ele>1152.76</ele>
        <time>2016-10-10T11:45:54Z</time>
      </trkpt>
      <trkpt lat="44.61421" lon="5.98739">
        <ele>1149.87</ele>
        <time>2016-10-10T11:46:07Z</time>
      </trkpt>
      <trkpt lat="44.61422" lon="5.98728">
        <ele>1147.47</ele>
        <time>2016-10-10T11:46:25Z</time>
      </trkpt>
      <trkpt lat="44.61426" lon="5.98724">
        <ele>1145.07</ele>
        <time>2016-10-10T11:46:41Z</time>
      </trkpt>
      <trkpt lat="44.61425" lon="5.98712">
        <ele>1143.14</ele>
        <time>2016-10-10T11:46:54Z</time>
      </trkpt>
      <trkpt lat="44.6143" lon="5.98708">
        <ele>1140.74</ele>
        <time>2016-10-10T11:47:06Z</time>
      </trkpt>
      <trkpt lat="44.61429" lon="5.98697">
        <ele>1138.34</ele>
        <time>2016-10-10T11:47:20Z</time>
      </trkpt>
      <trkpt lat="44.61424" lon="5.98684">
        <ele>1135.94</ele>
        <time>2016-10-10T11:47:33Z</time>
      </trkpt>
      <trkpt lat="44.61423" lon="5.98682">
        <ele>1135.94</ele>
        <time>2016-10-10T11:47:35Z</time>
      </trkpt>
      <trkpt lat="44.61421" lon="5.98678">
        <ele>1134.49</ele>
        <time>2016-10-10T11:47:38Z</time>
      </trkpt>
      <trkpt lat="44.61422" lon="5.98672">
        <ele>1134.49</ele>
        <time>2016-10-10T11:47:50Z</time>
      </trkpt>
      <trkpt lat="44.61422" lon="5.9867">
        <ele>1133.53</ele>
        <time>2016-10-10T11:48:15Z</time>
      </trkpt>
      <trkpt lat="44.61422" lon="5.98661">
        <ele>1131.61</ele>
        <time>2016-10-10T11:48:26Z</time>
      </trkpt>
      <trkpt lat="44.61417" lon="5.98655">
        <ele>1128.73</ele>
        <time>2016-10-10T11:48:39Z</time>
      </trkpt>
      <trkpt lat="44.61412" lon="5.98653">
        <ele>1126.8</ele>
        <time>2016-10-10T11:48:51Z</time>
      </trkpt>
      <trkpt lat="44.61403" lon="5.98652">
        <ele>1124.88</ele>
        <time>2016-10-10T11:49:04Z</time>
      </trkpt>
      <trkpt lat="44.61402" lon="5.9865">
        <ele>1123.92</ele>
        <time>2016-10-10T11:49:07Z</time>
      </trkpt>
      <trkpt lat="44.61398" lon="5.98651">
        <ele>1122.96</ele>
        <time>2016-10-10T11:49:20Z</time>
      </trkpt>
      <trkpt lat="44.61396" lon="5.9865">
        <ele>1120.07</ele>
        <time>2016-10-10T11:49:33Z</time>
      </trkpt>
      <trkpt lat="44.61395" lon="5.98647">
        <ele>1118.63</ele>
        <time>2016-10-10T11:49:45Z</time>
      </trkpt>
      <trkpt lat="44.61397" lon="5.98643">
        <ele>1118.15</ele>
        <time>2016-10-10T11:49:56Z</time>
      </trkpt>
      <trkpt lat="44.61398" lon="5.98639">
        <ele>1118.15</ele>
        <time>2016-10-10T11:50:12Z</time>
      </trkpt>
      <trkpt lat="44.61396" lon="5.98635">
        <ele>1117.67</ele>
        <time>2016-10-10T11:50:23Z</time>
      </trkpt>
      <trkpt lat="44.61396" lon="5.9863">
        <ele>1117.67</ele>
        <time>2016-10-10T11:50:36Z</time>
      </trkpt>
      <trkpt lat="44.61395" lon="5.98622">
        <ele>1117.67</ele>
        <time>2016-10-10T11:50:48Z</time>
      </trkpt>
      <trkpt lat="44.61386" lon="5.98611">
        <ele>1118.63</ele>
        <time>2016-10-10T11:51:02Z</time>
      </trkpt>
      <trkpt lat="44.61381" lon="5.98601">
        <ele>1120.07</ele>
        <time>2016-10-10T11:51:15Z</time>
      </trkpt>
      <trkpt lat="44.61392" lon="5.9859">
        <ele>1121.03</ele>
        <time>2016-10-10T11:51:29Z</time>
      </trkpt>
      <trkpt lat="44.614" lon="5.98582">
        <ele>1122.96</ele>
        <time>2016-10-10T11:51:44Z</time>
      </trkpt>
      <trkpt lat="44.61396" lon="5.98575">
        <ele>1123.92</ele>
        <time>2016-10-10T11:51:57Z</time>
      </trkpt>
      <trkpt lat="44.61392" lon="5.98571">
        <ele>1124.88</ele>
        <time>2016-10-10T11:52:03Z</time>
      </trkpt>
      <trkpt lat="44.6138" lon="5.98564">
        <ele>1125.84</ele>
        <time>2016-10-10T11:52:20Z</time>
      </trkpt>
      <trkpt lat="44.61375" lon="5.98571">
        <ele>1126.8</ele>
        <time>2016-10-10T11:52:34Z</time>
      </trkpt>
      <trkpt lat="44.61365" lon="5.98585">
        <ele>1126.8</ele>
        <time>2016-10-10T11:52:50Z</time>
      </trkpt>
      <trkpt lat="44.61362" lon="5.98587">
        <ele>1126.8</ele>
        <time>2016-10-10T11:52:53Z</time>
      </trkpt>
      <trkpt lat="44.61358" lon="5.98591">
        <ele>1127.28</ele>
        <time>2016-10-10T11:53:07Z</time>
      </trkpt>
      <trkpt lat="44.61358" lon="5.98594">
        <ele>1127.76</ele>
        <time>2016-10-10T11:53:19Z</time>
      </trkpt>
      <trkpt lat="44.61358" lon="5.98586">
        <ele>1128.24</ele>
        <time>2016-10-10T11:53:39Z</time>
      </trkpt>
      <trkpt lat="44.6136" lon="5.98574">
        <ele>1130.17</ele>
        <time>2016-10-10T11:53:53Z</time>
      </trkpt>
      <trkpt lat="44.61363" lon="5.98573">
        <ele>1130.65</ele>
        <time>2016-10-10T11:54:07Z</time>
      </trkpt>
      <trkpt lat="44.61367" lon="5.98564">
        <ele>1133.05</ele>
        <time>2016-10-10T11:54:21Z</time>
      </trkpt>
      <trkpt lat="44.61366" lon="5.98554">
        <ele>1134.97</ele>
        <time>2016-10-10T11:54:35Z</time>
      </trkpt>
      <trkpt lat="44.61366" lon="5.98547">
        <ele>1136.9</ele>
        <time>2016-10-10T11:54:49Z</time>
      </trkpt>
      <trkpt lat="44.6136" lon="5.98529">
        <ele>1139.3</ele>
        <time>2016-10-10T11:55:05Z</time>
      </trkpt>
      <trkpt lat="44.61359" lon="5.98524">
        <ele>1141.7</ele>
        <time>2016-10-10T11:55:16Z</time>
      </trkpt>
      <trkpt lat="44.61358" lon="5.9852">
        <ele>1144.59</ele>
        <time>2016-10-10T11:55:29Z</time>
      </trkpt>
      <trkpt lat="44.61351" lon="5.98513">
        <ele>1145.55</ele>
        <time>2016-10-10T11:55:41Z</time>
      </trkpt>
      <trkpt lat="44.61347" lon="5.98508">
        <ele>1148.91</ele>
        <time>2016-10-10T11:55:57Z</time>
      </trkpt>
      <trkpt lat="44.61348" lon="5.98503">
        <ele>1150.84</ele>
        <time>2016-10-10T11:56:13Z</time>
      </trkpt>
      <trkpt lat="44.61351" lon="5.98498">
        <ele>1152.28</ele>
        <time>2016-10-10T11:56:26Z</time>
      </trkpt>
      <trkpt lat="44.61349" lon="5.98493">
        <ele>1154.68</ele>
        <time>2016-10-10T11:56:38Z</time>
      </trkpt>
      <trkpt lat="44.61348" lon="5.98486">
        <ele>1157.08</ele>
        <time>2016-10-10T11:56:54Z</time>
      </trkpt>
      <trkpt lat="44.61348" lon="5.9848">
        <ele>1159.49</ele>
        <time>2016-10-10T11:57:07Z</time>
      </trkpt>
      <trkpt lat="44.61345" lon="5.98471">
        <ele>1161.41</ele>
        <time>2016-10-10T11:57:22Z</time>
      </trkpt>
      <trkpt lat="44.61346" lon="5.98465">
        <ele>1163.33</ele>
        <time>2016-10-10T11:57:34Z</time>
      </trkpt>
      <trkpt lat="44.61345" lon="5.9846">
        <ele>1165.74</ele>
        <time>2016-10-10T11:57:49Z</time>
      </trkpt>
      <trkpt lat="44.61342" lon="5.98451">
        <ele>1167.66</ele>
        <time>2016-10-10T11:58:02Z</time>
      </trkpt>
      <trkpt lat="44.61339" lon="5.98444">
        <ele>1169.58</ele>
        <time>2016-10-10T11:58:16Z</time>
      </trkpt>
      <trkpt lat="44.61333" lon="5.98438">
        <ele>1172.47</ele>
        <time>2016-10-10T11:58:29Z</time>
      </trkpt>
      <trkpt lat="44.61328" lon="5.98435">
        <ele>1173.91</ele>
        <time>2016-10-10T11:58:42Z</time>
      </trkpt>
      <trkpt lat="44.61322" lon="5.98434">
        <ele>1175.83</ele>
        <time>2016-10-10T11:58:57Z</time>
      </trkpt>
      <trkpt lat="44.61317" lon="5.98434">
        <ele>1178.23</ele>
        <time>2016-10-10T11:59:10Z</time>
      </trkpt>
      <trkpt lat="44.61311" lon="5.98432">
        <ele>1180.16</ele>
        <time>2016-10-10T11:59:23Z</time>
      </trkpt>
      <trkpt lat="44.61303" lon="5.98432">
        <ele>1181.6</ele>
        <time>2016-10-10T11:59:40Z</time>
      </trkpt>
      <trkpt lat="44.61299" lon="5.98432">
        <ele>1183.04</ele>
        <time>2016-10-10T11:59:47Z</time>
      </trkpt>
      <trkpt lat="44.61292" lon="5.98431">
        <ele>1184.96</ele>
        <time>2016-10-10T11:59:59Z</time>
      </trkpt>
      <trkpt lat="44.61288" lon="5.98428">
        <ele>1186.4</ele>
        <time>2016-10-10T12:00:10Z</time>
      </trkpt>
      <trkpt lat="44.61279" lon="5.98428">
        <ele>1188.33</ele>
        <time>2016-10-10T12:00:22Z</time>
      </trkpt>
      <trkpt lat="44.61275" lon="5.98437">
        <ele>1189.29</ele>
        <time>2016-10-10T12:00:38Z</time>
      </trkpt>
      <trkpt lat="44.6127" lon="5.98444">
        <ele>1191.69</ele>
        <time>2016-10-10T12:00:52Z</time>
      </trkpt>
      <trkpt lat="44.61267" lon="5.98444">
        <ele>1193.13</ele>
        <time>2016-10-10T12:01:06Z</time>
      </trkpt>
      <trkpt lat="44.61262" lon="5.98437">
        <ele>1194.58</ele>
        <time>2016-10-10T12:01:20Z</time>
      </trkpt>
      <trkpt lat="44.61257" lon="5.98439">
        <ele>1195.54</ele>
        <time>2016-10-10T12:01:33Z</time>
      </trkpt>
      <trkpt lat="44.61258" lon="5.98436">
        <ele>1194.58</ele>
        <time>2016-10-10T12:01:48Z</time>
      </trkpt>
      <trkpt lat="44.61262" lon="5.98426">
        <ele>1196.5</ele>
        <time>2016-10-10T12:02:08Z</time>
      </trkpt>
      <trkpt lat="44.61265" lon="5.98421">
        <ele>1194.09</ele>
        <time>2016-10-10T12:02:25Z</time>
      </trkpt>
      <trkpt lat="44.61268" lon="5.98409">
        <ele>1196.5</ele>
        <time>2016-10-10T12:02:44Z</time>
      </trkpt>
      <trkpt lat="44.61272" lon="5.98398">
        <ele>1197.46</ele>
        <time>2016-10-10T12:03:01Z</time>
      </trkpt>
      <trkpt lat="44.61275" lon="5.98383">
        <ele>1198.9</ele>
        <time>2016-10-10T12:03:12Z</time>
      </trkpt>
      <trkpt lat="44.61273" lon="5.9836">
        <ele>1201.3</ele>
        <time>2016-10-10T12:03:25Z</time>
      </trkpt>
      <trkpt lat="44.61275" lon="5.98353">
        <ele>1202.75</ele>
        <time>2016-10-10T12:03:39Z</time>
      </trkpt>
      <trkpt lat="44.61276" lon="5.98348">
        <ele>1205.15</ele>
        <time>2016-10-10T12:03:52Z</time>
      </trkpt>
      <trkpt lat="44.61281" lon="5.98336">
        <ele>1205.15</ele>
        <time>2016-10-10T12:04:04Z</time>
      </trkpt>
      <trkpt lat="44.61278" lon="5.98313">
        <ele>1208.03</ele>
        <time>2016-10-10T12:04:18Z</time>
      </trkpt>
      <trkpt lat="44.61279" lon="5.98296">
        <ele>1209.48</ele>
        <time>2016-10-10T12:04:32Z</time>
      </trkpt>
      <trkpt lat="44.61277" lon="5.98292">
        <ele>1210.92</ele>
        <time>2016-10-10T12:04:45Z</time>
      </trkpt>
      <trkpt lat="44.61275" lon="5.98288">
        <ele>1211.88</ele>
        <time>2016-10-10T12:05:04Z</time>
      </trkpt>
      <trkpt lat="44.61278" lon="5.98285">
        <ele>1210.92</ele>
        <time>2016-10-10T12:05:24Z</time>
      </trkpt>
      <trkpt lat="44.61284" lon="5.98275">
        <ele>1208.51</ele>
        <time>2016-10-10T12:05:35Z</time>
      </trkpt>
      <trkpt lat="44.61291" lon="5.98261">
        <ele>1209</ele>
        <time>2016-10-10T12:05:49Z</time>
      </trkpt>
      <trkpt lat="44.61303" lon="5.98246">
        <ele>1209.48</ele>
        <time>2016-10-10T12:06:04Z</time>
      </trkpt>
      <trkpt lat="44.6131" lon="5.98233">
        <ele>1209.96</ele>
        <time>2016-10-10T12:06:18Z</time>
      </trkpt>
      <trkpt lat="44.61321" lon="5.98219">
        <ele>1210.92</ele>
        <time>2016-10-10T12:06:35Z</time>
      </trkpt>
      <trkpt lat="44.61333" lon="5.9821">
        <ele>1213.32</ele>
        <time>2016-10-10T12:06:49Z</time>
      </trkpt>
      <trkpt lat="44.61342" lon="5.98204">
        <ele>1216.21</ele>
        <time>2016-10-10T12:07:09Z</time>
      </trkpt>
      <trkpt lat="44.61354" lon="5.98209">
        <ele>1218.13</ele>
        <time>2016-10-10T12:07:21Z</time>
      </trkpt>
      <trkpt lat="44.6136" lon="5.98216">
        <ele>1220.53</ele>
        <time>2016-10-10T12:07:36Z</time>
      </trkpt>
      <trkpt lat="44.61365" lon="5.98225">
        <ele>1223.42</ele>
        <time>2016-10-10T12:07:50Z</time>
      </trkpt>
      <trkpt lat="44.61368" lon="5.98235">
        <ele>1224.86</ele>
        <time>2016-10-10T12:08:02Z</time>
      </trkpt>
      <trkpt lat="44.61374" lon="5.9825">
        <ele>1226.3</ele>
        <time>2016-10-10T12:08:17Z</time>
      </trkpt>
      <trkpt lat="44.61374" lon="5.98253">
        <ele>1226.78</ele>
        <time>2016-10-10T12:08:25Z</time>
      </trkpt>
      <trkpt lat="44.61375" lon="5.98261">
        <ele>1225.82</ele>
        <time>2016-10-10T12:08:32Z</time>
      </trkpt>
      <trkpt lat="44.61382" lon="5.98274">
        <ele>1226.3</ele>
        <time>2016-10-10T12:08:47Z</time>
      </trkpt>
      <trkpt lat="44.61391" lon="5.98277">
        <ele>1228.22</ele>
        <time>2016-10-10T12:09:00Z</time>
      </trkpt>
      <trkpt lat="44.61402" lon="5.98281">
        <ele>1229.18</ele>
        <time>2016-10-10T12:09:13Z</time>
      </trkpt>
      <trkpt lat="44.61417" lon="5.98288">
        <ele>1230.14</ele>
        <time>2016-10-10T12:09:29Z</time>
      </trkpt>
      <trkpt lat="44.61423" lon="5.98284">
        <ele>1230.14</ele>
        <time>2016-10-10T12:09:36Z</time>
      </trkpt>
      <trkpt lat="44.61425" lon="5.98281">
        <ele>1230.14</ele>
        <time>2016-10-10T12:09:39Z</time>
      </trkpt>
      <trkpt lat="44.6144" lon="5.98274">
        <ele>1230.62</ele>
        <time>2016-10-10T12:09:54Z</time>
      </trkpt>
      <trkpt lat="44.6145" lon="5.98271">
        <ele>1231.11</ele>
        <time>2016-10-10T12:10:04Z</time>
      </trkpt>
      <trkpt lat="44.61458" lon="5.98265">
        <ele>1231.59</ele>
        <time>2016-10-10T12:10:15Z</time>
      </trkpt>
      <trkpt lat="44.61462" lon="5.98263">
        <ele>1232.07</ele>
        <time>2016-10-10T12:10:19Z</time>
      </trkpt>
      <trkpt lat="44.61472" lon="5.98258">
        <ele>1233.03</ele>
        <time>2016-10-10T12:10:30Z</time>
      </trkpt>
      <trkpt lat="44.61478" lon="5.9826">
        <ele>1233.51</ele>
        <time>2016-10-10T12:10:36Z</time>
      </trkpt>
      <trkpt lat="44.61483" lon="5.98261">
        <ele>1233.99</ele>
        <time>2016-10-10T12:10:42Z</time>
      </trkpt>
      <trkpt lat="44.61492" lon="5.98263">
        <ele>1233.99</ele>
        <time>2016-10-10T12:10:56Z</time>
      </trkpt>
      <trkpt lat="44.61493" lon="5.98264">
        <ele>1233.99</ele>
        <time>2016-10-10T12:10:57Z</time>
      </trkpt>
      <trkpt lat="44.61498" lon="5.98266">
        <ele>1234.47</ele>
        <time>2016-10-10T12:11:03Z</time>
      </trkpt>
      <trkpt lat="44.61513" lon="5.98272">
        <ele>1235.43</ele>
        <time>2016-10-10T12:11:18Z</time>
      </trkpt>
      <trkpt lat="44.61518" lon="5.98275">
        <ele>1235.43</ele>
        <time>2016-10-10T12:11:25Z</time>
      </trkpt>
      <trkpt lat="44.61532" lon="5.98283">
        <ele>1235.91</ele>
        <time>2016-10-10T12:11:40Z</time>
      </trkpt>
      <trkpt lat="44.61539" lon="5.98286">
        <ele>1235.91</ele>
        <time>2016-10-10T12:11:48Z</time>
      </trkpt>
      <trkpt lat="44.61542" lon="5.9829">
        <ele>1235.91</ele>
        <time>2016-10-10T12:11:52Z</time>
      </trkpt>
      <trkpt lat="44.61543" lon="5.98292">
        <ele>1236.39</ele>
        <time>2016-10-10T12:11:54Z</time>
      </trkpt>
      <trkpt lat="44.61548" lon="5.98303">
        <ele>1236.39</ele>
        <time>2016-10-10T12:12:03Z</time>
      </trkpt>
      <trkpt lat="44.61558" lon="5.98318">
        <ele>1236.87</ele>
        <time>2016-10-10T12:12:17Z</time>
      </trkpt>
      <trkpt lat="44.61564" lon="5.98323">
        <ele>1236.87</ele>
        <time>2016-10-10T12:12:25Z</time>
      </trkpt>
      <trkpt lat="44.6157" lon="5.98324">
        <ele>1237.35</ele>
        <time>2016-10-10T12:12:31Z</time>
      </trkpt>
      <trkpt lat="44.61574" lon="5.98323">
        <ele>1237.83</ele>
        <time>2016-10-10T12:12:36Z</time>
      </trkpt>
      <trkpt lat="44.61587" lon="5.9832">
        <ele>1239.28</ele>
        <time>2016-10-10T12:12:50Z</time>
      </trkpt>
      <trkpt lat="44.61592" lon="5.98315">
        <ele>1239.76</ele>
        <time>2016-10-10T12:12:57Z</time>
      </trkpt>
      <trkpt lat="44.616" lon="5.98302">
        <ele>1242.16</ele>
        <time>2016-10-10T12:13:11Z</time>
      </trkpt>
      <trkpt lat="44.61603" lon="5.98295">
        <ele>1243.12</ele>
        <time>2016-10-10T12:13:19Z</time>
      </trkpt>
      <trkpt lat="44.61611" lon="5.98284">
        <ele>1246.01</ele>
        <time>2016-10-10T12:13:33Z</time>
      </trkpt>
      <trkpt lat="44.61619" lon="5.98273">
        <ele>1247.93</ele>
        <time>2016-10-10T12:13:48Z</time>
      </trkpt>
      <trkpt lat="44.61629" lon="5.98271">
        <ele>1249.85</ele>
        <time>2016-10-10T12:14:04Z</time>
      </trkpt>
      <trkpt lat="44.61634" lon="5.98263">
        <ele>1248.41</ele>
        <time>2016-10-10T12:14:20Z</time>
      </trkpt>
      <trkpt lat="44.61636" lon="5.98261">
        <ele>1247.45</ele>
        <time>2016-10-10T12:14:25Z</time>
      </trkpt>
      <trkpt lat="44.61644" lon="5.98255">
        <ele>1246.49</ele>
        <time>2016-10-10T12:14:34Z</time>
      </trkpt>
      <trkpt lat="44.61656" lon="5.98241">
        <ele>1245.04</ele>
        <time>2016-10-10T12:14:48Z</time>
      </trkpt>
      <trkpt lat="44.61662" lon="5.98232">
        <ele>1244.56</ele>
        <time>2016-10-10T12:14:56Z</time>
      </trkpt>
      <trkpt lat="44.61664" lon="5.98225">
        <ele>1244.56</ele>
        <time>2016-10-10T12:15:00Z</time>
      </trkpt>
      <trkpt lat="44.61675" lon="5.98212">
        <ele>1244.56</ele>
        <time>2016-10-10T12:15:15Z</time>
      </trkpt>
      <trkpt lat="44.61678" lon="5.98206">
        <ele>1244.56</ele>
        <time>2016-10-10T12:15:28Z</time>
      </trkpt>
      <trkpt lat="44.61681" lon="5.982">
        <ele>1244.56</ele>
        <time>2016-10-10T12:15:33Z</time>
      </trkpt>
      <trkpt lat="44.61688" lon="5.98183">
        <ele>1245.04</ele>
        <time>2016-10-10T12:15:46Z</time>
      </trkpt>
      <trkpt lat="44.61694" lon="5.98171">
        <ele>1245.04</ele>
        <time>2016-10-10T12:15:56Z</time>
      </trkpt>
      <trkpt lat="44.61698" lon="5.98166">
        <ele>1246.01</ele>
        <time>2016-10-10T12:16:01Z</time>
      </trkpt>
      <trkpt lat="44.61705" lon="5.98156">
        <ele>1246.01</ele>
        <time>2016-10-10T12:16:10Z</time>
      </trkpt>
      <trkpt lat="44.61707" lon="5.98153">
        <ele>1246.49</ele>
        <time>2016-10-10T12:16:12Z</time>
      </trkpt>
      <trkpt lat="44.61715" lon="5.98146">
        <ele>1246.49</ele>
        <time>2016-10-10T12:16:20Z</time>
      </trkpt>
      <trkpt lat="44.61726" lon="5.98129">
        <ele>1246.97</ele>
        <time>2016-10-10T12:16:35Z</time>
      </trkpt>
      <trkpt lat="44.61727" lon="5.98127">
        <ele>1246.97</ele>
        <time>2016-10-10T12:16:37Z</time>
      </trkpt>
      <trkpt lat="44.61729" lon="5.98115">
        <ele>1247.45</ele>
        <time>2016-10-10T12:16:45Z</time>
      </trkpt>
      <trkpt lat="44.61735" lon="5.98098">
        <ele>1246.97</ele>
        <time>2016-10-10T12:16:59Z</time>
      </trkpt>
      <trkpt lat="44.61744" lon="5.98088">
        <ele>1247.45</ele>
        <time>2016-10-10T12:17:10Z</time>
      </trkpt>
      <trkpt lat="44.61756" lon="5.98081">
        <ele>1248.89</ele>
        <time>2016-10-10T12:17:22Z</time>
      </trkpt>
      <trkpt lat="44.61764" lon="5.98075">
        <ele>1250.81</ele>
        <time>2016-10-10T12:17:29Z</time>
      </trkpt>
      <trkpt lat="44.61776" lon="5.98062">
        <ele>1251.77</ele>
        <time>2016-10-10T12:17:44Z</time>
      </trkpt>
      <trkpt lat="44.61785" lon="5.9806">
        <ele>1254.18</ele>
        <time>2016-10-10T12:17:58Z</time>
      </trkpt>
      <trkpt lat="44.61789" lon="5.98064">
        <ele>1256.1</ele>
        <time>2016-10-10T12:18:11Z</time>
      </trkpt>
      <trkpt lat="44.6179" lon="5.98065">
        <ele>1255.62</ele>
        <time>2016-10-10T12:18:25Z</time>
      </trkpt>
      <trkpt lat="44.61792" lon="5.9806">
        <ele>1256.1</ele>
        <time>2016-10-10T12:18:31Z</time>
      </trkpt>
      <trkpt lat="44.61797" lon="5.98043">
        <ele>1258.5</ele>
        <time>2016-10-10T12:18:45Z</time>
      </trkpt>
      <trkpt lat="44.61802" lon="5.98026">
        <ele>1260.43</ele>
        <time>2016-10-10T12:18:59Z</time>
      </trkpt>
      <trkpt lat="44.61803" lon="5.98025">
        <ele>1260.43</ele>
        <time>2016-10-10T12:19:00Z</time>
      </trkpt>
      <trkpt lat="44.61807" lon="5.98009">
        <ele>1262.83</ele>
        <time>2016-10-10T12:19:13Z</time>
      </trkpt>
      <trkpt lat="44.6181" lon="5.97998">
        <ele>1264.27</ele>
        <time>2016-10-10T12:19:22Z</time>
      </trkpt>
      <trkpt lat="44.61814" lon="5.97986">
        <ele>1266.67</ele>
        <time>2016-10-10T12:19:33Z</time>
      </trkpt>
      <trkpt lat="44.61814" lon="5.97981">
        <ele>1266.67</ele>
        <time>2016-10-10T12:19:36Z</time>
      </trkpt>
      <trkpt lat="44.61816" lon="5.97971">
        <ele>1268.6</ele>
        <time>2016-10-10T12:19:42Z</time>
      </trkpt>
      <trkpt lat="44.61815" lon="5.97959">
        <ele>1268.6</ele>
        <time>2016-10-10T12:19:57Z</time>
      </trkpt>
      <trkpt lat="44.61816" lon="5.97942">
        <ele>1271.48</ele>
        <time>2016-10-10T12:20:10Z</time>
      </trkpt>
      <trkpt lat="44.61817" lon="5.97931">
        <ele>1271.96</ele>
        <time>2016-10-10T12:20:23Z</time>
      </trkpt>
      <trkpt lat="44.61821" lon="5.9792">
        <ele>1273.88</ele>
        <time>2016-10-10T12:20:35Z</time>
      </trkpt>
      <trkpt lat="44.61826" lon="5.97901">
        <ele>1276.77</ele>
        <time>2016-10-10T12:20:50Z</time>
      </trkpt>
      <trkpt lat="44.61827" lon="5.97896">
        <ele>1276.29</ele>
        <time>2016-10-10T12:20:53Z</time>
      </trkpt>
      <trkpt lat="44.61828" lon="5.97874">
        <ele>1277.73</ele>
        <time>2016-10-10T12:21:07Z</time>
      </trkpt>
      <trkpt lat="44.61827" lon="5.97872">
        <ele>1277.73</ele>
        <time>2016-10-10T12:21:08Z</time>
      </trkpt>
      <trkpt lat="44.61823" lon="5.97847">
        <ele>1277.73</ele>
        <time>2016-10-10T12:21:25Z</time>
      </trkpt>
      <trkpt lat="44.61819" lon="5.97821">
        <ele>1276.77</ele>
        <time>2016-10-10T12:21:41Z</time>
      </trkpt>
      <trkpt lat="44.61815" lon="5.97797">
        <ele>1276.77</ele>
        <time>2016-10-10T12:21:57Z</time>
      </trkpt>
      <trkpt lat="44.61816" lon="5.9778">
        <ele>1277.25</ele>
        <time>2016-10-10T12:22:09Z</time>
      </trkpt>
      <trkpt lat="44.61815" lon="5.97766">
        <ele>1277.73</ele>
        <time>2016-10-10T12:22:19Z</time>
      </trkpt>
      <trkpt lat="44.61814" lon="5.97759">
        <ele>1277.73</ele>
        <time>2016-10-10T12:22:22Z</time>
      </trkpt>
      <trkpt lat="44.6181" lon="5.97733">
        <ele>1279.65</ele>
        <time>2016-10-10T12:22:38Z</time>
      </trkpt>
      <trkpt lat="44.61811" lon="5.97716">
        <ele>1282.06</ele>
        <time>2016-10-10T12:22:52Z</time>
      </trkpt>
      <trkpt lat="44.61811" lon="5.97709">
        <ele>1283.02</ele>
        <time>2016-10-10T12:22:57Z</time>
      </trkpt>
      <trkpt lat="44.6181" lon="5.97705">
        <ele>1283.02</ele>
        <time>2016-10-10T12:23:00Z</time>
      </trkpt>
      <trkpt lat="44.61804" lon="5.97687">
        <ele>1282.54</ele>
        <time>2016-10-10T12:23:13Z</time>
      </trkpt>
      <trkpt lat="44.61804" lon="5.97687">
        <ele>1282.06</ele>
        <time>2016-10-10T12:23:17Z</time>
      </trkpt>
      <trkpt lat="44.61802" lon="5.97683">
        <ele>1282.06</ele>
        <time>2016-10-10T12:23:21Z</time>
      </trkpt>
      <trkpt lat="44.61795" lon="5.97668">
        <ele>1280.13</ele>
        <time>2016-10-10T12:23:35Z</time>
      </trkpt>
      <trkpt lat="44.61795" lon="5.97666">
        <ele>1280.13</ele>
        <time>2016-10-10T12:23:36Z</time>
      </trkpt>
      <trkpt lat="44.61794" lon="5.97649">
        <ele>1276.77</ele>
        <time>2016-10-10T12:23:49Z</time>
      </trkpt>
      <trkpt lat="44.61796" lon="5.97631">
        <ele>1275.33</ele>
        <time>2016-10-10T12:24:01Z</time>
      </trkpt>
      <trkpt lat="44.61796" lon="5.97624">
        <ele>1273.88</ele>
        <time>2016-10-10T12:24:07Z</time>
      </trkpt>
      <trkpt lat="44.61795" lon="5.97611">
        <ele>1271.96</ele>
        <time>2016-10-10T12:24:14Z</time>
      </trkpt>
      <trkpt lat="44.61794" lon="5.97598">
        <ele>1271.48</ele>
        <time>2016-10-10T12:24:21Z</time>
      </trkpt>
      <trkpt lat="44.61793" lon="5.97581">
        <ele>1269.56</ele>
        <time>2016-10-10T12:24:32Z</time>
      </trkpt>
      <trkpt lat="44.61792" lon="5.97573">
        <ele>1269.08</ele>
        <time>2016-10-10T12:24:37Z</time>
      </trkpt>
      <trkpt lat="44.6179" lon="5.97554">
        <ele>1270.04</ele>
        <time>2016-10-10T12:24:49Z</time>
      </trkpt>
      <trkpt lat="44.6179" lon="5.97542">
        <ele>1270.52</ele>
        <time>2016-10-10T12:24:57Z</time>
      </trkpt>
      <trkpt lat="44.61786" lon="5.97516">
        <ele>1271</ele>
        <time>2016-10-10T12:25:12Z</time>
      </trkpt>
      <trkpt lat="44.61785" lon="5.97507">
        <ele>1271</ele>
        <time>2016-10-10T12:25:29Z</time>
      </trkpt>
      <trkpt lat="44.61785" lon="5.97495">
        <ele>1268.12</ele>
        <time>2016-10-10T12:25:43Z</time>
      </trkpt>
      <trkpt lat="44.61786" lon="5.97489">
        <ele>1265.23</ele>
        <time>2016-10-10T12:25:56Z</time>
      </trkpt>
      <trkpt lat="44.61792" lon="5.97475">
        <ele>1263.31</ele>
        <time>2016-10-10T12:26:09Z</time>
      </trkpt>
      <trkpt lat="44.61794" lon="5.9746">
        <ele>1259.94</ele>
        <time>2016-10-10T12:26:23Z</time>
      </trkpt>
      <trkpt lat="44.61796" lon="5.97446">
        <ele>1257.54</ele>
        <time>2016-10-10T12:26:37Z</time>
      </trkpt>
      <trkpt lat="44.61797" lon="5.97438">
        <ele>1256.1</ele>
        <time>2016-10-10T12:26:48Z</time>
      </trkpt>
      <trkpt lat="44.61806" lon="5.97435">
        <ele>1254.66</ele>
        <time>2016-10-10T12:27:03Z</time>
      </trkpt>
      <trkpt lat="44.61809" lon="5.97429">
        <ele>1254.66</ele>
        <time>2016-10-10T12:27:14Z</time>
      </trkpt>
      <trkpt lat="44.61812" lon="5.97423">
        <ele>1255.62</ele>
        <time>2016-10-10T12:27:27Z</time>
      </trkpt>
      <trkpt lat="44.61812" lon="5.97423">
        <ele>1256.1</ele>
        <time>2016-10-10T12:27:29Z</time>
      </trkpt>
      <trkpt lat="44.61822" lon="5.97416">
        <ele>1257.06</ele>
        <time>2016-10-10T12:27:41Z</time>
      </trkpt>
      <trkpt lat="44.61832" lon="5.9741">
        <ele>1259.46</ele>
        <time>2016-10-10T12:27:55Z</time>
      </trkpt>
      <trkpt lat="44.61833" lon="5.97409">
        <ele>1259.94</ele>
        <time>2016-10-10T12:27:57Z</time>
      </trkpt>
      <trkpt lat="44.61835" lon="5.97396">
        <ele>1261.87</ele>
        <time>2016-10-10T12:28:10Z</time>
      </trkpt>
      <trkpt lat="44.61816" lon="5.97355">
        <ele>1264.27</ele>
        <time>2016-10-10T12:28:26Z</time>
      </trkpt>
      <trkpt lat="44.61806" lon="5.97355">
        <ele>1265.71</ele>
        <time>2016-10-10T12:28:38Z</time>
      </trkpt>
      <trkpt lat="44.61801" lon="5.97353">
        <ele>1267.64</ele>
        <time>2016-10-10T12:28:52Z</time>
      </trkpt>
      <trkpt lat="44.61801" lon="5.97347">
        <ele>1268.6</ele>
        <time>2016-10-10T12:29:01Z</time>
      </trkpt>
      <trkpt lat="44.61808" lon="5.97337">
        <ele>1270.52</ele>
        <time>2016-10-10T12:29:15Z</time>
      </trkpt>
      <trkpt lat="44.61809" lon="5.97326">
        <ele>1271</ele>
        <time>2016-10-10T12:29:30Z</time>
      </trkpt>
      <trkpt lat="44.61814" lon="5.97317">
        <ele>1273.88</ele>
        <time>2016-10-10T12:29:44Z</time>
      </trkpt>
      <trkpt lat="44.61818" lon="5.97308">
        <ele>1274.85</ele>
        <time>2016-10-10T12:29:56Z</time>
      </trkpt>
      <trkpt lat="44.61819" lon="5.97307">
        <ele>1274.36</ele>
        <time>2016-10-10T12:29:57Z</time>
      </trkpt>
      <trkpt lat="44.61825" lon="5.97295">
        <ele>1275.81</ele>
        <time>2016-10-10T12:30:07Z</time>
      </trkpt>
      <trkpt lat="44.61828" lon="5.9729">
        <ele>1276.29</ele>
        <time>2016-10-10T12:30:12Z</time>
      </trkpt>
      <trkpt lat="44.61837" lon="5.9728">
        <ele>1278.69</ele>
        <time>2016-10-10T12:30:24Z</time>
      </trkpt>
      <trkpt lat="44.6184" lon="5.97276">
        <ele>1278.69</ele>
        <time>2016-10-10T12:30:27Z</time>
      </trkpt>
      <trkpt lat="44.61847" lon="5.97254">
        <ele>1280.13</ele>
        <time>2016-10-10T12:30:41Z</time>
      </trkpt>
      <trkpt lat="44.61852" lon="5.97229">
        <ele>1281.57</ele>
        <time>2016-10-10T12:30:54Z</time>
      </trkpt>
      <trkpt lat="44.61856" lon="5.97217">
        <ele>1283.02</ele>
        <time>2016-10-10T12:31:06Z</time>
      </trkpt>
      <trkpt lat="44.61857" lon="5.97216">
        <ele>1283.02</ele>
        <time>2016-10-10T12:31:07Z</time>
      </trkpt>
      <trkpt lat="44.61865" lon="5.97203">
        <ele>1285.42</ele>
        <time>2016-10-10T12:31:19Z</time>
      </trkpt>
      <trkpt lat="44.61867" lon="5.97201">
        <ele>1286.38</ele>
        <time>2016-10-10T12:31:23Z</time>
      </trkpt>
      <trkpt lat="44.6187" lon="5.97196">
        <ele>1286.38</ele>
        <time>2016-10-10T12:31:27Z</time>
      </trkpt>
      <trkpt lat="44.61873" lon="5.97189">
        <ele>1287.82</ele>
        <time>2016-10-10T12:31:37Z</time>
      </trkpt>
      <trkpt lat="44.61878" lon="5.97178">
        <ele>1289.27</ele>
        <time>2016-10-10T12:31:48Z</time>
      </trkpt>
      <trkpt lat="44.61876" lon="5.9716">
        <ele>1291.67</ele>
        <time>2016-10-10T12:32:01Z</time>
      </trkpt>
      <trkpt lat="44.61877" lon="5.97154">
        <ele>1292.15</ele>
        <time>2016-10-10T12:32:15Z</time>
      </trkpt>
      <trkpt lat="44.61876" lon="5.97141">
        <ele>1293.59</ele>
        <time>2016-10-10T12:32:30Z</time>
      </trkpt>
      <trkpt lat="44.6187" lon="5.97128">
        <ele>1293.59</ele>
        <time>2016-10-10T12:32:46Z</time>
      </trkpt>
      <trkpt lat="44.61876" lon="5.97127">
        <ele>1294.07</ele>
        <time>2016-10-10T12:33:00Z</time>
      </trkpt>
      <trkpt lat="44.61889" lon="5.97106">
        <ele>1295.03</ele>
        <time>2016-10-10T12:33:14Z</time>
      </trkpt>
      <trkpt lat="44.61895" lon="5.97094">
        <ele>1296.96</ele>
        <time>2016-10-10T12:33:28Z</time>
      </trkpt>
      <trkpt lat="44.61899" lon="5.9709">
        <ele>1297.44</ele>
        <time>2016-10-10T12:33:39Z</time>
      </trkpt>
      <trkpt lat="44.61904" lon="5.97077">
        <ele>1298.88</ele>
        <time>2016-10-10T12:33:48Z</time>
      </trkpt>
      <trkpt lat="44.61903" lon="5.97074">
        <ele>1298.4</ele>
        <time>2016-10-10T12:34:04Z</time>
      </trkpt>
      <trkpt lat="44.61903" lon="5.97071">
        <ele>1298.4</ele>
        <time>2016-10-10T12:34:19Z</time>
      </trkpt>
      <trkpt lat="44.61901" lon="5.97072">
        <ele>1298.88</ele>
        <time>2016-10-10T12:34:35Z</time>
      </trkpt>
      <trkpt lat="44.619" lon="5.97072">
        <ele>1299.36</ele>
        <time>2016-10-10T12:34:48Z</time>
      </trkpt>
      <trkpt lat="44.61892" lon="5.97077">
        <ele>1298.88</ele>
        <time>2016-10-10T12:35:03Z</time>
      </trkpt>
      <trkpt lat="44.61892" lon="5.97084">
        <ele>1298.88</ele>
        <time>2016-10-10T12:35:26Z</time>
      </trkpt>
      <trkpt lat="44.61893" lon="5.97081">
        <ele>1299.36</ele>
        <time>2016-10-10T12:36:26Z</time>
      </trkpt>
      <trkpt lat="44.619" lon="5.97073">
        <ele>1299.36</ele>
        <time>2016-10-10T12:36:47Z</time>
      </trkpt>
      <trkpt lat="44.61899" lon="5.97078">
        <ele>1300.32</ele>
        <time>2016-10-10T12:36:59Z</time>
      </trkpt>
      <trkpt lat="44.61899" lon="5.97075">
        <ele>1300.32</ele>
        <time>2016-10-10T12:37:17Z</time>
      </trkpt>
      <trkpt lat="44.61897" lon="5.9707">
        <ele>1299.84</ele>
        <time>2016-10-10T12:37:41Z</time>
      </trkpt>
      <trkpt lat="44.61895" lon="5.97073">
        <ele>1300.8</ele>
        <time>2016-10-10T12:37:57Z</time>
      </trkpt>
      <trkpt lat="44.61901" lon="5.97084">
        <ele>1299.84</ele>
        <time>2016-10-10T12:38:15Z</time>
      </trkpt>
      <trkpt lat="44.61909" lon="5.97082">
        <ele>1300.32</ele>
        <time>2016-10-10T12:38:32Z</time>
      </trkpt>
      <trkpt lat="44.61919" lon="5.97067">
        <ele>1301.28</ele>
        <time>2016-10-10T12:38:48Z</time>
      </trkpt>
      <trkpt lat="44.61922" lon="5.97057">
        <ele>1302.72</ele>
        <time>2016-10-10T12:39:02Z</time>
      </trkpt>
      <trkpt lat="44.61925" lon="5.97049">
        <ele>1303.2</ele>
        <time>2016-10-10T12:39:16Z</time>
      </trkpt>
      <trkpt lat="44.61929" lon="5.97041">
        <ele>1304.17</ele>
        <time>2016-10-10T12:39:32Z</time>
      </trkpt>
      <trkpt lat="44.61927" lon="5.97053">
        <ele>1302.24</ele>
        <time>2016-10-10T12:39:44Z</time>
      </trkpt>
      <trkpt lat="44.61919" lon="5.97072">
        <ele>1300.8</ele>
        <time>2016-10-10T12:39:55Z</time>
      </trkpt>
      <trkpt lat="44.61917" lon="5.97076">
        <ele>1300.8</ele>
        <time>2016-10-10T12:39:57Z</time>
      </trkpt>
      <trkpt lat="44.61905" lon="5.97096">
        <ele>1299.84</ele>
        <time>2016-10-10T12:40:11Z</time>
      </trkpt>
      <trkpt lat="44.61903" lon="5.97099">
        <ele>1298.88</ele>
        <time>2016-10-10T12:40:27Z</time>
      </trkpt>
      <trkpt lat="44.61892" lon="5.97113">
        <ele>1296.96</ele>
        <time>2016-10-10T12:40:41Z</time>
      </trkpt>
      <trkpt lat="44.61882" lon="5.97128">
        <ele>1295.99</ele>
        <time>2016-10-10T12:40:54Z</time>
      </trkpt>
      <trkpt lat="44.61877" lon="5.97149">
        <ele>1294.07</ele>
        <time>2016-10-10T12:41:09Z</time>
      </trkpt>
      <trkpt lat="44.6188" lon="5.97168">
        <ele>1293.11</ele>
        <time>2016-10-10T12:41:22Z</time>
      </trkpt>
      <trkpt lat="44.61877" lon="5.97181">
        <ele>1290.23</ele>
        <time>2016-10-10T12:41:33Z</time>
      </trkpt>
      <trkpt lat="44.61873" lon="5.97194">
        <ele>1289.27</ele>
        <time>2016-10-10T12:41:42Z</time>
      </trkpt>
      <trkpt lat="44.61868" lon="5.97201">
        <ele>1288.3</ele>
        <time>2016-10-10T12:41:49Z</time>
      </trkpt>
      <trkpt lat="44.6186" lon="5.97213">
        <ele>1286.38</ele>
        <time>2016-10-10T12:42:02Z</time>
      </trkpt>
      <trkpt lat="44.61851" lon="5.97227">
        <ele>1283.5</ele>
        <time>2016-10-10T12:42:14Z</time>
      </trkpt>
      <trkpt lat="44.61844" lon="5.97247">
        <ele>1282.54</ele>
        <time>2016-10-10T12:42:26Z</time>
      </trkpt>
      <trkpt lat="44.61838" lon="5.97261">
        <ele>1281.09</ele>
        <time>2016-10-10T12:42:35Z</time>
      </trkpt>
      <trkpt lat="44.61832" lon="5.9728">
        <ele>1279.65</ele>
        <time>2016-10-10T12:42:48Z</time>
      </trkpt>
      <trkpt lat="44.61825" lon="5.97291">
        <ele>1277.73</ele>
        <time>2016-10-10T12:43:02Z</time>
      </trkpt>
      <trkpt lat="44.61817" lon="5.973">
        <ele>1277.25</ele>
        <time>2016-10-10T12:43:12Z</time>
      </trkpt>
      <trkpt lat="44.61799" lon="5.97309">
        <ele>1277.25</ele>
        <time>2016-10-10T12:43:25Z</time>
      </trkpt>
      <trkpt lat="44.61798" lon="5.97309">
        <ele>1277.25</ele>
        <time>2016-10-10T12:43:26Z</time>
      </trkpt>
      <trkpt lat="44.61788" lon="5.97305">
        <ele>1279.17</ele>
        <time>2016-10-10T12:43:40Z</time>
      </trkpt>
      <trkpt lat="44.61783" lon="5.97307">
        <ele>1281.09</ele>
        <time>2016-10-10T12:43:52Z</time>
      </trkpt>
      <trkpt lat="44.61776" lon="5.97311">
        <ele>1282.54</ele>
        <time>2016-10-10T12:44:04Z</time>
      </trkpt>
      <trkpt lat="44.61771" lon="5.97318">
        <ele>1283.98</ele>
        <time>2016-10-10T12:44:18Z</time>
      </trkpt>
      <trkpt lat="44.61764" lon="5.9733">
        <ele>1284.46</ele>
        <time>2016-10-10T12:44:31Z</time>
      </trkpt>
      <trkpt lat="44.61753" lon="5.97339">
        <ele>1286.38</ele>
        <time>2016-10-10T12:44:44Z</time>
      </trkpt>
      <trkpt lat="44.61743" lon="5.97346">
        <ele>1287.34</ele>
        <time>2016-10-10T12:44:54Z</time>
      </trkpt>
      <trkpt lat="44.61738" lon="5.97353">
        <ele>1289.27</ele>
        <time>2016-10-10T12:45:05Z</time>
      </trkpt>
      <trkpt lat="44.61738" lon="5.97353">
        <ele>1289.75</ele>
        <time>2016-10-10T12:45:07Z</time>
      </trkpt>
      <trkpt lat="44.61734" lon="5.97357">
        <ele>1290.71</ele>
        <time>2016-10-10T12:45:19Z</time>
      </trkpt>
      <trkpt lat="44.61733" lon="5.97359">
        <ele>1291.19</ele>
        <time>2016-10-10T12:45:35Z</time>
      </trkpt>
      <trkpt lat="44.61733" lon="5.97359">
        <ele>1292.63</ele>
        <time>2016-10-10T12:45:52Z</time>
      </trkpt>
      <trkpt lat="44.61724" lon="5.97362">
        <ele>1295.51</ele>
        <time>2016-10-10T12:46:06Z</time>
      </trkpt>
      <trkpt lat="44.61723" lon="5.97365">
        <ele>1293.11</ele>
        <time>2016-10-10T12:46:20Z</time>
      </trkpt>
      <trkpt lat="44.61721" lon="5.97373">
        <ele>1291.19</ele>
        <time>2016-10-10T12:46:36Z</time>
      </trkpt>
      <trkpt lat="44.61722" lon="5.97378">
        <ele>1290.23</ele>
        <time>2016-10-10T12:46:53Z</time>
      </trkpt>
      <trkpt lat="44.61722" lon="5.97382">
        <ele>1289.27</ele>
        <time>2016-10-10T12:47:08Z</time>
      </trkpt>
      <trkpt lat="44.61721" lon="5.97386">
        <ele>1287.34</ele>
        <time>2016-10-10T12:47:21Z</time>
      </trkpt>
      <trkpt lat="44.6172" lon="5.97392">
        <ele>1284.94</ele>
        <time>2016-10-10T12:47:39Z</time>
      </trkpt>
      <trkpt lat="44.61721" lon="5.97397">
        <ele>1282.06</ele>
        <time>2016-10-10T12:47:53Z</time>
      </trkpt>
      <trkpt lat="44.6172" lon="5.97406">
        <ele>1280.13</ele>
        <time>2016-10-10T12:48:05Z</time>
      </trkpt>
      <trkpt lat="44.61718" lon="5.97414">
        <ele>1277.73</ele>
        <time>2016-10-10T12:48:19Z</time>
      </trkpt>
      <trkpt lat="44.61717" lon="5.97424">
        <ele>1277.73</ele>
        <time>2016-10-10T12:48:28Z</time>
      </trkpt>
      <trkpt lat="44.61712" lon="5.97433">
        <ele>1277.73</ele>
        <time>2016-10-10T12:48:32Z</time>
      </trkpt>
      <trkpt lat="44.61707" lon="5.97446">
        <ele>1276.29</ele>
        <time>2016-10-10T12:48:46Z</time>
      </trkpt>
      <trkpt lat="44.617" lon="5.97461">
        <ele>1275.33</ele>
        <time>2016-10-10T12:48:57Z</time>
      </trkpt>
      <trkpt lat="44.61694" lon="5.97469">
        <ele>1273.88</ele>
        <time>2016-10-10T12:49:06Z</time>
      </trkpt>
      <trkpt lat="44.61692" lon="5.97477">
        <ele>1271.96</ele>
        <time>2016-10-10T12:49:19Z</time>
      </trkpt>
      <trkpt lat="44.61692" lon="5.9749">
        <ele>1270.52</ele>
        <time>2016-10-10T12:49:32Z</time>
      </trkpt>
      <trkpt lat="44.61691" lon="5.97499">
        <ele>1270.04</ele>
        <time>2016-10-10T12:49:37Z</time>
      </trkpt>
      <trkpt lat="44.61691" lon="5.97508">
        <ele>1268.6</ele>
        <time>2016-10-10T12:49:46Z</time>
      </trkpt>
      <trkpt lat="44.61685" lon="5.97525">
        <ele>1266.67</ele>
        <time>2016-10-10T12:50:02Z</time>
      </trkpt>
      <trkpt lat="44.61682" lon="5.97545">
        <ele>1267.16</ele>
        <time>2016-10-10T12:50:16Z</time>
      </trkpt>
      <trkpt lat="44.61677" lon="5.97565">
        <ele>1267.64</ele>
        <time>2016-10-10T12:50:29Z</time>
      </trkpt>
      <trkpt lat="44.6167" lon="5.97574">
        <ele>1268.12</ele>
        <time>2016-10-10T12:50:41Z</time>
      </trkpt>
      <trkpt lat="44.61667" lon="5.97584">
        <ele>1268.6</ele>
        <time>2016-10-10T12:50:52Z</time>
      </trkpt>
      <trkpt lat="44.61665" lon="5.97589">
        <ele>1269.08</ele>
        <time>2016-10-10T12:50:56Z</time>
      </trkpt>
      <trkpt lat="44.61658" lon="5.97607">
        <ele>1269.56</ele>
        <time>2016-10-10T12:51:09Z</time>
      </trkpt>
      <trkpt lat="44.61656" lon="5.97618">
        <ele>1268.6</ele>
        <time>2016-10-10T12:51:20Z</time>
      </trkpt>
      <trkpt lat="44.61649" lon="5.97634">
        <ele>1269.56</ele>
        <time>2016-10-10T12:51:33Z</time>
      </trkpt>
      <trkpt lat="44.61646" lon="5.97642">
        <ele>1269.08</ele>
        <time>2016-10-10T12:51:39Z</time>
      </trkpt>
      <trkpt lat="44.61646" lon="5.97654">
        <ele>1269.08</ele>
        <time>2016-10-10T12:51:51Z</time>
      </trkpt>
      <trkpt lat="44.61643" lon="5.97666">
        <ele>1268.6</ele>
        <time>2016-10-10T12:52:03Z</time>
      </trkpt>
      <trkpt lat="44.61639" lon="5.97675">
        <ele>1267.64</ele>
        <time>2016-10-10T12:52:15Z</time>
      </trkpt>
      <trkpt lat="44.6163" lon="5.97699">
        <ele>1267.16</ele>
        <time>2016-10-10T12:52:26Z</time>
      </trkpt>
      <trkpt lat="44.61624" lon="5.97715">
        <ele>1268.12</ele>
        <time>2016-10-10T12:52:40Z</time>
      </trkpt>
      <trkpt lat="44.61612" lon="5.97733">
        <ele>1269.08</ele>
        <time>2016-10-10T12:52:54Z</time>
      </trkpt>
      <trkpt lat="44.61601" lon="5.97743">
        <ele>1270.04</ele>
        <time>2016-10-10T12:53:07Z</time>
      </trkpt>
      <trkpt lat="44.61585" lon="5.97756">
        <ele>1270.04</ele>
        <time>2016-10-10T12:53:20Z</time>
      </trkpt>
      <trkpt lat="44.61573" lon="5.97763">
        <ele>1271.48</ele>
        <time>2016-10-10T12:53:36Z</time>
      </trkpt>
      <trkpt lat="44.61558" lon="5.97764">
        <ele>1270.52</ele>
        <time>2016-10-10T12:53:50Z</time>
      </trkpt>
      <trkpt lat="44.61543" lon="5.97761">
        <ele>1271.96</ele>
        <time>2016-10-10T12:54:04Z</time>
      </trkpt>
      <trkpt lat="44.61536" lon="5.97756">
        <ele>1273.88</ele>
        <time>2016-10-10T12:54:14Z</time>
      </trkpt>
      <trkpt lat="44.61529" lon="5.97756">
        <ele>1275.33</ele>
        <time>2016-10-10T12:54:28Z</time>
      </trkpt>
      <trkpt lat="44.61516" lon="5.97758">
        <ele>1274.85</ele>
        <time>2016-10-10T12:54:42Z</time>
      </trkpt>
      <trkpt lat="44.61504" lon="5.97758">
        <ele>1276.29</ele>
        <time>2016-10-10T12:54:56Z</time>
      </trkpt>
      <trkpt lat="44.61497" lon="5.97758">
        <ele>1275.81</ele>
        <time>2016-10-10T12:55:12Z</time>
      </trkpt>
      <trkpt lat="44.61488" lon="5.97764">
        <ele>1274.85</ele>
        <time>2016-10-10T12:55:25Z</time>
      </trkpt>
      <trkpt lat="44.61482" lon="5.97765">
        <ele>1273.88</ele>
        <time>2016-10-10T12:55:43Z</time>
      </trkpt>
      <trkpt lat="44.61471" lon="5.97759">
        <ele>1271.96</ele>
        <time>2016-10-10T12:55:58Z</time>
      </trkpt>
      <trkpt lat="44.61461" lon="5.97734">
        <ele>1271</ele>
        <time>2016-10-10T12:56:13Z</time>
      </trkpt>
      <trkpt lat="44.61454" lon="5.97719">
        <ele>1268.6</ele>
        <time>2016-10-10T12:56:29Z</time>
      </trkpt>
      <trkpt lat="44.61448" lon="5.97699">
        <ele>1265.71</ele>
        <time>2016-10-10T12:56:45Z</time>
      </trkpt>
      <trkpt lat="44.61442" lon="5.97685">
        <ele>1264.27</ele>
        <time>2016-10-10T12:56:58Z</time>
      </trkpt>
      <trkpt lat="44.61438" lon="5.97671">
        <ele>1263.31</ele>
        <time>2016-10-10T12:57:16Z</time>
      </trkpt>
      <trkpt lat="44.61431" lon="5.97654">
        <ele>1262.35</ele>
        <time>2016-10-10T12:57:33Z</time>
      </trkpt>
      <trkpt lat="44.61416" lon="5.97632">
        <ele>1261.39</ele>
        <time>2016-10-10T12:57:51Z</time>
      </trkpt>
      <trkpt lat="44.61401" lon="5.97598">
        <ele>1261.39</ele>
        <time>2016-10-10T12:58:05Z</time>
      </trkpt>
      <trkpt lat="44.61396" lon="5.97582">
        <ele>1260.91</ele>
        <time>2016-10-10T12:58:22Z</time>
      </trkpt>
      <trkpt lat="44.61381" lon="5.97556">
        <ele>1260.43</ele>
        <time>2016-10-10T12:58:41Z</time>
      </trkpt>
      <trkpt lat="44.61375" lon="5.97547">
        <ele>1259.94</ele>
        <time>2016-10-10T12:58:56Z</time>
      </trkpt>
      <trkpt lat="44.61374" lon="5.97547">
        <ele>1259.46</ele>
        <time>2016-10-10T12:59:02Z</time>
      </trkpt>
      <trkpt lat="44.61369" lon="5.97531">
        <ele>1259.94</ele>
        <time>2016-10-10T12:59:15Z</time>
      </trkpt>
      <trkpt lat="44.61368" lon="5.9753">
        <ele>1259.94</ele>
        <time>2016-10-10T12:59:16Z</time>
      </trkpt>
      <trkpt lat="44.61361" lon="5.97516">
        <ele>1259.46</ele>
        <time>2016-10-10T12:59:31Z</time>
      </trkpt>
      <trkpt lat="44.61363" lon="5.975">
        <ele>1258.98</ele>
        <time>2016-10-10T12:59:47Z</time>
      </trkpt>
      <trkpt lat="44.61367" lon="5.97485">
        <ele>1257.54</ele>
        <time>2016-10-10T12:59:59Z</time>
      </trkpt>
      <trkpt lat="44.6137" lon="5.97466">
        <ele>1257.06</ele>
        <time>2016-10-10T13:00:13Z</time>
      </trkpt>
      <trkpt lat="44.6137" lon="5.97449">
        <ele>1258.5</ele>
        <time>2016-10-10T13:00:20Z</time>
      </trkpt>
      <trkpt lat="44.61368" lon="5.97434">
        <ele>1258.98</ele>
        <time>2016-10-10T13:00:33Z</time>
      </trkpt>
      <trkpt lat="44.61362" lon="5.97421">
        <ele>1257.06</ele>
        <time>2016-10-10T13:00:44Z</time>
      </trkpt>
      <trkpt lat="44.61348" lon="5.97413">
        <ele>1253.7</ele>
        <time>2016-10-10T13:00:57Z</time>
      </trkpt>
      <trkpt lat="44.61343" lon="5.97415">
        <ele>1250.81</ele>
        <time>2016-10-10T13:01:10Z</time>
      </trkpt>
      <trkpt lat="44.6134" lon="5.97425">
        <ele>1248.41</ele>
        <time>2016-10-10T13:01:25Z</time>
      </trkpt>
      <trkpt lat="44.61341" lon="5.97432">
        <ele>1245.04</ele>
        <time>2016-10-10T13:01:39Z</time>
      </trkpt>
      <trkpt lat="44.61331" lon="5.97436">
        <ele>1242.16</ele>
        <time>2016-10-10T13:01:52Z</time>
      </trkpt>
      <trkpt lat="44.61318" lon="5.9744">
        <ele>1239.76</ele>
        <time>2016-10-10T13:02:05Z</time>
      </trkpt>
      <trkpt lat="44.61302" lon="5.97454">
        <ele>1237.35</ele>
        <time>2016-10-10T13:02:21Z</time>
      </trkpt>
      <trkpt lat="44.61291" lon="5.97448">
        <ele>1234.95</ele>
        <time>2016-10-10T13:02:38Z</time>
      </trkpt>
      <trkpt lat="44.61289" lon="5.97432">
        <ele>1231.59</ele>
        <time>2016-10-10T13:02:54Z</time>
      </trkpt>
      <trkpt lat="44.61277" lon="5.97423">
        <ele>1229.66</ele>
        <time>2016-10-10T13:03:08Z</time>
      </trkpt>
      <trkpt lat="44.61274" lon="5.97422">
        <ele>1228.22</ele>
        <time>2016-10-10T13:03:11Z</time>
      </trkpt>
      <trkpt lat="44.61257" lon="5.97431">
        <ele>1225.34</ele>
        <time>2016-10-10T13:03:27Z</time>
      </trkpt>
      <trkpt lat="44.61242" lon="5.97434">
        <ele>1223.42</ele>
        <time>2016-10-10T13:03:44Z</time>
      </trkpt>
      <trkpt lat="44.61236" lon="5.97425">
        <ele>1221.01</ele>
        <time>2016-10-10T13:03:57Z</time>
      </trkpt>
      <trkpt lat="44.61228" lon="5.97412">
        <ele>1217.65</ele>
        <time>2016-10-10T13:04:10Z</time>
      </trkpt>
      <trkpt lat="44.61221" lon="5.9739">
        <ele>1215.72</ele>
        <time>2016-10-10T13:04:27Z</time>
      </trkpt>
      <trkpt lat="44.61215" lon="5.97371">
        <ele>1214.76</ele>
        <time>2016-10-10T13:04:45Z</time>
      </trkpt>
      <trkpt lat="44.61206" lon="5.97359">
        <ele>1212.36</ele>
        <time>2016-10-10T13:05:01Z</time>
      </trkpt>
      <trkpt lat="44.61194" lon="5.97348">
        <ele>1209.96</ele>
        <time>2016-10-10T13:05:14Z</time>
      </trkpt>
      <trkpt lat="44.61188" lon="5.97338">
        <ele>1207.07</ele>
        <time>2016-10-10T13:05:24Z</time>
      </trkpt>
      <trkpt lat="44.61182" lon="5.97325">
        <ele>1203.71</ele>
        <time>2016-10-10T13:05:39Z</time>
      </trkpt>
      <trkpt lat="44.61178" lon="5.97314">
        <ele>1201.3</ele>
        <time>2016-10-10T13:05:53Z</time>
      </trkpt>
      <trkpt lat="44.61178" lon="5.97312">
        <ele>1199.38</ele>
        <time>2016-10-10T13:06:12Z</time>
      </trkpt>
      <trkpt lat="44.61179" lon="5.97304">
        <ele>1198.9</ele>
        <time>2016-10-10T13:06:32Z</time>
      </trkpt>
      <trkpt lat="44.61181" lon="5.9729">
        <ele>1201.3</ele>
        <time>2016-10-10T13:06:44Z</time>
      </trkpt>
      <trkpt lat="44.61177" lon="5.97278">
        <ele>1203.23</ele>
        <time>2016-10-10T13:06:58Z</time>
      </trkpt>
      <trkpt lat="44.61168" lon="5.97278">
        <ele>1204.67</ele>
        <time>2016-10-10T13:07:16Z</time>
      </trkpt>
      <trkpt lat="44.61163" lon="5.97283">
        <ele>1207.07</ele>
        <time>2016-10-10T13:07:29Z</time>
      </trkpt>
      <trkpt lat="44.61159" lon="5.97277">
        <ele>1209.48</ele>
        <time>2016-10-10T13:07:45Z</time>
      </trkpt>
      <trkpt lat="44.61164" lon="5.97263">
        <ele>1211.4</ele>
        <time>2016-10-10T13:07:56Z</time>
      </trkpt>
      <trkpt lat="44.61167" lon="5.97255">
        <ele>1213.32</ele>
        <time>2016-10-10T13:08:09Z</time>
      </trkpt>
      <trkpt lat="44.61171" lon="5.97252">
        <ele>1216.69</ele>
        <time>2016-10-10T13:08:24Z</time>
      </trkpt>
      <trkpt lat="44.61175" lon="5.97242">
        <ele>1218.61</ele>
        <time>2016-10-10T13:08:38Z</time>
      </trkpt>
      <trkpt lat="44.6117" lon="5.97234">
        <ele>1221.01</ele>
        <time>2016-10-10T13:08:53Z</time>
      </trkpt>
      <trkpt lat="44.61163" lon="5.97235">
        <ele>1223.42</ele>
        <time>2016-10-10T13:09:06Z</time>
      </trkpt>
      <trkpt lat="44.61149" lon="5.97239">
        <ele>1224.86</ele>
        <time>2016-10-10T13:09:23Z</time>
      </trkpt>
      <trkpt lat="44.61132" lon="5.9725">
        <ele>1226.78</ele>
        <time>2016-10-10T13:09:40Z</time>
      </trkpt>
      <trkpt lat="44.61127" lon="5.97261">
        <ele>1227.74</ele>
        <time>2016-10-10T13:09:55Z</time>
      </trkpt>
      <trkpt lat="44.61124" lon="5.97263">
        <ele>1227.74</ele>
        <time>2016-10-10T13:10:17Z</time>
      </trkpt>
      <trkpt lat="44.61117" lon="5.97269">
        <ele>1229.66</ele>
        <time>2016-10-10T13:10:30Z</time>
      </trkpt>
      <trkpt lat="44.61112" lon="5.97281">
        <ele>1230.62</ele>
        <time>2016-10-10T13:10:48Z</time>
      </trkpt>
      <trkpt lat="44.61114" lon="5.973">
        <ele>1231.59</ele>
        <time>2016-10-10T13:11:03Z</time>
      </trkpt>
      <trkpt lat="44.6111" lon="5.97334">
        <ele>1232.55</ele>
        <time>2016-10-10T13:11:19Z</time>
      </trkpt>
      <trkpt lat="44.61111" lon="5.97347">
        <ele>1233.99</ele>
        <time>2016-10-10T13:11:33Z</time>
      </trkpt>
      <trkpt lat="44.61111" lon="5.97363">
        <ele>1233.51</ele>
        <time>2016-10-10T13:11:48Z</time>
      </trkpt>
      <trkpt lat="44.61117" lon="5.97378">
        <ele>1233.51</ele>
        <time>2016-10-10T13:12:00Z</time>
      </trkpt>
      <trkpt lat="44.6112" lon="5.97389">
        <ele>1232.55</ele>
        <time>2016-10-10T13:12:14Z</time>
      </trkpt>
      <trkpt lat="44.61119" lon="5.97393">
        <ele>1232.55</ele>
        <time>2016-10-10T13:12:17Z</time>
      </trkpt>
      <trkpt lat="44.61118" lon="5.97395">
        <ele>1232.55</ele>
        <time>2016-10-10T13:12:20Z</time>
      </trkpt>
      <trkpt lat="44.61114" lon="5.97416">
        <ele>1233.03</ele>
        <time>2016-10-10T13:12:31Z</time>
      </trkpt>
      <trkpt lat="44.61117" lon="5.97437">
        <ele>1232.55</ele>
        <time>2016-10-10T13:12:43Z</time>
      </trkpt>
      <trkpt lat="44.61117" lon="5.97439">
        <ele>1232.55</ele>
        <time>2016-10-10T13:12:44Z</time>
      </trkpt>
      <trkpt lat="44.61123" lon="5.97457">
        <ele>1232.55</ele>
        <time>2016-10-10T13:12:57Z</time>
      </trkpt>
      <trkpt lat="44.61122" lon="5.97463">
        <ele>1232.55</ele>
        <time>2016-10-10T13:13:01Z</time>
      </trkpt>
      <trkpt lat="44.61117" lon="5.97483">
        <ele>1231.59</ele>
        <time>2016-10-10T13:13:13Z</time>
      </trkpt>
      <trkpt lat="44.61114" lon="5.97502">
        <ele>1232.07</ele>
        <time>2016-10-10T13:13:25Z</time>
      </trkpt>
      <trkpt lat="44.61115" lon="5.97511">
        <ele>1232.55</ele>
        <time>2016-10-10T13:13:35Z</time>
      </trkpt>
      <trkpt lat="44.61112" lon="5.97516">
        <ele>1232.55</ele>
        <time>2016-10-10T13:13:50Z</time>
      </trkpt>
      <trkpt lat="44.61112" lon="5.97519">
        <ele>1231.59</ele>
        <time>2016-10-10T13:14:00Z</time>
      </trkpt>
      <trkpt lat="44.61114" lon="5.97529">
        <ele>1231.11</ele>
        <time>2016-10-10T13:14:12Z</time>
      </trkpt>
      <trkpt lat="44.61118" lon="5.9754">
        <ele>1233.03</ele>
        <time>2016-10-10T13:14:24Z</time>
      </trkpt>
      <trkpt lat="44.61121" lon="5.97549">
        <ele>1232.07</ele>
        <time>2016-10-10T13:14:34Z</time>
      </trkpt>
      <trkpt lat="44.61126" lon="5.97562">
        <ele>1231.59</ele>
        <time>2016-10-10T13:14:47Z</time>
      </trkpt>
      <trkpt lat="44.61127" lon="5.97573">
        <ele>1231.11</ele>
        <time>2016-10-10T13:14:57Z</time>
      </trkpt>
      <trkpt lat="44.61131" lon="5.97586">
        <ele>1231.11</ele>
        <time>2016-10-10T13:15:09Z</time>
      </trkpt>
      <trkpt lat="44.61143" lon="5.97595">
        <ele>1232.07</ele>
        <time>2016-10-10T13:15:23Z</time>
      </trkpt>
      <trkpt lat="44.61147" lon="5.97602">
        <ele>1232.55</ele>
        <time>2016-10-10T13:15:34Z</time>
      </trkpt>
      <trkpt lat="44.61152" lon="5.97616">
        <ele>1232.55</ele>
        <time>2016-10-10T13:15:48Z</time>
      </trkpt>
      <trkpt lat="44.61154" lon="5.9762">
        <ele>1231.59</ele>
        <time>2016-10-10T13:15:52Z</time>
      </trkpt>
      <trkpt lat="44.6116" lon="5.97634">
        <ele>1231.11</ele>
        <time>2016-10-10T13:16:06Z</time>
      </trkpt>
      <trkpt lat="44.61157" lon="5.97651">
        <ele>1231.11</ele>
        <time>2016-10-10T13:16:20Z</time>
      </trkpt>
      <trkpt lat="44.61152" lon="5.97673">
        <ele>1229.66</ele>
        <time>2016-10-10T13:16:33Z</time>
      </trkpt>
      <trkpt lat="44.61164" lon="5.97691">
        <ele>1231.11</ele>
        <time>2016-10-10T13:16:49Z</time>
      </trkpt>
      <trkpt lat="44.61171" lon="5.97706">
        <ele>1229.66</ele>
        <time>2016-10-10T13:17:04Z</time>
      </trkpt>
      <trkpt lat="44.61183" lon="5.97724">
        <ele>1229.66</ele>
        <time>2016-10-10T13:17:19Z</time>
      </trkpt>
      <trkpt lat="44.61189" lon="5.97746">
        <ele>1229.18</ele>
        <time>2016-10-10T13:17:33Z</time>
      </trkpt>
      <trkpt lat="44.61193" lon="5.97765">
        <ele>1228.7</ele>
        <time>2016-10-10T13:17:46Z</time>
      </trkpt>
      <trkpt lat="44.61195" lon="5.97782">
        <ele>1229.18</ele>
        <time>2016-10-10T13:17:59Z</time>
      </trkpt>
      <trkpt lat="44.61191" lon="5.97797">
        <ele>1228.7</ele>
        <time>2016-10-10T13:18:11Z</time>
      </trkpt>
      <trkpt lat="44.6119" lon="5.97799">
        <ele>1228.22</ele>
        <time>2016-10-10T13:18:16Z</time>
      </trkpt>
      <trkpt lat="44.61185" lon="5.97814">
        <ele>1228.7</ele>
        <time>2016-10-10T13:18:31Z</time>
      </trkpt>
      <trkpt lat="44.61186" lon="5.97833">
        <ele>1228.7</ele>
        <time>2016-10-10T13:18:42Z</time>
      </trkpt>
      <trkpt lat="44.61185" lon="5.97852">
        <ele>1228.22</ele>
        <time>2016-10-10T13:18:56Z</time>
      </trkpt>
      <trkpt lat="44.61189" lon="5.97866">
        <ele>1225.34</ele>
        <time>2016-10-10T13:19:12Z</time>
      </trkpt>
      <trkpt lat="44.61195" lon="5.97886">
        <ele>1222.93</ele>
        <time>2016-10-10T13:19:27Z</time>
      </trkpt>
      <trkpt lat="44.61192" lon="5.97897">
        <ele>1221.49</ele>
        <time>2016-10-10T13:19:40Z</time>
      </trkpt>
      <trkpt lat="44.6119" lon="5.97917">
        <ele>1219.09</ele>
        <time>2016-10-10T13:19:57Z</time>
      </trkpt>
      <trkpt lat="44.61192" lon="5.97935">
        <ele>1215.24</ele>
        <time>2016-10-10T13:20:12Z</time>
      </trkpt>
      <trkpt lat="44.61196" lon="5.9795">
        <ele>1213.8</ele>
        <time>2016-10-10T13:20:24Z</time>
      </trkpt>
      <trkpt lat="44.61195" lon="5.97963">
        <ele>1211.88</ele>
        <time>2016-10-10T13:20:38Z</time>
      </trkpt>
      <trkpt lat="44.612" lon="5.9798">
        <ele>1209.96</ele>
        <time>2016-10-10T13:20:50Z</time>
      </trkpt>
      <trkpt lat="44.61205" lon="5.97995">
        <ele>1208.03</ele>
        <time>2016-10-10T13:21:02Z</time>
      </trkpt>
      <trkpt lat="44.61207" lon="5.98001">
        <ele>1206.59</ele>
        <time>2016-10-10T13:21:16Z</time>
      </trkpt>
      <trkpt lat="44.61207" lon="5.9801">
        <ele>1205.63</ele>
        <time>2016-10-10T13:21:28Z</time>
      </trkpt>
      <trkpt lat="44.61208" lon="5.98015">
        <ele>1205.63</ele>
        <time>2016-10-10T13:21:42Z</time>
      </trkpt>
      <trkpt lat="44.61208" lon="5.98025">
        <ele>1203.23</ele>
        <time>2016-10-10T13:21:59Z</time>
      </trkpt>
      <trkpt lat="44.6121" lon="5.98039">
        <ele>1201.3</ele>
        <time>2016-10-10T13:22:12Z</time>
      </trkpt>
      <trkpt lat="44.61212" lon="5.98058">
        <ele>1199.38</ele>
        <time>2016-10-10T13:22:26Z</time>
      </trkpt>
      <trkpt lat="44.61213" lon="5.98063">
        <ele>1198.42</ele>
        <time>2016-10-10T13:22:36Z</time>
      </trkpt>
      <trkpt lat="44.61215" lon="5.98078">
        <ele>1195.54</ele>
        <time>2016-10-10T13:22:50Z</time>
      </trkpt>
      <trkpt lat="44.61216" lon="5.98093">
        <ele>1193.61</ele>
        <time>2016-10-10T13:23:06Z</time>
      </trkpt>
      <trkpt lat="44.61215" lon="5.98104">
        <ele>1191.69</ele>
        <time>2016-10-10T13:23:20Z</time>
      </trkpt>
      <trkpt lat="44.61211" lon="5.98116">
        <ele>1190.25</ele>
        <time>2016-10-10T13:23:31Z</time>
      </trkpt>
      <trkpt lat="44.61208" lon="5.98123">
        <ele>1189.77</ele>
        <time>2016-10-10T13:23:43Z</time>
      </trkpt>
      <trkpt lat="44.61205" lon="5.98124">
        <ele>1190.73</ele>
        <time>2016-10-10T13:23:49Z</time>
      </trkpt>
      <trkpt lat="44.61199" lon="5.98134">
        <ele>1190.25</ele>
        <time>2016-10-10T13:24:00Z</time>
      </trkpt>
      <trkpt lat="44.61197" lon="5.9814">
        <ele>1189.29</ele>
        <time>2016-10-10T13:24:11Z</time>
      </trkpt>
      <trkpt lat="44.6119" lon="5.98161">
        <ele>1187.37</ele>
        <time>2016-10-10T13:24:25Z</time>
      </trkpt>
      <trkpt lat="44.61188" lon="5.98164">
        <ele>1186.88</ele>
        <time>2016-10-10T13:24:30Z</time>
      </trkpt>
      <trkpt lat="44.61184" lon="5.98168">
        <ele>1186.88</ele>
        <time>2016-10-10T13:24:36Z</time>
      </trkpt>
      <trkpt lat="44.61178" lon="5.98179">
        <ele>1186.4</ele>
        <time>2016-10-10T13:24:49Z</time>
      </trkpt>
      <trkpt lat="44.61173" lon="5.9819">
        <ele>1184.48</ele>
        <time>2016-10-10T13:25:02Z</time>
      </trkpt>
      <trkpt lat="44.61157" lon="5.98204">
        <ele>1184</ele>
        <time>2016-10-10T13:25:18Z</time>
      </trkpt>
      <trkpt lat="44.61156" lon="5.98212">
        <ele>1183.04</ele>
        <time>2016-10-10T13:25:28Z</time>
      </trkpt>
      <trkpt lat="44.61154" lon="5.98229">
        <ele>1183.04</ele>
        <time>2016-10-10T13:25:41Z</time>
      </trkpt>
      <trkpt lat="44.61154" lon="5.98242">
        <ele>1182.56</ele>
        <time>2016-10-10T13:25:49Z</time>
      </trkpt>
      <trkpt lat="44.61153" lon="5.98245">
        <ele>1183.04</ele>
        <time>2016-10-10T13:25:51Z</time>
      </trkpt>
      <trkpt lat="44.61146" lon="5.98257">
        <ele>1181.6</ele>
        <time>2016-10-10T13:26:01Z</time>
      </trkpt>
      <trkpt lat="44.61135" lon="5.98272">
        <ele>1181.6</ele>
        <time>2016-10-10T13:26:15Z</time>
      </trkpt>
      <trkpt lat="44.61137" lon="5.98283">
        <ele>1180.16</ele>
        <time>2016-10-10T13:26:26Z</time>
      </trkpt>
      <trkpt lat="44.61136" lon="5.98295">
        <ele>1179.19</ele>
        <time>2016-10-10T13:26:37Z</time>
      </trkpt>
      <trkpt lat="44.61128" lon="5.98306">
        <ele>1177.27</ele>
        <time>2016-10-10T13:26:48Z</time>
      </trkpt>
      <trkpt lat="44.61123" lon="5.98313">
        <ele>1177.27</ele>
        <time>2016-10-10T13:26:56Z</time>
      </trkpt>
      <trkpt lat="44.61119" lon="5.98315">
        <ele>1177.75</ele>
        <time>2016-10-10T13:27:00Z</time>
      </trkpt>
      <trkpt lat="44.6111" lon="5.98326">
        <ele>1176.79</ele>
        <time>2016-10-10T13:27:18Z</time>
      </trkpt>
      <trkpt lat="44.61105" lon="5.98336">
        <ele>1176.79</ele>
        <time>2016-10-10T13:27:26Z</time>
      </trkpt>
      <trkpt lat="44.61095" lon="5.98346">
        <ele>1175.83</ele>
        <time>2016-10-10T13:27:37Z</time>
      </trkpt>
      <trkpt lat="44.61085" lon="5.98354">
        <ele>1175.83</ele>
        <time>2016-10-10T13:27:48Z</time>
      </trkpt>
      <trkpt lat="44.61084" lon="5.98355">
        <ele>1175.83</ele>
        <time>2016-10-10T13:27:49Z</time>
      </trkpt>
      <trkpt lat="44.61075" lon="5.98368">
        <ele>1174.87</ele>
        <time>2016-10-10T13:28:00Z</time>
      </trkpt>
      <trkpt lat="44.61067" lon="5.98377">
        <ele>1173.91</ele>
        <time>2016-10-10T13:28:12Z</time>
      </trkpt>
      <trkpt lat="44.61063" lon="5.98389">
        <ele>1173.91</ele>
        <time>2016-10-10T13:28:24Z</time>
      </trkpt>
      <trkpt lat="44.61059" lon="5.98407">
        <ele>1174.39</ele>
        <time>2016-10-10T13:28:37Z</time>
      </trkpt>
      <trkpt lat="44.61055" lon="5.98419">
        <ele>1171.5</ele>
        <time>2016-10-10T13:28:54Z</time>
      </trkpt>
      <trkpt lat="44.6105" lon="5.98434">
        <ele>1171.5</ele>
        <time>2016-10-10T13:29:05Z</time>
      </trkpt>
      <trkpt lat="44.61048" lon="5.98441">
        <ele>1171.5</ele>
        <time>2016-10-10T13:29:08Z</time>
      </trkpt>
      <trkpt lat="44.61044" lon="5.98462">
        <ele>1169.58</ele>
        <time>2016-10-10T13:29:21Z</time>
      </trkpt>
      <trkpt lat="44.61038" lon="5.98476">
        <ele>1168.14</ele>
        <time>2016-10-10T13:29:36Z</time>
      </trkpt>
      <trkpt lat="44.61032" lon="5.98492">
        <ele>1168.14</ele>
        <time>2016-10-10T13:29:44Z</time>
      </trkpt>
      <trkpt lat="44.61024" lon="5.98507">
        <ele>1165.74</ele>
        <time>2016-10-10T13:29:59Z</time>
      </trkpt>
      <trkpt lat="44.61021" lon="5.98525">
        <ele>1165.74</ele>
        <time>2016-10-10T13:30:10Z</time>
      </trkpt>
      <trkpt lat="44.61017" lon="5.9854">
        <ele>1165.26</ele>
        <time>2016-10-10T13:30:24Z</time>
      </trkpt>
      <trkpt lat="44.61016" lon="5.98559">
        <ele>1165.26</ele>
        <time>2016-10-10T13:30:39Z</time>
      </trkpt>
      <trkpt lat="44.61009" lon="5.98566">
        <ele>1164.77</ele>
        <time>2016-10-10T13:30:49Z</time>
      </trkpt>
      <trkpt lat="44.60996" lon="5.98569">
        <ele>1162.85</ele>
        <time>2016-10-10T13:31:02Z</time>
      </trkpt>
      <trkpt lat="44.6099" lon="5.98568">
        <ele>1161.41</ele>
        <time>2016-10-10T13:31:14Z</time>
      </trkpt>
      <trkpt lat="44.60983" lon="5.98571">
        <ele>1162.85</ele>
        <time>2016-10-10T13:31:28Z</time>
      </trkpt>
      <trkpt lat="44.60975" lon="5.98578">
        <ele>1162.85</ele>
        <time>2016-10-10T13:31:43Z</time>
      </trkpt>
      <trkpt lat="44.60962" lon="5.98588">
        <ele>1162.85</ele>
        <time>2016-10-10T13:31:55Z</time>
      </trkpt>
      <trkpt lat="44.60951" lon="5.98591">
        <ele>1162.85</ele>
        <time>2016-10-10T13:32:08Z</time>
      </trkpt>
      <trkpt lat="44.60939" lon="5.98594">
        <ele>1161.89</ele>
        <time>2016-10-10T13:32:19Z</time>
      </trkpt>
      <trkpt lat="44.6093" lon="5.98598">
        <ele>1160.45</ele>
        <time>2016-10-10T13:32:33Z</time>
      </trkpt>
      <trkpt lat="44.60923" lon="5.98598">
        <ele>1157.56</ele>
        <time>2016-10-10T13:32:53Z</time>
      </trkpt>
      <trkpt lat="44.60922" lon="5.98596">
        <ele>1156.6</ele>
        <time>2016-10-10T13:33:07Z</time>
      </trkpt>
      <trkpt lat="44.60914" lon="5.98598">
        <ele>1156.12</ele>
        <time>2016-10-10T13:33:20Z</time>
      </trkpt>
      <trkpt lat="44.60906" lon="5.98598">
        <ele>1157.56</ele>
        <time>2016-10-10T13:33:26Z</time>
      </trkpt>
      <trkpt lat="44.60897" lon="5.98599">
        <ele>1158.53</ele>
        <time>2016-10-10T13:33:39Z</time>
      </trkpt>
      <trkpt lat="44.60893" lon="5.98601">
        <ele>1157.08</ele>
        <time>2016-10-10T13:33:50Z</time>
      </trkpt>
      <trkpt lat="44.60893" lon="5.9861">
        <ele>1156.6</ele>
        <time>2016-10-10T13:34:06Z</time>
      </trkpt>
      <trkpt lat="44.60894" lon="5.98613">
        <ele>1158.05</ele>
        <time>2016-10-10T13:34:21Z</time>
      </trkpt>
      <trkpt lat="44.60892" lon="5.98628">
        <ele>1158.05</ele>
        <time>2016-10-10T13:34:34Z</time>
      </trkpt>
      <trkpt lat="44.60892" lon="5.98632">
        <ele>1158.53</ele>
        <time>2016-10-10T13:34:37Z</time>
      </trkpt>
      <trkpt lat="44.60891" lon="5.98652">
        <ele>1158.05</ele>
        <time>2016-10-10T13:34:53Z</time>
      </trkpt>
      <trkpt lat="44.60891" lon="5.98656">
        <ele>1158.05</ele>
        <time>2016-10-10T13:34:58Z</time>
      </trkpt>
      <trkpt lat="44.60892" lon="5.98675">
        <ele>1157.56</ele>
        <time>2016-10-10T13:35:14Z</time>
      </trkpt>
      <trkpt lat="44.60889" lon="5.9868">
        <ele>1157.56</ele>
        <time>2016-10-10T13:35:55Z</time>
      </trkpt>
      <trkpt lat="44.6088" lon="5.98693">
        <ele>1157.08</ele>
        <time>2016-10-10T13:36:07Z</time>
      </trkpt>
      <trkpt lat="44.60877" lon="5.98704">
        <ele>1154.68</ele>
        <time>2016-10-10T13:36:20Z</time>
      </trkpt>
      <trkpt lat="44.60867" lon="5.98714">
        <ele>1151.32</ele>
        <time>2016-10-10T13:36:35Z</time>
      </trkpt>
      <trkpt lat="44.60861" lon="5.9872">
        <ele>1149.87</ele>
        <time>2016-10-10T13:36:44Z</time>
      </trkpt>
      <trkpt lat="44.60851" lon="5.98727">
        <ele>1147.95</ele>
        <time>2016-10-10T13:36:59Z</time>
      </trkpt>
      <trkpt lat="44.6084" lon="5.98735">
        <ele>1146.51</ele>
        <time>2016-10-10T13:37:12Z</time>
      </trkpt>
      <trkpt lat="44.60826" lon="5.98738">
        <ele>1146.03</ele>
        <time>2016-10-10T13:37:25Z</time>
      </trkpt>
      <trkpt lat="44.6082" lon="5.98743">
        <ele>1146.99</ele>
        <time>2016-10-10T13:37:40Z</time>
      </trkpt>
      <trkpt lat="44.60816" lon="5.98753">
        <ele>1146.99</ele>
        <time>2016-10-10T13:37:53Z</time>
      </trkpt>
      <trkpt lat="44.6081" lon="5.98757">
        <ele>1146.03</ele>
        <time>2016-10-10T13:38:08Z</time>
      </trkpt>
      <trkpt lat="44.60808" lon="5.98763">
        <ele>1143.63</ele>
        <time>2016-10-10T13:38:28Z</time>
      </trkpt>
      <trkpt lat="44.60787" lon="5.9879">
        <ele>1143.14</ele>
        <time>2016-10-10T13:38:44Z</time>
      </trkpt>
      <trkpt lat="44.60768" lon="5.988">
        <ele>1146.03</ele>
        <time>2016-10-10T13:38:58Z</time>
      </trkpt>
      <trkpt lat="44.60762" lon="5.98806">
        <ele>1147.95</ele>
        <time>2016-10-10T13:39:09Z</time>
      </trkpt>
      <trkpt lat="44.60753" lon="5.98811">
        <ele>1147.95</ele>
        <time>2016-10-10T13:39:21Z</time>
      </trkpt>
      <trkpt lat="44.60752" lon="5.98821">
        <ele>1148.91</ele>
        <time>2016-10-10T13:39:34Z</time>
      </trkpt>
      <trkpt lat="44.60749" lon="5.98828">
        <ele>1150.35</ele>
        <time>2016-10-10T13:39:48Z</time>
      </trkpt>
      <trkpt lat="44.60742" lon="5.98847">
        <ele>1150.84</ele>
        <time>2016-10-10T13:40:03Z</time>
      </trkpt>
      <trkpt lat="44.60733" lon="5.9886">
        <ele>1153.24</ele>
        <time>2016-10-10T13:40:19Z</time>
      </trkpt>
      <trkpt lat="44.60722" lon="5.98866">
        <ele>1153.24</ele>
        <time>2016-10-10T13:40:36Z</time>
      </trkpt>
      <trkpt lat="44.60715" lon="5.98875">
        <ele>1153.24</ele>
        <time>2016-10-10T13:40:53Z</time>
      </trkpt>
      <trkpt lat="44.60716" lon="5.98882">
        <ele>1156.12</ele>
        <time>2016-10-10T13:41:05Z</time>
      </trkpt>
      <trkpt lat="44.60716" lon="5.9889">
        <ele>1158.05</ele>
        <time>2016-10-10T13:41:17Z</time>
      </trkpt>
      <trkpt lat="44.60712" lon="5.98903">
        <ele>1159.97</ele>
        <time>2016-10-10T13:41:29Z</time>
      </trkpt>
      <trkpt lat="44.60708" lon="5.98915">
        <ele>1161.41</ele>
        <time>2016-10-10T13:41:44Z</time>
      </trkpt>
      <trkpt lat="44.60703" lon="5.98931">
        <ele>1161.41</ele>
        <time>2016-10-10T13:41:56Z</time>
      </trkpt>
      <trkpt lat="44.60695" lon="5.98945">
        <ele>1163.33</ele>
        <time>2016-10-10T13:42:09Z</time>
      </trkpt>
      <trkpt lat="44.6069" lon="5.98956">
        <ele>1165.26</ele>
        <time>2016-10-10T13:42:23Z</time>
      </trkpt>
      <trkpt lat="44.60682" lon="5.98968">
        <ele>1166.7</ele>
        <time>2016-10-10T13:42:36Z</time>
      </trkpt>
      <trkpt lat="44.60675" lon="5.98978">
        <ele>1169.58</ele>
        <time>2016-10-10T13:42:50Z</time>
      </trkpt>
      <trkpt lat="44.6067" lon="5.98983">
        <ele>1171.5</ele>
        <time>2016-10-10T13:43:04Z</time>
      </trkpt>
      <trkpt lat="44.60664" lon="5.98983">
        <ele>1173.91</ele>
        <time>2016-10-10T13:43:16Z</time>
      </trkpt>
      <trkpt lat="44.60658" lon="5.98987">
        <ele>1175.83</ele>
        <time>2016-10-10T13:43:26Z</time>
      </trkpt>
      <trkpt lat="44.60649" lon="5.98987">
        <ele>1177.75</ele>
        <time>2016-10-10T13:43:37Z</time>
      </trkpt>
      <trkpt lat="44.60648" lon="5.98987">
        <ele>1177.75</ele>
        <time>2016-10-10T13:43:40Z</time>
      </trkpt>
      <trkpt lat="44.60639" lon="5.98991">
        <ele>1179.19</ele>
        <time>2016-10-10T13:43:53Z</time>
      </trkpt>
      <trkpt lat="44.60632" lon="5.98997">
        <ele>1181.6</ele>
        <time>2016-10-10T13:44:07Z</time>
      </trkpt>
      <trkpt lat="44.60623" lon="5.98999">
        <ele>1183.04</ele>
        <time>2016-10-10T13:44:22Z</time>
      </trkpt>
      <trkpt lat="44.60617" lon="5.99001">
        <ele>1184</ele>
        <time>2016-10-10T13:44:34Z</time>
      </trkpt>
      <trkpt lat="44.60611" lon="5.99008">
        <ele>1184.96</ele>
        <time>2016-10-10T13:44:49Z</time>
      </trkpt>
      <trkpt lat="44.60603" lon="5.99016">
        <ele>1186.88</ele>
        <time>2016-10-10T13:45:01Z</time>
      </trkpt>
      <trkpt lat="44.60595" lon="5.9902">
        <ele>1188.81</ele>
        <time>2016-10-10T13:45:14Z</time>
      </trkpt>
      <trkpt lat="44.6059" lon="5.99025">
        <ele>1190.73</ele>
        <time>2016-10-10T13:45:29Z</time>
      </trkpt>
      <trkpt lat="44.6058" lon="5.9903">
        <ele>1193.61</ele>
        <time>2016-10-10T13:45:45Z</time>
      </trkpt>
      <trkpt lat="44.60572" lon="5.99034">
        <ele>1194.09</ele>
        <time>2016-10-10T13:45:59Z</time>
      </trkpt>
      <trkpt lat="44.60561" lon="5.99042">
        <ele>1192.65</ele>
        <time>2016-10-10T13:46:15Z</time>
      </trkpt>
      <trkpt lat="44.60544" lon="5.99051">
        <ele>1193.61</ele>
        <time>2016-10-10T13:46:27Z</time>
      </trkpt>
      <trkpt lat="44.60537" lon="5.99053">
        <ele>1193.61</ele>
        <time>2016-10-10T13:46:41Z</time>
      </trkpt>
      <trkpt lat="44.60531" lon="5.99059">
        <ele>1195.06</ele>
        <time>2016-10-10T13:46:59Z</time>
      </trkpt>
      <trkpt lat="44.60523" lon="5.99063">
        <ele>1196.02</ele>
        <time>2016-10-10T13:47:14Z</time>
      </trkpt>
      <trkpt lat="44.6051" lon="5.99071">
        <ele>1196.02</ele>
        <time>2016-10-10T13:47:30Z</time>
      </trkpt>
      <trkpt lat="44.60504" lon="5.99074">
        <ele>1198.9</ele>
        <time>2016-10-10T13:47:42Z</time>
      </trkpt>
      <trkpt lat="44.60503" lon="5.99075">
        <ele>1199.38</ele>
        <time>2016-10-10T13:47:45Z</time>
      </trkpt>
      <trkpt lat="44.60496" lon="5.99077">
        <ele>1201.79</ele>
        <time>2016-10-10T13:47:56Z</time>
      </trkpt>
      <trkpt lat="44.60487" lon="5.9908">
        <ele>1203.23</ele>
        <time>2016-10-10T13:48:07Z</time>
      </trkpt>
      <trkpt lat="44.60482" lon="5.99077">
        <ele>1204.67</ele>
        <time>2016-10-10T13:48:16Z</time>
      </trkpt>
      <trkpt lat="44.60475" lon="5.99078">
        <ele>1207.07</ele>
        <time>2016-10-10T13:48:30Z</time>
      </trkpt>
      <trkpt lat="44.6047" lon="5.9907">
        <ele>1209</ele>
        <time>2016-10-10T13:48:41Z</time>
      </trkpt>
      <trkpt lat="44.60464" lon="5.9907">
        <ele>1211.88</ele>
        <time>2016-10-10T13:48:55Z</time>
      </trkpt>
      <trkpt lat="44.6046" lon="5.99069">
        <ele>1214.76</ele>
        <time>2016-10-10T13:49:08Z</time>
      </trkpt>
      <trkpt lat="44.60456" lon="5.99073">
        <ele>1215.24</ele>
        <time>2016-10-10T13:49:22Z</time>
      </trkpt>
      <trkpt lat="44.60449" lon="5.99077">
        <ele>1217.65</ele>
        <time>2016-10-10T13:49:36Z</time>
      </trkpt>
      <trkpt lat="44.60444" lon="5.99078">
        <ele>1220.53</ele>
        <time>2016-10-10T13:49:51Z</time>
      </trkpt>
      <trkpt lat="44.60436" lon="5.99078">
        <ele>1222.45</ele>
        <time>2016-10-10T13:50:04Z</time>
      </trkpt>
      <trkpt lat="44.60428" lon="5.99079">
        <ele>1223.9</ele>
        <time>2016-10-10T13:50:18Z</time>
      </trkpt>
      <trkpt lat="44.60421" lon="5.99077">
        <ele>1226.3</ele>
        <time>2016-10-10T13:50:29Z</time>
      </trkpt>
      <trkpt lat="44.60409" lon="5.99076">
        <ele>1228.22</ele>
        <time>2016-10-10T13:50:41Z</time>
      </trkpt>
      <trkpt lat="44.60404" lon="5.99078">
        <ele>1228.22</ele>
        <time>2016-10-10T13:50:51Z</time>
      </trkpt>
      <trkpt lat="44.60397" lon="5.99084">
        <ele>1229.66</ele>
        <time>2016-10-10T13:51:03Z</time>
      </trkpt>
      <trkpt lat="44.60388" lon="5.99088">
        <ele>1230.62</ele>
        <time>2016-10-10T13:51:18Z</time>
      </trkpt>
      <trkpt lat="44.60382" lon="5.99094">
        <ele>1229.66</ele>
        <time>2016-10-10T13:51:27Z</time>
      </trkpt>
      <trkpt lat="44.60372" lon="5.991">
        <ele>1229.18</ele>
        <time>2016-10-10T13:51:41Z</time>
      </trkpt>
      <trkpt lat="44.60369" lon="5.991">
        <ele>1227.74</ele>
        <time>2016-10-10T13:51:45Z</time>
      </trkpt>
      <trkpt lat="44.6036" lon="5.99105">
        <ele>1226.78</ele>
        <time>2016-10-10T13:52:00Z</time>
      </trkpt>
      <trkpt lat="44.60348" lon="5.99111">
        <ele>1224.86</ele>
        <time>2016-10-10T13:52:14Z</time>
      </trkpt>
      <trkpt lat="44.6034" lon="5.99118">
        <ele>1227.74</ele>
        <time>2016-10-10T13:52:27Z</time>
      </trkpt>
      <trkpt lat="44.60336" lon="5.99131">
        <ele>1230.14</ele>
        <time>2016-10-10T13:52:41Z</time>
      </trkpt>
      <trkpt lat="44.60329" lon="5.99144">
        <ele>1229.18</ele>
        <time>2016-10-10T13:52:54Z</time>
      </trkpt>
      <trkpt lat="44.60325" lon="5.99152">
        <ele>1226.78</ele>
        <time>2016-10-10T13:53:08Z</time>
      </trkpt>
      <trkpt lat="44.60319" lon="5.99166">
        <ele>1225.34</ele>
        <time>2016-10-10T13:53:24Z</time>
      </trkpt>
      <trkpt lat="44.60306" lon="5.99185">
        <ele>1223.9</ele>
        <time>2016-10-10T13:53:40Z</time>
      </trkpt>
      <trkpt lat="44.60292" lon="5.99205">
        <ele>1222.45</ele>
        <time>2016-10-10T13:53:57Z</time>
      </trkpt>
      <trkpt lat="44.60287" lon="5.99215">
        <ele>1221.97</ele>
        <time>2016-10-10T13:54:11Z</time>
      </trkpt>
      <trkpt lat="44.60279" lon="5.99231">
        <ele>1222.93</ele>
        <time>2016-10-10T13:54:27Z</time>
      </trkpt>
      <trkpt lat="44.60272" lon="5.99248">
        <ele>1222.45</ele>
        <time>2016-10-10T13:54:46Z</time>
      </trkpt>
      <trkpt lat="44.60264" lon="5.99259">
        <ele>1221.97</ele>
        <time>2016-10-10T13:54:59Z</time>
      </trkpt>
      <trkpt lat="44.60258" lon="5.99274">
        <ele>1220.05</ele>
        <time>2016-10-10T13:55:14Z</time>
      </trkpt>
      <trkpt lat="44.60258" lon="5.99281">
        <ele>1217.65</ele>
        <time>2016-10-10T13:55:27Z</time>
      </trkpt>
      <trkpt lat="44.60255" lon="5.99288">
        <ele>1214.76</ele>
        <time>2016-10-10T13:55:45Z</time>
      </trkpt>
      <trkpt lat="44.60249" lon="5.99297">
        <ele>1213.32</ele>
        <time>2016-10-10T13:55:57Z</time>
      </trkpt>
      <trkpt lat="44.60247" lon="5.99302">
        <ele>1212.84</ele>
        <time>2016-10-10T13:56:15Z</time>
      </trkpt>
      <trkpt lat="44.60247" lon="5.99313">
        <ele>1214.28</ele>
        <time>2016-10-10T13:56:27Z</time>
      </trkpt>
      <trkpt lat="44.60246" lon="5.9932">
        <ele>1214.76</ele>
        <time>2016-10-10T13:56:39Z</time>
      </trkpt>
      <trkpt lat="44.60248" lon="5.99324">
        <ele>1213.8</ele>
        <time>2016-10-10T13:56:47Z</time>
      </trkpt>
      <trkpt lat="44.60252" lon="5.99331">
        <ele>1212.36</ele>
        <time>2016-10-10T13:56:58Z</time>
      </trkpt>
      <trkpt lat="44.60252" lon="5.99336">
        <ele>1210.92</ele>
        <time>2016-10-10T13:57:08Z</time>
      </trkpt>
      <trkpt lat="44.6025" lon="5.99344">
        <ele>1209.96</ele>
        <time>2016-10-10T13:57:21Z</time>
      </trkpt>
      <trkpt lat="44.60246" lon="5.9935">
        <ele>1210.92</ele>
        <time>2016-10-10T13:57:35Z</time>
      </trkpt>
      <trkpt lat="44.60239" lon="5.99357">
        <ele>1213.8</ele>
        <time>2016-10-10T13:57:49Z</time>
      </trkpt>
      <trkpt lat="44.60236" lon="5.99361">
        <ele>1215.24</ele>
        <time>2016-10-10T13:58:00Z</time>
      </trkpt>
      <trkpt lat="44.60227" lon="5.99371">
        <ele>1216.21</ele>
        <time>2016-10-10T13:58:17Z</time>
      </trkpt>
      <trkpt lat="44.6022" lon="5.99376">
        <ele>1215.72</ele>
        <time>2016-10-10T13:58:30Z</time>
      </trkpt>
      <trkpt lat="44.60217" lon="5.99388">
        <ele>1217.65</ele>
        <time>2016-10-10T13:58:41Z</time>
      </trkpt>
      <trkpt lat="44.6021" lon="5.99401">
        <ele>1219.09</ele>
        <time>2016-10-10T13:58:54Z</time>
      </trkpt>
      <trkpt lat="44.60207" lon="5.99409">
        <ele>1218.61</ele>
        <time>2016-10-10T13:59:06Z</time>
      </trkpt>
      <trkpt lat="44.60203" lon="5.99419">
        <ele>1217.65</ele>
        <time>2016-10-10T13:59:20Z</time>
      </trkpt>
      <trkpt lat="44.60198" lon="5.99428">
        <ele>1218.61</ele>
        <time>2016-10-10T13:59:32Z</time>
      </trkpt>
      <trkpt lat="44.60193" lon="5.99435">
        <ele>1220.05</ele>
        <time>2016-10-10T13:59:44Z</time>
      </trkpt>
      <trkpt lat="44.60185" lon="5.9944">
        <ele>1222.93</ele>
        <time>2016-10-10T13:59:58Z</time>
      </trkpt>
      <trkpt lat="44.60182" lon="5.99448">
        <ele>1222.45</ele>
        <time>2016-10-10T14:00:12Z</time>
      </trkpt>
      <trkpt lat="44.60177" lon="5.9946">
        <ele>1224.38</ele>
        <time>2016-10-10T14:00:23Z</time>
      </trkpt>
      <trkpt lat="44.60173" lon="5.9947">
        <ele>1225.34</ele>
        <time>2016-10-10T14:00:36Z</time>
      </trkpt>
      <trkpt lat="44.60172" lon="5.99478">
        <ele>1223.42</ele>
        <time>2016-10-10T14:00:53Z</time>
      </trkpt>
      <trkpt lat="44.60173" lon="5.99486">
        <ele>1221.97</ele>
        <time>2016-10-10T14:01:12Z</time>
      </trkpt>
      <trkpt lat="44.60184" lon="5.99494">
        <ele>1220.05</ele>
        <time>2016-10-10T14:01:26Z</time>
      </trkpt>
      <trkpt lat="44.60192" lon="5.99499">
        <ele>1218.13</ele>
        <time>2016-10-10T14:01:39Z</time>
      </trkpt>
      <trkpt lat="44.60194" lon="5.99507">
        <ele>1217.65</ele>
        <time>2016-10-10T14:01:45Z</time>
      </trkpt>
      <trkpt lat="44.60192" lon="5.99515">
        <ele>1217.65</ele>
        <time>2016-10-10T14:01:58Z</time>
      </trkpt>
      <trkpt lat="44.60189" lon="5.99521">
        <ele>1218.13</ele>
        <time>2016-10-10T14:02:05Z</time>
      </trkpt>
      <trkpt lat="44.60183" lon="5.99525">
        <ele>1219.09</ele>
        <time>2016-10-10T14:02:19Z</time>
      </trkpt>
      <trkpt lat="44.6018" lon="5.99528">
        <ele>1219.57</ele>
        <time>2016-10-10T14:02:32Z</time>
      </trkpt>
      <trkpt lat="44.6018" lon="5.99536">
        <ele>1220.53</ele>
        <time>2016-10-10T14:02:44Z</time>
      </trkpt>
      <trkpt lat="44.60177" lon="5.9954">
        <ele>1220.53</ele>
        <time>2016-10-10T14:02:56Z</time>
      </trkpt>
      <trkpt lat="44.60177" lon="5.99543">
        <ele>1220.05</ele>
        <time>2016-10-10T14:03:12Z</time>
      </trkpt>
      <trkpt lat="44.60173" lon="5.99546">
        <ele>1220.53</ele>
        <time>2016-10-10T14:03:27Z</time>
      </trkpt>
      <trkpt lat="44.60163" lon="5.99551">
        <ele>1218.61</ele>
        <time>2016-10-10T14:03:48Z</time>
      </trkpt>
      <trkpt lat="44.60156" lon="5.99551">
        <ele>1217.65</ele>
        <time>2016-10-10T14:03:56Z</time>
      </trkpt>
      <trkpt lat="44.60147" lon="5.99556">
        <ele>1216.21</ele>
        <time>2016-10-10T14:04:08Z</time>
      </trkpt>
      <trkpt lat="44.60146" lon="5.9956">
        <ele>1217.17</ele>
        <time>2016-10-10T14:04:18Z</time>
      </trkpt>
      <trkpt lat="44.60148" lon="5.99566">
        <ele>1216.69</ele>
        <time>2016-10-10T14:04:36Z</time>
      </trkpt>
      <trkpt lat="44.60143" lon="5.99571">
        <ele>1215.24</ele>
        <time>2016-10-10T14:04:47Z</time>
      </trkpt>
      <trkpt lat="44.60135" lon="5.99572">
        <ele>1213.8</ele>
        <time>2016-10-10T14:04:59Z</time>
      </trkpt>
      <trkpt lat="44.60128" lon="5.99575">
        <ele>1214.76</ele>
        <time>2016-10-10T14:05:11Z</time>
      </trkpt>
      <trkpt lat="44.60128" lon="5.99575">
        <ele>1214.76</ele>
        <time>2016-10-10T14:05:25Z</time>
      </trkpt>
      <trkpt lat="44.60124" lon="5.99575">
        <ele>1215.24</ele>
        <time>2016-10-10T14:05:40Z</time>
      </trkpt>
      <trkpt lat="44.60118" lon="5.99583">
        <ele>1216.69</ele>
        <time>2016-10-10T14:05:54Z</time>
      </trkpt>
      <trkpt lat="44.60113" lon="5.99587">
        <ele>1218.13</ele>
        <time>2016-10-10T14:06:08Z</time>
      </trkpt>
      <trkpt lat="44.60106" lon="5.99593">
        <ele>1218.61</ele>
        <time>2016-10-10T14:06:19Z</time>
      </trkpt>
      <trkpt lat="44.60104" lon="5.99595">
        <ele>1219.09</ele>
        <time>2016-10-10T14:06:33Z</time>
      </trkpt>
      <trkpt lat="44.60095" lon="5.99601">
        <ele>1218.13</ele>
        <time>2016-10-10T14:06:47Z</time>
      </trkpt>
      <trkpt lat="44.60084" lon="5.99598">
        <ele>1219.57</ele>
        <time>2016-10-10T14:07:02Z</time>
      </trkpt>
      <trkpt lat="44.6008" lon="5.99596">
        <ele>1221.49</ele>
        <time>2016-10-10T14:07:09Z</time>
      </trkpt>
      <trkpt lat="44.60076" lon="5.99592">
        <ele>1223.42</ele>
        <time>2016-10-10T14:07:18Z</time>
      </trkpt>
      <trkpt lat="44.60071" lon="5.99591">
        <ele>1225.34</ele>
        <time>2016-10-10T14:07:29Z</time>
      </trkpt>
      <trkpt lat="44.60069" lon="5.9959">
        <ele>1227.26</ele>
        <time>2016-10-10T14:07:35Z</time>
      </trkpt>
      <trkpt lat="44.60067" lon="5.99585">
        <ele>1227.74</ele>
        <time>2016-10-10T14:07:41Z</time>
      </trkpt>
      <trkpt lat="44.60066" lon="5.99585">
        <ele>1228.7</ele>
        <time>2016-10-10T14:07:43Z</time>
      </trkpt>
      <trkpt lat="44.60062" lon="5.99584">
        <ele>1229.66</ele>
        <time>2016-10-10T14:07:53Z</time>
      </trkpt>
      <trkpt lat="44.60056" lon="5.99587">
        <ele>1228.22</ele>
        <time>2016-10-10T14:08:08Z</time>
      </trkpt>
      <trkpt lat="44.60053" lon="5.99592">
        <ele>1229.18</ele>
        <time>2016-10-10T14:08:19Z</time>
      </trkpt>
      <trkpt lat="44.60051" lon="5.99596">
        <ele>1230.14</ele>
        <time>2016-10-10T14:08:33Z</time>
      </trkpt>
      <trkpt lat="44.60049" lon="5.996">
        <ele>1232.55</ele>
        <time>2016-10-10T14:08:41Z</time>
      </trkpt>
      <trkpt lat="44.60044" lon="5.9961">
        <ele>1231.11</ele>
        <time>2016-10-10T14:08:53Z</time>
      </trkpt>
      <trkpt lat="44.60043" lon="5.99612">
        <ele>1230.62</ele>
        <time>2016-10-10T14:09:11Z</time>
      </trkpt>
      <trkpt lat="44.6004" lon="5.99614">
        <ele>1231.11</ele>
        <time>2016-10-10T14:09:15Z</time>
      </trkpt>
      <trkpt lat="44.60035" lon="5.99619">
        <ele>1229.18</ele>
        <time>2016-10-10T14:09:26Z</time>
      </trkpt>
      <trkpt lat="44.60031" lon="5.99622">
        <ele>1227.26</ele>
        <time>2016-10-10T14:09:37Z</time>
      </trkpt>
      <trkpt lat="44.60024" lon="5.99632">
        <ele>1225.34</ele>
        <time>2016-10-10T14:09:49Z</time>
      </trkpt>
      <trkpt lat="44.60017" lon="5.99639">
        <ele>1225.82</ele>
        <time>2016-10-10T14:10:01Z</time>
      </trkpt>
      <trkpt lat="44.60003" lon="5.99647">
        <ele>1224.38</ele>
        <time>2016-10-10T14:10:14Z</time>
      </trkpt>
      <trkpt lat="44.59992" lon="5.99651">
        <ele>1222.93</ele>
        <time>2016-10-10T14:10:22Z</time>
      </trkpt>
      <trkpt lat="44.59979" lon="5.99652">
        <ele>1221.49</ele>
        <time>2016-10-10T14:10:36Z</time>
      </trkpt>
      <trkpt lat="44.59972" lon="5.99652">
        <ele>1219.09</ele>
        <time>2016-10-10T14:10:49Z</time>
      </trkpt>
      <trkpt lat="44.59968" lon="5.99648">
        <ele>1218.13</ele>
        <time>2016-10-10T14:11:03Z</time>
      </trkpt>
      <trkpt lat="44.59965" lon="5.99646">
        <ele>1217.65</ele>
        <time>2016-10-10T14:11:25Z</time>
      </trkpt>
      <trkpt lat="44.59957" lon="5.99652">
        <ele>1218.13</ele>
        <time>2016-10-10T14:11:38Z</time>
      </trkpt>
      <trkpt lat="44.59952" lon="5.99663">
        <ele>1218.61</ele>
        <time>2016-10-10T14:11:52Z</time>
      </trkpt>
      <trkpt lat="44.59947" lon="5.99672">
        <ele>1217.65</ele>
        <time>2016-10-10T14:12:04Z</time>
      </trkpt>
      <trkpt lat="44.59944" lon="5.99684">
        <ele>1216.21</ele>
        <time>2016-10-10T14:12:18Z</time>
      </trkpt>
      <trkpt lat="44.59938" lon="5.99693">
        <ele>1215.72</ele>
        <time>2016-10-10T14:12:31Z</time>
      </trkpt>
      <trkpt lat="44.5993" lon="5.99703">
        <ele>1215.24</ele>
        <time>2016-10-10T14:12:43Z</time>
      </trkpt>
      <trkpt lat="44.59919" lon="5.99711">
        <ele>1211.4</ele>
        <time>2016-10-10T14:12:58Z</time>
      </trkpt>
      <trkpt lat="44.59913" lon="5.99722">
        <ele>1208.51</ele>
        <time>2016-10-10T14:13:12Z</time>
      </trkpt>
      <trkpt lat="44.59902" lon="5.99734">
        <ele>1206.11</ele>
        <time>2016-10-10T14:13:27Z</time>
      </trkpt>
      <trkpt lat="44.59893" lon="5.99736">
        <ele>1203.23</ele>
        <time>2016-10-10T14:13:41Z</time>
      </trkpt>
      <trkpt lat="44.59885" lon="5.9974">
        <ele>1199.86</ele>
        <time>2016-10-10T14:13:56Z</time>
      </trkpt>
      <trkpt lat="44.59877" lon="5.99746">
        <ele>1200.34</ele>
        <time>2016-10-10T14:14:09Z</time>
      </trkpt>
      <trkpt lat="44.59865" lon="5.99761">
        <ele>1198.9</ele>
        <time>2016-10-10T14:14:24Z</time>
      </trkpt>
      <trkpt lat="44.59848" lon="5.99767">
        <ele>1196.5</ele>
        <time>2016-10-10T14:14:42Z</time>
      </trkpt>
      <trkpt lat="44.59831" lon="5.99772">
        <ele>1193.61</ele>
        <time>2016-10-10T14:14:58Z</time>
      </trkpt>
      <trkpt lat="44.59834" lon="5.99785">
        <ele>1190.73</ele>
        <time>2016-10-10T14:15:12Z</time>
      </trkpt>
      <trkpt lat="44.59828" lon="5.99795">
        <ele>1187.85</ele>
        <time>2016-10-10T14:15:28Z</time>
      </trkpt>
      <trkpt lat="44.59823" lon="5.99801">
        <ele>1184.48</ele>
        <time>2016-10-10T14:15:41Z</time>
      </trkpt>
      <trkpt lat="44.59821" lon="5.99806">
        <ele>1181.12</ele>
        <time>2016-10-10T14:15:53Z</time>
      </trkpt>
      <trkpt lat="44.59819" lon="5.99814">
        <ele>1178.23</ele>
        <time>2016-10-10T14:16:07Z</time>
      </trkpt>
      <trkpt lat="44.59812" lon="5.99823">
        <ele>1174.87</ele>
        <time>2016-10-10T14:16:25Z</time>
      </trkpt>
      <trkpt lat="44.598" lon="5.99833">
        <ele>1171.5</ele>
        <time>2016-10-10T14:16:39Z</time>
      </trkpt>
      <trkpt lat="44.59801" lon="5.99847">
        <ele>1169.58</ele>
        <time>2016-10-10T14:16:52Z</time>
      </trkpt>
      <trkpt lat="44.598" lon="5.99856">
        <ele>1166.22</ele>
        <time>2016-10-10T14:17:05Z</time>
      </trkpt>
      <trkpt lat="44.59804" lon="5.99864">
        <ele>1163.81</ele>
        <time>2016-10-10T14:17:19Z</time>
      </trkpt>
      <trkpt lat="44.59812" lon="5.9987">
        <ele>1160.93</ele>
        <time>2016-10-10T14:17:31Z</time>
      </trkpt>
      <trkpt lat="44.5981" lon="5.99877">
        <ele>1158.05</ele>
        <time>2016-10-10T14:17:46Z</time>
      </trkpt>
      <trkpt lat="44.59803" lon="5.99886">
        <ele>1154.68</ele>
        <time>2016-10-10T14:18:01Z</time>
      </trkpt>
      <trkpt lat="44.59803" lon="5.99887">
        <ele>1153.72</ele>
        <time>2016-10-10T14:18:03Z</time>
      </trkpt>
      <trkpt lat="44.59802" lon="5.99891">
        <ele>1150.84</ele>
        <time>2016-10-10T14:18:15Z</time>
      </trkpt>
      <trkpt lat="44.598" lon="5.99898">
        <ele>1147.47</ele>
        <time>2016-10-10T14:18:28Z</time>
      </trkpt>
      <trkpt lat="44.59799" lon="5.99901">
        <ele>1144.59</ele>
        <time>2016-10-10T14:18:39Z</time>
      </trkpt>
      <trkpt lat="44.59795" lon="5.99908">
        <ele>1141.7</ele>
        <time>2016-10-10T14:18:52Z</time>
      </trkpt>
      <trkpt lat="44.59779" lon="5.99935">
        <ele>1138.34</ele>
        <time>2016-10-10T14:19:07Z</time>
      </trkpt>
      <trkpt lat="44.5977" lon="5.99951">
        <ele>1134.97</ele>
        <time>2016-10-10T14:19:20Z</time>
      </trkpt>
      <trkpt lat="44.59762" lon="5.99967">
        <ele>1131.61</ele>
        <time>2016-10-10T14:19:35Z</time>
      </trkpt>
      <trkpt lat="44.59756" lon="5.99982">
        <ele>1128.73</ele>
        <time>2016-10-10T14:19:49Z</time>
      </trkpt>
      <trkpt lat="44.59758" lon="5.99992">
        <ele>1125.84</ele>
        <time>2016-10-10T14:20:04Z</time>
      </trkpt>
      <trkpt lat="44.59764" lon="6.00006">
        <ele>1122.48</ele>
        <time>2016-10-10T14:20:18Z</time>
      </trkpt>
      <trkpt lat="44.59766" lon="6.0001">
        <ele>1119.59</ele>
        <time>2016-10-10T14:20:26Z</time>
      </trkpt>
      <trkpt lat="44.59773" lon="6.00024">
        <ele>1116.23</ele>
        <time>2016-10-10T14:20:40Z</time>
      </trkpt>
      <trkpt lat="44.59777" lon="6.00035">
        <ele>1113.34</ele>
        <time>2016-10-10T14:20:53Z</time>
      </trkpt>
      <trkpt lat="44.59778" lon="6.00048">
        <ele>1109.98</ele>
        <time>2016-10-10T14:21:06Z</time>
      </trkpt>
      <trkpt lat="44.59778" lon="6.00065">
        <ele>1106.61</ele>
        <time>2016-10-10T14:21:17Z</time>
      </trkpt>
      <trkpt lat="44.59776" lon="6.00081">
        <ele>1103.73</ele>
        <time>2016-10-10T14:21:31Z</time>
      </trkpt>
      <trkpt lat="44.59773" lon="6.00088">
        <ele>1103.73</ele>
        <time>2016-10-10T14:21:47Z</time>
      </trkpt>
      <trkpt lat="44.59769" lon="6.00102">
        <ele>1099.89</ele>
        <time>2016-10-10T14:22:00Z</time>
      </trkpt>
      <trkpt lat="44.59768" lon="6.0011">
        <ele>1098.92</ele>
        <time>2016-10-10T14:22:17Z</time>
      </trkpt>
      <trkpt lat="44.5977" lon="6.00115">
        <ele>1096.04</ele>
        <time>2016-10-10T14:22:32Z</time>
      </trkpt>
      <trkpt lat="44.59771" lon="6.00119">
        <ele>1094.12</ele>
        <time>2016-10-10T14:22:43Z</time>
      </trkpt>
      <trkpt lat="44.5977" lon="6.00119">
        <ele>1094.12</ele>
        <time>2016-10-10T14:22:44Z</time>
      </trkpt>
      <trkpt lat="44.59772" lon="6.00126">
        <ele>1091.23</ele>
        <time>2016-10-10T14:22:58Z</time>
      </trkpt>
      <trkpt lat="44.59778" lon="6.00127">
        <ele>1088.83</ele>
        <time>2016-10-10T14:23:10Z</time>
      </trkpt>
      <trkpt lat="44.59784" lon="6.00124">
        <ele>1086.43</ele>
        <time>2016-10-10T14:23:22Z</time>
      </trkpt>
      <trkpt lat="44.59792" lon="6.00125">
        <ele>1084.5</ele>
        <time>2016-10-10T14:23:39Z</time>
      </trkpt>
      <trkpt lat="44.59793" lon="6.00126">
        <ele>1084.02</ele>
        <time>2016-10-10T14:24:02Z</time>
      </trkpt>
      <trkpt lat="44.59792" lon="6.00126">
        <ele>1080.66</ele>
        <time>2016-10-10T14:24:19Z</time>
      </trkpt>
      <trkpt lat="44.59784" lon="6.00144">
        <ele>1077.29</ele>
        <time>2016-10-10T14:24:33Z</time>
      </trkpt>
      <trkpt lat="44.59779" lon="6.00167">
        <ele>1073.93</ele>
        <time>2016-10-10T14:24:47Z</time>
      </trkpt>
      <trkpt lat="44.5977" lon="6.00185">
        <ele>1071.05</ele>
        <time>2016-10-10T14:25:01Z</time>
      </trkpt>
      <trkpt lat="44.59763" lon="6.002">
        <ele>1067.68</ele>
        <time>2016-10-10T14:25:16Z</time>
      </trkpt>
      <trkpt lat="44.5976" lon="6.00212">
        <ele>1065.76</ele>
        <time>2016-10-10T14:25:27Z</time>
      </trkpt>
      <trkpt lat="44.59753" lon="6.00233">
        <ele>1063.84</ele>
        <time>2016-10-10T14:25:41Z</time>
      </trkpt>
      <trkpt lat="44.59752" lon="6.00242">
        <ele>1061.43</ele>
        <time>2016-10-10T14:25:49Z</time>
      </trkpt>
      <trkpt lat="44.59746" lon="6.00259">
        <ele>1059.03</ele>
        <time>2016-10-10T14:26:04Z</time>
      </trkpt>
      <trkpt lat="44.59741" lon="6.00274">
        <ele>1056.63</ele>
        <time>2016-10-10T14:26:16Z</time>
      </trkpt>
      <trkpt lat="44.59732" lon="6.00293">
        <ele>1054.7</ele>
        <time>2016-10-10T14:26:30Z</time>
      </trkpt>
      <trkpt lat="44.59731" lon="6.00293">
        <ele>1055.18</ele>
        <time>2016-10-10T14:26:31Z</time>
      </trkpt>
      <trkpt lat="44.59729" lon="6.00295">
        <ele>1054.7</ele>
        <time>2016-10-10T14:26:33Z</time>
      </trkpt>
      <trkpt lat="44.59715" lon="6.00316">
        <ele>1053.26</ele>
        <time>2016-10-10T14:26:47Z</time>
      </trkpt>
      <trkpt lat="44.59709" lon="6.00328">
        <ele>1052.3</ele>
        <time>2016-10-10T14:26:55Z</time>
      </trkpt>
      <trkpt lat="44.59701" lon="6.00334">
        <ele>1050.38</ele>
        <time>2016-10-10T14:27:02Z</time>
      </trkpt>
      <trkpt lat="44.59685" lon="6.00338">
        <ele>1047.01</ele>
        <time>2016-10-10T14:27:17Z</time>
      </trkpt>
      <trkpt lat="44.59679" lon="6.00339">
        <ele>1046.05</ele>
        <time>2016-10-10T14:27:24Z</time>
      </trkpt>
      <trkpt lat="44.59668" lon="6.00349">
        <ele>1043.65</ele>
        <time>2016-10-10T14:27:38Z</time>
      </trkpt>
      <trkpt lat="44.59666" lon="6.00357">
        <ele>1041.73</ele>
        <time>2016-10-10T14:27:54Z</time>
      </trkpt>
      <trkpt lat="44.59663" lon="6.00359">
        <ele>1040.76</ele>
        <time>2016-10-10T14:28:10Z</time>
      </trkpt>
      <trkpt lat="44.59655" lon="6.00361">
        <ele>1041.73</ele>
        <time>2016-10-10T14:28:57Z</time>
      </trkpt>
      <trkpt lat="44.59652" lon="6.00366">
        <ele>1041.73</ele>
        <time>2016-10-10T14:29:01Z</time>
      </trkpt>
      <trkpt lat="44.59647" lon="6.0037">
        <ele>1041.25</ele>
        <time>2016-10-10T14:29:06Z</time>
      </trkpt>
      <trkpt lat="44.59645" lon="6.00374">
        <ele>1040.28</ele>
        <time>2016-10-10T14:29:09Z</time>
      </trkpt>
      <trkpt lat="44.59641" lon="6.00379">
        <ele>1040.28</ele>
        <time>2016-10-10T14:29:14Z</time>
      </trkpt>
      <trkpt lat="44.59635" lon="6.00386">
        <ele>1041.25</ele>
        <time>2016-10-10T14:29:25Z</time>
      </trkpt>
      <trkpt lat="44.59633" lon="6.0039">
        <ele>1041.25</ele>
        <time>2016-10-10T14:29:29Z</time>
      </trkpt>
      <trkpt lat="44.5963" lon="6.00392">
        <ele>1042.69</ele>
        <time>2016-10-10T14:29:32Z</time>
      </trkpt>
      <trkpt lat="44.59624" lon="6.00398">
        <ele>1044.61</ele>
        <time>2016-10-10T14:29:42Z</time>
      </trkpt>
      <trkpt lat="44.59622" lon="6.00398">
        <ele>1045.09</ele>
        <time>2016-10-10T14:29:45Z</time>
      </trkpt>
      <trkpt lat="44.59617" lon="6.00401">
        <ele>1046.05</ele>
        <time>2016-10-10T14:29:51Z</time>
      </trkpt>
      <trkpt lat="44.59609" lon="6.00404">
        <ele>1048.45</ele>
        <time>2016-10-10T14:30:01Z</time>
      </trkpt>
      <trkpt lat="44.59607" lon="6.00406">
        <ele>1048.94</ele>
        <time>2016-10-10T14:30:03Z</time>
      </trkpt>
      <trkpt lat="44.59605" lon="6.00407">
        <ele>1048.94</ele>
        <time>2016-10-10T14:30:06Z</time>
      </trkpt>
      <trkpt lat="44.59595" lon="6.00409">
        <ele>1050.38</ele>
        <time>2016-10-10T14:30:18Z</time>
      </trkpt>
      <trkpt lat="44.59592" lon="6.0041">
        <ele>1051.34</ele>
        <time>2016-10-10T14:30:22Z</time>
      </trkpt>
      <trkpt lat="44.59591" lon="6.00411">
        <ele>1051.34</ele>
        <time>2016-10-10T14:30:23Z</time>
      </trkpt>
      <trkpt lat="44.59585" lon="6.00417">
        <ele>1053.74</ele>
        <time>2016-10-10T14:30:36Z</time>
      </trkpt>
      <trkpt lat="44.59579" lon="6.00426">
        <ele>1056.15</ele>
        <time>2016-10-10T14:30:48Z</time>
      </trkpt>
      <trkpt lat="44.59569" lon="6.00428">
        <ele>1058.55</ele>
        <time>2016-10-10T14:31:02Z</time>
      </trkpt>
      <trkpt lat="44.59559" lon="6.00426">
        <ele>1059.99</ele>
        <time>2016-10-10T14:31:15Z</time>
      </trkpt>
      <trkpt lat="44.59548" lon="6.00428">
        <ele>1061.43</ele>
        <time>2016-10-10T14:31:28Z</time>
      </trkpt>
      <trkpt lat="44.59539" lon="6.00429">
        <ele>1062.87</ele>
        <time>2016-10-10T14:31:40Z</time>
      </trkpt>
      <trkpt lat="44.59527" lon="6.00423">
        <ele>1064.32</ele>
        <time>2016-10-10T14:31:55Z</time>
      </trkpt>
      <trkpt lat="44.5952" lon="6.00422">
        <ele>1065.28</ele>
        <time>2016-10-10T14:32:08Z</time>
      </trkpt>
      <trkpt lat="44.59509" lon="6.00426">
        <ele>1066.72</ele>
        <time>2016-10-10T14:32:24Z</time>
      </trkpt>
      <trkpt lat="44.59503" lon="6.00428">
        <ele>1067.68</ele>
        <time>2016-10-10T14:32:34Z</time>
      </trkpt>
      <trkpt lat="44.59496" lon="6.00425">
        <ele>1069.12</ele>
        <time>2016-10-10T14:32:43Z</time>
      </trkpt>
      <trkpt lat="44.59492" lon="6.0042">
        <ele>1069.6</ele>
        <time>2016-10-10T14:32:48Z</time>
      </trkpt>
      <trkpt lat="44.59484" lon="6.00418">
        <ele>1070.08</ele>
        <time>2016-10-10T14:32:54Z</time>
      </trkpt>
      <trkpt lat="44.59471" lon="6.0041">
        <ele>1071.05</ele>
        <time>2016-10-10T14:33:06Z</time>
      </trkpt>
      <trkpt lat="44.59464" lon="6.00403">
        <ele>1072.01</ele>
        <time>2016-10-10T14:33:36Z</time>
      </trkpt>
      <trkpt lat="44.5945" lon="6.00401">
        <ele>1073.45</ele>
        <time>2016-10-10T14:33:53Z</time>
      </trkpt>
      <trkpt lat="44.59432" lon="6.00408">
        <ele>1075.37</ele>
        <time>2016-10-10T14:34:09Z</time>
      </trkpt>
      <trkpt lat="44.59426" lon="6.00406">
        <ele>1075.37</ele>
        <time>2016-10-10T14:34:17Z</time>
      </trkpt>
      <trkpt lat="44.59417" lon="6.00404">
        <ele>1076.33</ele>
        <time>2016-10-10T14:34:25Z</time>
      </trkpt>
      <trkpt lat="44.59404" lon="6.00403">
        <ele>1077.29</ele>
        <time>2016-10-10T14:34:41Z</time>
      </trkpt>
      <trkpt lat="44.59396" lon="6.00404">
        <ele>1076.81</ele>
        <time>2016-10-10T14:34:48Z</time>
      </trkpt>
      <trkpt lat="44.59393" lon="6.00405">
        <ele>1077.29</ele>
        <time>2016-10-10T14:34:50Z</time>
      </trkpt>
      <trkpt lat="44.5939" lon="6.00406">
        <ele>1076.81</ele>
        <time>2016-10-10T14:34:53Z</time>
      </trkpt>
      <trkpt lat="44.59388" lon="6.00407">
        <ele>1077.29</ele>
        <time>2016-10-10T14:34:55Z</time>
      </trkpt>
      <trkpt lat="44.59385" lon="6.00411">
        <ele>1076.33</ele>
        <time>2016-10-10T14:34:58Z</time>
      </trkpt>
      <trkpt lat="44.59377" lon="6.0042">
        <ele>1075.85</ele>
        <time>2016-10-10T14:35:07Z</time>
      </trkpt>
      <trkpt lat="44.59364" lon="6.00414">
        <ele>1077.78</ele>
        <time>2016-10-10T14:35:20Z</time>
      </trkpt>
      <trkpt lat="44.59356" lon="6.00404">
        <ele>1079.22</ele>
        <time>2016-10-10T14:35:31Z</time>
      </trkpt>
      <trkpt lat="44.59346" lon="6.00398">
        <ele>1082.1</ele>
        <time>2016-10-10T14:35:41Z</time>
      </trkpt>
      <trkpt lat="44.59341" lon="6.00395">
        <ele>1083.06</ele>
        <time>2016-10-10T14:35:48Z</time>
      </trkpt>
      <trkpt lat="44.59332" lon="6.00401">
        <ele>1085.47</ele>
        <time>2016-10-10T14:36:01Z</time>
      </trkpt>
      <trkpt lat="44.59322" lon="6.00401">
        <ele>1086.91</ele>
        <time>2016-10-10T14:36:13Z</time>
      </trkpt>
      <trkpt lat="44.59315" lon="6.00395">
        <ele>1088.35</ele>
        <time>2016-10-10T14:36:24Z</time>
      </trkpt>
      <trkpt lat="44.59307" lon="6.0039">
        <ele>1089.79</ele>
        <time>2016-10-10T14:36:35Z</time>
      </trkpt>
      <trkpt lat="44.59301" lon="6.00386">
        <ele>1091.71</ele>
        <time>2016-10-10T14:36:47Z</time>
      </trkpt>
      <trkpt lat="44.59297" lon="6.00381">
        <ele>1092.2</ele>
        <time>2016-10-10T14:36:51Z</time>
      </trkpt>
      <trkpt lat="44.59298" lon="6.00374">
        <ele>1093.64</ele>
        <time>2016-10-10T14:36:57Z</time>
      </trkpt>
      <trkpt lat="44.59289" lon="6.00371">
        <ele>1095.56</ele>
        <time>2016-10-10T14:37:07Z</time>
      </trkpt>
      <trkpt lat="44.59286" lon="6.00367">
        <ele>1097</ele>
        <time>2016-10-10T14:37:12Z</time>
      </trkpt>
      <trkpt lat="44.59278" lon="6.00357">
        <ele>1099.4</ele>
        <time>2016-10-10T14:37:24Z</time>
      </trkpt>
      <trkpt lat="44.59272" lon="6.00352">
        <ele>1100.85</ele>
        <time>2016-10-10T14:37:35Z</time>
      </trkpt>
      <trkpt lat="44.59263" lon="6.00346">
        <ele>1102.77</ele>
        <time>2016-10-10T14:37:49Z</time>
      </trkpt>
      <trkpt lat="44.59254" lon="6.00337">
        <ele>1104.21</ele>
        <time>2016-10-10T14:38:03Z</time>
      </trkpt>
      <trkpt lat="44.59246" lon="6.00332">
        <ele>1106.61</ele>
        <time>2016-10-10T14:38:15Z</time>
      </trkpt>
      <trkpt lat="44.59244" lon="6.00332">
        <ele>1107.1</ele>
        <time>2016-10-10T14:38:29Z</time>
      </trkpt>
      <trkpt lat="44.59242" lon="6.00337">
        <ele>1106.61</ele>
        <time>2016-10-10T14:38:44Z</time>
      </trkpt>
      <trkpt lat="44.59241" lon="6.0034">
        <ele>1107.1</ele>
        <time>2016-10-10T14:38:47Z</time>
      </trkpt>
      <trkpt lat="44.59237" lon="6.00353">
        <ele>1108.06</ele>
        <time>2016-10-10T14:38:57Z</time>
      </trkpt>
      <trkpt lat="44.59236" lon="6.00356">
        <ele>1108.06</ele>
        <time>2016-10-10T14:39:00Z</time>
      </trkpt>
      <trkpt lat="44.59229" lon="6.00369">
        <ele>1109.98</ele>
        <time>2016-10-10T14:39:12Z</time>
      </trkpt>
      <trkpt lat="44.59226" lon="6.0038">
        <ele>1111.42</ele>
        <time>2016-10-10T14:39:23Z</time>
      </trkpt>
      <trkpt lat="44.59221" lon="6.00388">
        <ele>1112.86</ele>
        <time>2016-10-10T14:39:34Z</time>
      </trkpt>
      <trkpt lat="44.59218" lon="6.00392">
        <ele>1113.82</ele>
        <time>2016-10-10T14:39:40Z</time>
      </trkpt>
      <trkpt lat="44.59218" lon="6.00395">
        <ele>1113.82</ele>
        <time>2016-10-10T14:39:43Z</time>
      </trkpt>
      <trkpt lat="44.59218" lon="6.00397">
        <ele>1114.31</ele>
        <time>2016-10-10T14:39:45Z</time>
      </trkpt>
      <trkpt lat="44.59221" lon="6.00397">
        <ele>1115.75</ele>
        <time>2016-10-10T14:39:55Z</time>
      </trkpt>
      <trkpt lat="44.59225" lon="6.0039">
        <ele>1117.19</ele>
        <time>2016-10-10T14:40:04Z</time>
      </trkpt>
      <trkpt lat="44.59226" lon="6.0039">
        <ele>1117.19</ele>
        <time>2016-10-10T14:40:05Z</time>
      </trkpt>
      <trkpt lat="44.59228" lon="6.00386">
        <ele>1117.67</ele>
        <time>2016-10-10T14:40:09Z</time>
      </trkpt>
      <trkpt lat="44.59234" lon="6.00381">
        <ele>1118.63</ele>
        <time>2016-10-10T14:40:17Z</time>
      </trkpt>
      <trkpt lat="44.5924" lon="6.00378">
        <ele>1120.07</ele>
        <time>2016-10-10T14:40:24Z</time>
      </trkpt>
      <trkpt lat="44.59249" lon="6.00375">
        <ele>1122.48</ele>
        <time>2016-10-10T14:40:37Z</time>
      </trkpt>
      <trkpt lat="44.59254" lon="6.00384">
        <ele>1123.44</ele>
        <time>2016-10-10T14:40:48Z</time>
      </trkpt>
      <trkpt lat="44.5925" lon="6.00393">
        <ele>1125.36</ele>
        <time>2016-10-10T14:41:00Z</time>
      </trkpt>
      <trkpt lat="44.59246" lon="6.00402">
        <ele>1126.8</ele>
        <time>2016-10-10T14:41:10Z</time>
      </trkpt>
      <trkpt lat="44.59245" lon="6.00403">
        <ele>1127.28</ele>
        <time>2016-10-10T14:41:11Z</time>
      </trkpt>
      <trkpt lat="44.5924" lon="6.00413">
        <ele>1129.21</ele>
        <time>2016-10-10T14:41:22Z</time>
      </trkpt>
      <trkpt lat="44.59237" lon="6.00419">
        <ele>1130.17</ele>
        <time>2016-10-10T14:41:29Z</time>
      </trkpt>
      <trkpt lat="44.59237" lon="6.00422">
        <ele>1130.65</ele>
        <time>2016-10-10T14:41:32Z</time>
      </trkpt>
      <trkpt lat="44.59232" lon="6.00432">
        <ele>1132.09</ele>
        <time>2016-10-10T14:41:44Z</time>
      </trkpt>
      <trkpt lat="44.59228" lon="6.00439">
        <ele>1134.01</ele>
        <time>2016-10-10T14:41:55Z</time>
      </trkpt>
      <trkpt lat="44.59224" lon="6.00448">
        <ele>1135.94</ele>
        <time>2016-10-10T14:42:07Z</time>
      </trkpt>
      <trkpt lat="44.59218" lon="6.00454">
        <ele>1137.86</ele>
        <time>2016-10-10T14:42:19Z</time>
      </trkpt>
      <trkpt lat="44.59211" lon="6.0046">
        <ele>1139.3</ele>
        <time>2016-10-10T14:42:30Z</time>
      </trkpt>
      <trkpt lat="44.59211" lon="6.0046">
        <ele>1139.3</ele>
        <time>2016-10-10T14:42:31Z</time>
      </trkpt>
      <trkpt lat="44.59202" lon="6.00469">
        <ele>1141.22</ele>
        <time>2016-10-10T14:42:44Z</time>
      </trkpt>
      <trkpt lat="44.59199" lon="6.00473">
        <ele>1142.18</ele>
        <time>2016-10-10T14:42:49Z</time>
      </trkpt>
      <trkpt lat="44.59191" lon="6.00479">
        <ele>1142.18</ele>
        <time>2016-10-10T14:43:00Z</time>
      </trkpt>
      <trkpt lat="44.59183" lon="6.00485">
        <ele>1142.66</ele>
        <time>2016-10-10T14:43:08Z</time>
      </trkpt>
      <trkpt lat="44.59181" lon="6.00486">
        <ele>1143.14</ele>
        <time>2016-10-10T14:43:11Z</time>
      </trkpt>
      <trkpt lat="44.59178" lon="6.00486">
        <ele>1142.66</ele>
        <time>2016-10-10T14:43:14Z</time>
      </trkpt>
      <trkpt lat="44.59176" lon="6.00489">
        <ele>1142.66</ele>
        <time>2016-10-10T14:43:16Z</time>
      </trkpt>
      <trkpt lat="44.59168" lon="6.00494">
        <ele>1143.14</ele>
        <time>2016-10-10T14:43:27Z</time>
      </trkpt>
      <trkpt lat="44.59155" lon="6.00498">
        <ele>1144.59</ele>
        <time>2016-10-10T14:43:41Z</time>
      </trkpt>
      <trkpt lat="44.59144" lon="6.005">
        <ele>1146.03</ele>
        <time>2016-10-10T14:43:55Z</time>
      </trkpt>
      <trkpt lat="44.59133" lon="6.005">
        <ele>1146.51</ele>
        <time>2016-10-10T14:44:07Z</time>
      </trkpt>
      <trkpt lat="44.59131" lon="6.005">
        <ele>1147.47</ele>
        <time>2016-10-10T14:44:10Z</time>
      </trkpt>
      <trkpt lat="44.59121" lon="6.00501">
        <ele>1148.43</ele>
        <time>2016-10-10T14:44:23Z</time>
      </trkpt>
      <trkpt lat="44.59115" lon="6.00501">
        <ele>1149.87</ele>
        <time>2016-10-10T14:44:30Z</time>
      </trkpt>
      <trkpt lat="44.59101" lon="6.005">
        <ele>1152.76</ele>
        <time>2016-10-10T14:44:45Z</time>
      </trkpt>
      <trkpt lat="44.59092" lon="6.00501">
        <ele>1154.68</ele>
        <time>2016-10-10T14:44:57Z</time>
      </trkpt>
      <trkpt lat="44.59089" lon="6.005">
        <ele>1154.68</ele>
        <time>2016-10-10T14:45:00Z</time>
      </trkpt>
      <trkpt lat="44.59088" lon="6.00498">
        <ele>1155.16</ele>
        <time>2016-10-10T14:45:02Z</time>
      </trkpt>
      <trkpt lat="44.59081" lon="6.00497">
        <ele>1157.08</ele>
        <time>2016-10-10T14:45:11Z</time>
      </trkpt>
      <trkpt lat="44.59075" lon="6.00496">
        <ele>1157.56</ele>
        <time>2016-10-10T14:45:22Z</time>
      </trkpt>
      <trkpt lat="44.59065" lon="6.00497">
        <ele>1159.01</ele>
        <time>2016-10-10T14:45:35Z</time>
      </trkpt>
      <trkpt lat="44.59064" lon="6.00496">
        <ele>1160.45</ele>
        <time>2016-10-10T14:45:44Z</time>
      </trkpt>
      <trkpt lat="44.59058" lon="6.00504">
        <ele>1160.45</ele>
        <time>2016-10-10T14:45:57Z</time>
      </trkpt>
      <trkpt lat="44.59059" lon="6.00509">
        <ele>1160.45</ele>
        <time>2016-10-10T14:46:11Z</time>
      </trkpt>
      <trkpt lat="44.59073" lon="6.00514">
        <ele>1160.45</ele>
        <time>2016-10-10T14:46:28Z</time>
      </trkpt>
      <trkpt lat="44.59084" lon="6.00523">
        <ele>1159.01</ele>
        <time>2016-10-10T14:46:41Z</time>
      </trkpt>
      <trkpt lat="44.59095" lon="6.00526">
        <ele>1158.05</ele>
        <time>2016-10-10T14:46:55Z</time>
      </trkpt>
      <trkpt lat="44.59104" lon="6.00529">
        <ele>1159.97</ele>
        <time>2016-10-10T14:47:07Z</time>
      </trkpt>
      <trkpt lat="44.59106" lon="6.00532">
        <ele>1160.93</ele>
        <time>2016-10-10T14:47:27Z</time>
      </trkpt>
      <trkpt lat="44.59111" lon="6.00538">
        <ele>1161.41</ele>
        <time>2016-10-10T14:47:40Z</time>
      </trkpt>
      <trkpt lat="44.59127" lon="6.00539">
        <ele>1161.89</ele>
        <time>2016-10-10T14:47:55Z</time>
      </trkpt>
      <trkpt lat="44.59139" lon="6.00543">
        <ele>1162.37</ele>
        <time>2016-10-10T14:48:09Z</time>
      </trkpt>
      <trkpt lat="44.59146" lon="6.00537">
        <ele>1162.37</ele>
        <time>2016-10-10T14:48:25Z</time>
      </trkpt>
      <trkpt lat="44.59148" lon="6.00538">
        <ele>1162.85</ele>
        <time>2016-10-10T14:48:41Z</time>
      </trkpt>
      <trkpt lat="44.59148" lon="6.00538">
        <ele>1162.85</ele>
        <time>2016-10-10T14:49:09Z</time>
      </trkpt>
      <trkpt lat="44.59147" lon="6.00539">
        <ele>1162.85</ele>
        <time>2016-10-10T14:49:32Z</time>
      </trkpt>
      <trkpt lat="44.59148" lon="6.00539">
        <ele>1162.85</ele>
        <time>2016-10-10T14:49:47Z</time>
      </trkpt>
      <trkpt lat="44.59149" lon="6.00538">
        <ele>1162.85</ele>
        <time>2016-10-10T14:50:10Z</time>
      </trkpt>
      <trkpt lat="44.59149" lon="6.00539">
        <ele>1163.33</ele>
        <time>2016-10-10T14:50:24Z</time>
      </trkpt>
      <trkpt lat="44.5915" lon="6.00538">
        <ele>1163.33</ele>
        <time>2016-10-10T14:50:42Z</time>
      </trkpt>
      <trkpt lat="44.59147" lon="6.00539">
        <ele>1163.81</ele>
        <time>2016-10-10T14:50:57Z</time>
      </trkpt>
      <trkpt lat="44.59149" lon="6.00538">
        <ele>1163.33</ele>
        <time>2016-10-10T14:51:12Z</time>
      </trkpt>
      <trkpt lat="44.59148" lon="6.00538">
        <ele>1162.85</ele>
        <time>2016-10-10T14:51:27Z</time>
      </trkpt>
      <trkpt lat="44.59149" lon="6.00538">
        <ele>1163.33</ele>
        <time>2016-10-10T14:51:47Z</time>
      </trkpt>
      <trkpt lat="44.59147" lon="6.0054">
        <ele>1163.81</ele>
        <time>2016-10-10T14:52:06Z</time>
      </trkpt>
      <trkpt lat="44.59146" lon="6.00539">
        <ele>1163.33</ele>
        <time>2016-10-10T14:52:17Z</time>
      </trkpt>
      <trkpt lat="44.59146" lon="6.00539">
        <ele>1163.33</ele>
        <time>2016-10-10T14:52:30Z</time>
      </trkpt>
      <trkpt lat="44.59146" lon="6.00539">
        <ele>1163.81</ele>
        <time>2016-10-10T14:52:59Z</time>
      </trkpt>
    </trkseg>
  </trk>
</gpx>